<?xml version="1.0" encoding="UTF-8" standalone="no" ?>
<gpx xmlns="http://www.topografix.com/GPX/1/1" xmlns:xsi="http://www.w3.org/2001/XMLSchema-instance" xsi:schemaLocation="http://www.topografix.com/GPX/1/1 http://www.topografix.com/GPX/1/1/gpx.xsd" version="1.1" creator="VisuGPX - https://www.visugpx.com">
  <metadata>
    <name>2021-03-02 15:34:15</name>
  </metadata>
  <trk>
    <name><![CDATA[2021-03-02 15:34:15]]></name>
    <trkseg>
      <trkpt lat="48.1592" lon="0.81583">
        <ele>277</ele>
        <time>2021-03-02T08:17:09Z</time>
      </trkpt>
      <trkpt lat="48.15921" lon="0.81584">
        <ele>156.35</ele>
        <time>2021-03-02T08:25:06Z</time>
      </trkpt>
      <trkpt lat="48.15932" lon="0.81596">
        <ele>158.27</ele>
        <time>2021-03-02T08:26:24Z</time>
      </trkpt>
      <trkpt lat="48.1593" lon="0.81607">
        <ele>159.24</ele>
        <time>2021-03-02T08:26:36Z</time>
      </trkpt>
      <trkpt lat="48.15921" lon="0.81613">
        <ele>159.24</ele>
        <time>2021-03-02T08:26:46Z</time>
      </trkpt>
      <trkpt lat="48.15914" lon="0.8162">
        <ele>157.79</ele>
        <time>2021-03-02T08:26:55Z</time>
      </trkpt>
      <trkpt lat="48.15907" lon="0.81632">
        <ele>157.31</ele>
        <time>2021-03-02T08:27:07Z</time>
      </trkpt>
      <trkpt lat="48.15899" lon="0.81647">
        <ele>156.35</ele>
        <time>2021-03-02T08:27:19Z</time>
      </trkpt>
      <trkpt lat="48.15891" lon="0.81666">
        <ele>155.87</ele>
        <time>2021-03-02T08:27:31Z</time>
      </trkpt>
      <trkpt lat="48.15886" lon="0.81677">
        <ele>155.39</ele>
        <time>2021-03-02T08:27:43Z</time>
      </trkpt>
      <trkpt lat="48.15879" lon="0.81685">
        <ele>154.43</ele>
        <time>2021-03-02T08:28:03Z</time>
      </trkpt>
      <trkpt lat="48.15872" lon="0.81696">
        <ele>153.95</ele>
        <time>2021-03-02T08:28:12Z</time>
      </trkpt>
      <trkpt lat="48.15867" lon="0.81711">
        <ele>153.47</ele>
        <time>2021-03-02T08:28:22Z</time>
      </trkpt>
      <trkpt lat="48.15862" lon="0.81722">
        <ele>152.51</ele>
        <time>2021-03-02T08:28:31Z</time>
      </trkpt>
      <trkpt lat="48.15854" lon="0.8173">
        <ele>152.03</ele>
        <time>2021-03-02T08:28:41Z</time>
      </trkpt>
      <trkpt lat="48.15847" lon="0.81738">
        <ele>151.54</ele>
        <time>2021-03-02T08:28:50Z</time>
      </trkpt>
      <trkpt lat="48.1584" lon="0.81748">
        <ele>151.54</ele>
        <time>2021-03-02T08:29:00Z</time>
      </trkpt>
      <trkpt lat="48.15833" lon="0.81757">
        <ele>151.06</ele>
        <time>2021-03-02T08:29:09Z</time>
      </trkpt>
      <trkpt lat="48.15825" lon="0.81767">
        <ele>150.58</ele>
        <time>2021-03-02T08:29:17Z</time>
      </trkpt>
      <trkpt lat="48.15818" lon="0.81778">
        <ele>150.58</ele>
        <time>2021-03-02T08:29:25Z</time>
      </trkpt>
      <trkpt lat="48.15811" lon="0.81789">
        <ele>150.1</ele>
        <time>2021-03-02T08:29:33Z</time>
      </trkpt>
      <trkpt lat="48.15803" lon="0.81799">
        <ele>150.1</ele>
        <time>2021-03-02T08:29:43Z</time>
      </trkpt>
      <trkpt lat="48.15796" lon="0.8181">
        <ele>150.1</ele>
        <time>2021-03-02T08:29:51Z</time>
      </trkpt>
      <trkpt lat="48.15788" lon="0.8182">
        <ele>150.1</ele>
        <time>2021-03-02T08:30:00Z</time>
      </trkpt>
      <trkpt lat="48.15781" lon="0.81831">
        <ele>150.1</ele>
        <time>2021-03-02T08:30:10Z</time>
      </trkpt>
      <trkpt lat="48.15773" lon="0.81842">
        <ele>150.1</ele>
        <time>2021-03-02T08:30:19Z</time>
      </trkpt>
      <trkpt lat="48.15765" lon="0.81852">
        <ele>150.1</ele>
        <time>2021-03-02T08:30:28Z</time>
      </trkpt>
      <trkpt lat="48.15755" lon="0.81864">
        <ele>150.58</ele>
        <time>2021-03-02T08:30:40Z</time>
      </trkpt>
      <trkpt lat="48.15747" lon="0.81872">
        <ele>150.58</ele>
        <time>2021-03-02T08:30:48Z</time>
      </trkpt>
      <trkpt lat="48.15738" lon="0.81879">
        <ele>150.58</ele>
        <time>2021-03-02T08:30:58Z</time>
      </trkpt>
      <trkpt lat="48.15729" lon="0.81886">
        <ele>150.58</ele>
        <time>2021-03-02T08:31:07Z</time>
      </trkpt>
      <trkpt lat="48.1572" lon="0.81879">
        <ele>150.58</ele>
        <time>2021-03-02T08:31:18Z</time>
      </trkpt>
      <trkpt lat="48.15714" lon="0.81868">
        <ele>150.58</ele>
        <time>2021-03-02T08:31:27Z</time>
      </trkpt>
      <trkpt lat="48.15707" lon="0.81857">
        <ele>150.1</ele>
        <time>2021-03-02T08:31:35Z</time>
      </trkpt>
      <trkpt lat="48.157" lon="0.81847">
        <ele>150.1</ele>
        <time>2021-03-02T08:31:43Z</time>
      </trkpt>
      <trkpt lat="48.15693" lon="0.81838">
        <ele>150.1</ele>
        <time>2021-03-02T08:31:51Z</time>
      </trkpt>
      <trkpt lat="48.15685" lon="0.8183">
        <ele>150.1</ele>
        <time>2021-03-02T08:31:59Z</time>
      </trkpt>
      <trkpt lat="48.15676" lon="0.81824">
        <ele>150.1</ele>
        <time>2021-03-02T08:32:07Z</time>
      </trkpt>
      <trkpt lat="48.15667" lon="0.81816">
        <ele>150.1</ele>
        <time>2021-03-02T08:32:16Z</time>
      </trkpt>
      <trkpt lat="48.15657" lon="0.81812">
        <ele>150.1</ele>
        <time>2021-03-02T08:32:25Z</time>
      </trkpt>
      <trkpt lat="48.15648" lon="0.81805">
        <ele>151.54</ele>
        <time>2021-03-02T08:32:33Z</time>
      </trkpt>
      <trkpt lat="48.15639" lon="0.81798">
        <ele>151.54</ele>
        <time>2021-03-02T08:32:41Z</time>
      </trkpt>
      <trkpt lat="48.15631" lon="0.81793">
        <ele>152.03</ele>
        <time>2021-03-02T08:32:49Z</time>
      </trkpt>
      <trkpt lat="48.15621" lon="0.81787">
        <ele>152.51</ele>
        <time>2021-03-02T08:32:58Z</time>
      </trkpt>
      <trkpt lat="48.15611" lon="0.81783">
        <ele>152.99</ele>
        <time>2021-03-02T08:33:06Z</time>
      </trkpt>
      <trkpt lat="48.15601" lon="0.81782">
        <ele>152.99</ele>
        <time>2021-03-02T08:33:14Z</time>
      </trkpt>
      <trkpt lat="48.15592" lon="0.8178">
        <ele>153.95</ele>
        <time>2021-03-02T08:33:22Z</time>
      </trkpt>
      <trkpt lat="48.15583" lon="0.81782">
        <ele>154.43</ele>
        <time>2021-03-02T08:33:30Z</time>
      </trkpt>
      <trkpt lat="48.15573" lon="0.81784">
        <ele>154.91</ele>
        <time>2021-03-02T08:33:38Z</time>
      </trkpt>
      <trkpt lat="48.15565" lon="0.81789">
        <ele>155.87</ele>
        <time>2021-03-02T08:33:46Z</time>
      </trkpt>
      <trkpt lat="48.15559" lon="0.81796">
        <ele>156.83</ele>
        <time>2021-03-02T08:33:55Z</time>
      </trkpt>
      <trkpt lat="48.1555" lon="0.81804">
        <ele>157.79</ele>
        <time>2021-03-02T08:34:04Z</time>
      </trkpt>
      <trkpt lat="48.15541" lon="0.8181">
        <ele>158.75</ele>
        <time>2021-03-02T08:34:13Z</time>
      </trkpt>
      <trkpt lat="48.15531" lon="0.81817">
        <ele>158.75</ele>
        <time>2021-03-02T08:34:22Z</time>
      </trkpt>
      <trkpt lat="48.15523" lon="0.81821">
        <ele>158.75</ele>
        <time>2021-03-02T08:34:30Z</time>
      </trkpt>
      <trkpt lat="48.15511" lon="0.81822">
        <ele>158.75</ele>
        <time>2021-03-02T08:34:38Z</time>
      </trkpt>
      <trkpt lat="48.15502" lon="0.81821">
        <ele>158.75</ele>
        <time>2021-03-02T08:34:46Z</time>
      </trkpt>
      <trkpt lat="48.15493" lon="0.81821">
        <ele>158.75</ele>
        <time>2021-03-02T08:34:54Z</time>
      </trkpt>
      <trkpt lat="48.15483" lon="0.81821">
        <ele>158.75</ele>
        <time>2021-03-02T08:35:03Z</time>
      </trkpt>
      <trkpt lat="48.15472" lon="0.8182">
        <ele>158.75</ele>
        <time>2021-03-02T08:35:11Z</time>
      </trkpt>
      <trkpt lat="48.15462" lon="0.81818">
        <ele>158.75</ele>
        <time>2021-03-02T08:35:19Z</time>
      </trkpt>
      <trkpt lat="48.15452" lon="0.81817">
        <ele>158.75</ele>
        <time>2021-03-02T08:35:27Z</time>
      </trkpt>
      <trkpt lat="48.15443" lon="0.81816">
        <ele>158.75</ele>
        <time>2021-03-02T08:35:36Z</time>
      </trkpt>
      <trkpt lat="48.15433" lon="0.81816">
        <ele>158.75</ele>
        <time>2021-03-02T08:35:45Z</time>
      </trkpt>
      <trkpt lat="48.15421" lon="0.81814">
        <ele>159.24</ele>
        <time>2021-03-02T08:35:55Z</time>
      </trkpt>
      <trkpt lat="48.15409" lon="0.81813">
        <ele>159.24</ele>
        <time>2021-03-02T08:36:05Z</time>
      </trkpt>
      <trkpt lat="48.15398" lon="0.81812">
        <ele>158.27</ele>
        <time>2021-03-02T08:36:14Z</time>
      </trkpt>
      <trkpt lat="48.15387" lon="0.81811">
        <ele>157.79</ele>
        <time>2021-03-02T08:36:22Z</time>
      </trkpt>
      <trkpt lat="48.15375" lon="0.81808">
        <ele>157.31</ele>
        <time>2021-03-02T08:36:32Z</time>
      </trkpt>
      <trkpt lat="48.15364" lon="0.81809">
        <ele>156.83</ele>
        <time>2021-03-02T08:36:42Z</time>
      </trkpt>
      <trkpt lat="48.15349" lon="0.81812">
        <ele>156.35</ele>
        <time>2021-03-02T08:36:52Z</time>
      </trkpt>
      <trkpt lat="48.15341" lon="0.81811">
        <ele>156.35</ele>
        <time>2021-03-02T08:37:00Z</time>
      </trkpt>
      <trkpt lat="48.15333" lon="0.81806">
        <ele>156.35</ele>
        <time>2021-03-02T08:37:09Z</time>
      </trkpt>
      <trkpt lat="48.15324" lon="0.818">
        <ele>156.35</ele>
        <time>2021-03-02T08:37:18Z</time>
      </trkpt>
      <trkpt lat="48.15314" lon="0.81795">
        <ele>156.35</ele>
        <time>2021-03-02T08:37:27Z</time>
      </trkpt>
      <trkpt lat="48.15304" lon="0.81786">
        <ele>156.83</ele>
        <time>2021-03-02T08:37:39Z</time>
      </trkpt>
      <trkpt lat="48.15295" lon="0.81776">
        <ele>157.79</ele>
        <time>2021-03-02T08:37:48Z</time>
      </trkpt>
      <trkpt lat="48.15286" lon="0.81766">
        <ele>158.27</ele>
        <time>2021-03-02T08:37:57Z</time>
      </trkpt>
      <trkpt lat="48.15277" lon="0.81758">
        <ele>159.24</ele>
        <time>2021-03-02T08:38:06Z</time>
      </trkpt>
      <trkpt lat="48.15269" lon="0.8175">
        <ele>159.72</ele>
        <time>2021-03-02T08:38:15Z</time>
      </trkpt>
      <trkpt lat="48.15261" lon="0.81741">
        <ele>161.16</ele>
        <time>2021-03-02T08:38:24Z</time>
      </trkpt>
      <trkpt lat="48.15253" lon="0.81732">
        <ele>162.12</ele>
        <time>2021-03-02T08:38:33Z</time>
      </trkpt>
      <trkpt lat="48.15246" lon="0.81723">
        <ele>163.08</ele>
        <time>2021-03-02T08:38:42Z</time>
      </trkpt>
      <trkpt lat="48.15237" lon="0.81716">
        <ele>164.04</ele>
        <time>2021-03-02T08:38:51Z</time>
      </trkpt>
      <trkpt lat="48.15229" lon="0.81715">
        <ele>165.48</ele>
        <time>2021-03-02T08:39:00Z</time>
      </trkpt>
      <trkpt lat="48.15222" lon="0.81723">
        <ele>166.93</ele>
        <time>2021-03-02T08:39:09Z</time>
      </trkpt>
      <trkpt lat="48.15217" lon="0.81735">
        <ele>167.41</ele>
        <time>2021-03-02T08:39:18Z</time>
      </trkpt>
      <trkpt lat="48.15211" lon="0.81748">
        <ele>167.41</ele>
        <time>2021-03-02T08:39:28Z</time>
      </trkpt>
      <trkpt lat="48.15204" lon="0.8176">
        <ele>168.37</ele>
        <time>2021-03-02T08:39:38Z</time>
      </trkpt>
      <trkpt lat="48.15195" lon="0.81769">
        <ele>168.85</ele>
        <time>2021-03-02T08:39:47Z</time>
      </trkpt>
      <trkpt lat="48.15184" lon="0.81773">
        <ele>169.33</ele>
        <time>2021-03-02T08:39:57Z</time>
      </trkpt>
      <trkpt lat="48.15174" lon="0.81775">
        <ele>169.33</ele>
        <time>2021-03-02T08:40:07Z</time>
      </trkpt>
      <trkpt lat="48.15164" lon="0.81779">
        <ele>170.29</ele>
        <time>2021-03-02T08:40:16Z</time>
      </trkpt>
      <trkpt lat="48.15155" lon="0.81777">
        <ele>171.25</ele>
        <time>2021-03-02T08:40:26Z</time>
      </trkpt>
      <trkpt lat="48.15149" lon="0.81767">
        <ele>171.73</ele>
        <time>2021-03-02T08:40:35Z</time>
      </trkpt>
      <trkpt lat="48.15145" lon="0.81756">
        <ele>171.73</ele>
        <time>2021-03-02T08:40:45Z</time>
      </trkpt>
      <trkpt lat="48.15136" lon="0.8175">
        <ele>171.73</ele>
        <time>2021-03-02T08:40:53Z</time>
      </trkpt>
      <trkpt lat="48.15126" lon="0.81749">
        <ele>171.73</ele>
        <time>2021-03-02T08:41:01Z</time>
      </trkpt>
      <trkpt lat="48.15116" lon="0.81749">
        <ele>171.73</ele>
        <time>2021-03-02T08:41:09Z</time>
      </trkpt>
      <trkpt lat="48.15108" lon="0.8175">
        <ele>171.73</ele>
        <time>2021-03-02T08:41:16Z</time>
      </trkpt>
      <trkpt lat="48.15099" lon="0.81752">
        <ele>171.73</ele>
        <time>2021-03-02T08:41:24Z</time>
      </trkpt>
      <trkpt lat="48.1509" lon="0.81753">
        <ele>171.73</ele>
        <time>2021-03-02T08:41:33Z</time>
      </trkpt>
      <trkpt lat="48.15079" lon="0.81754">
        <ele>171.73</ele>
        <time>2021-03-02T08:41:43Z</time>
      </trkpt>
      <trkpt lat="48.1507" lon="0.81754">
        <ele>171.73</ele>
        <time>2021-03-02T08:41:52Z</time>
      </trkpt>
      <trkpt lat="48.1506" lon="0.81754">
        <ele>171.73</ele>
        <time>2021-03-02T08:42:01Z</time>
      </trkpt>
      <trkpt lat="48.1505" lon="0.81754">
        <ele>171.73</ele>
        <time>2021-03-02T08:42:10Z</time>
      </trkpt>
      <trkpt lat="48.1504" lon="0.81754">
        <ele>170.29</ele>
        <time>2021-03-02T08:42:19Z</time>
      </trkpt>
      <trkpt lat="48.1503" lon="0.81756">
        <ele>169.81</ele>
        <time>2021-03-02T08:42:28Z</time>
      </trkpt>
      <trkpt lat="48.1502" lon="0.81758">
        <ele>169.33</ele>
        <time>2021-03-02T08:42:38Z</time>
      </trkpt>
      <trkpt lat="48.1501" lon="0.81761">
        <ele>168.85</ele>
        <time>2021-03-02T08:42:47Z</time>
      </trkpt>
      <trkpt lat="48.15" lon="0.81763">
        <ele>168.37</ele>
        <time>2021-03-02T08:42:56Z</time>
      </trkpt>
      <trkpt lat="48.14991" lon="0.81768">
        <ele>168.37</ele>
        <time>2021-03-02T08:43:05Z</time>
      </trkpt>
      <trkpt lat="48.14982" lon="0.81773">
        <ele>168.37</ele>
        <time>2021-03-02T08:43:15Z</time>
      </trkpt>
      <trkpt lat="48.1496" lon="0.81779">
        <ele>168.37</ele>
        <time>2021-03-02T08:43:46Z</time>
      </trkpt>
      <trkpt lat="48.14927" lon="0.81781">
        <ele>168.37</ele>
        <time>2021-03-02T08:44:16Z</time>
      </trkpt>
      <trkpt lat="48.14916" lon="0.81778">
        <ele>169.81</ele>
        <time>2021-03-02T08:44:27Z</time>
      </trkpt>
      <trkpt lat="48.14902" lon="0.81773">
        <ele>170.29</ele>
        <time>2021-03-02T08:44:39Z</time>
      </trkpt>
      <trkpt lat="48.14891" lon="0.81772">
        <ele>170.77</ele>
        <time>2021-03-02T08:44:50Z</time>
      </trkpt>
      <trkpt lat="48.1488" lon="0.81769">
        <ele>171.25</ele>
        <time>2021-03-02T08:45:01Z</time>
      </trkpt>
      <trkpt lat="48.14867" lon="0.81764">
        <ele>171.73</ele>
        <time>2021-03-02T08:45:13Z</time>
      </trkpt>
      <trkpt lat="48.14855" lon="0.81758">
        <ele>171.73</ele>
        <time>2021-03-02T08:45:22Z</time>
      </trkpt>
      <trkpt lat="48.14841" lon="0.81745">
        <ele>172.69</ele>
        <time>2021-03-02T08:45:37Z</time>
      </trkpt>
      <trkpt lat="48.14791" lon="0.8171">
        <ele>178.94</ele>
        <time>2021-03-02T08:46:41Z</time>
      </trkpt>
      <trkpt lat="48.14773" lon="0.81708">
        <ele>180.38</ele>
        <time>2021-03-02T08:46:58Z</time>
      </trkpt>
      <trkpt lat="48.14758" lon="0.8171">
        <ele>181.35</ele>
        <time>2021-03-02T08:47:13Z</time>
      </trkpt>
      <trkpt lat="48.14719" lon="0.81722">
        <ele>186.15</ele>
        <time>2021-03-02T08:48:00Z</time>
      </trkpt>
      <trkpt lat="48.1468" lon="0.81747">
        <ele>189.52</ele>
        <time>2021-03-02T08:52:28Z</time>
      </trkpt>
      <trkpt lat="48.14664" lon="0.81756">
        <ele>190.48</ele>
        <time>2021-03-02T08:52:46Z</time>
      </trkpt>
      <trkpt lat="48.14627" lon="0.81771">
        <ele>192.4</ele>
        <time>2021-03-02T08:53:25Z</time>
      </trkpt>
      <trkpt lat="48.14539" lon="0.8181">
        <ele>202.01</ele>
        <time>2021-03-02T08:55:03Z</time>
      </trkpt>
      <trkpt lat="48.14499" lon="0.81839">
        <ele>207.78</ele>
        <time>2021-03-02T08:55:49Z</time>
      </trkpt>
      <trkpt lat="48.14493" lon="0.81868">
        <ele>208.74</ele>
        <time>2021-03-02T08:56:41Z</time>
      </trkpt>
      <trkpt lat="48.14495" lon="0.81882">
        <ele>208.74</ele>
        <time>2021-03-02T08:56:51Z</time>
      </trkpt>
      <trkpt lat="48.14495" lon="0.81898">
        <ele>208.74</ele>
        <time>2021-03-02T08:57:00Z</time>
      </trkpt>
      <trkpt lat="48.14496" lon="0.81914">
        <ele>208.74</ele>
        <time>2021-03-02T08:57:10Z</time>
      </trkpt>
      <trkpt lat="48.14495" lon="0.81927">
        <ele>208.74</ele>
        <time>2021-03-02T08:57:20Z</time>
      </trkpt>
      <trkpt lat="48.14495" lon="0.81942">
        <ele>208.74</ele>
        <time>2021-03-02T08:57:30Z</time>
      </trkpt>
      <trkpt lat="48.14498" lon="0.81957">
        <ele>208.74</ele>
        <time>2021-03-02T08:57:38Z</time>
      </trkpt>
      <trkpt lat="48.14498" lon="0.81972">
        <ele>208.74</ele>
        <time>2021-03-02T08:57:46Z</time>
      </trkpt>
      <trkpt lat="48.14496" lon="0.81988">
        <ele>209.22</ele>
        <time>2021-03-02T08:57:56Z</time>
      </trkpt>
      <trkpt lat="48.14496" lon="0.82004">
        <ele>209.22</ele>
        <time>2021-03-02T08:58:05Z</time>
      </trkpt>
      <trkpt lat="48.14497" lon="0.82018">
        <ele>209.7</ele>
        <time>2021-03-02T08:58:14Z</time>
      </trkpt>
      <trkpt lat="48.14497" lon="0.82033">
        <ele>210.19</ele>
        <time>2021-03-02T08:58:23Z</time>
      </trkpt>
      <trkpt lat="48.14497" lon="0.82047">
        <ele>210.67</ele>
        <time>2021-03-02T08:58:32Z</time>
      </trkpt>
      <trkpt lat="48.14498" lon="0.82064">
        <ele>211.15</ele>
        <time>2021-03-02T08:58:42Z</time>
      </trkpt>
      <trkpt lat="48.14497" lon="0.8208">
        <ele>211.63</ele>
        <time>2021-03-02T08:58:51Z</time>
      </trkpt>
      <trkpt lat="48.14497" lon="0.82096">
        <ele>211.63</ele>
        <time>2021-03-02T08:59:01Z</time>
      </trkpt>
      <trkpt lat="48.14499" lon="0.82111">
        <ele>212.11</ele>
        <time>2021-03-02T08:59:10Z</time>
      </trkpt>
      <trkpt lat="48.14499" lon="0.82126">
        <ele>212.11</ele>
        <time>2021-03-02T08:59:20Z</time>
      </trkpt>
      <trkpt lat="48.14499" lon="0.82144">
        <ele>213.07</ele>
        <time>2021-03-02T08:59:30Z</time>
      </trkpt>
      <trkpt lat="48.14497" lon="0.82157">
        <ele>213.07</ele>
        <time>2021-03-02T08:59:40Z</time>
      </trkpt>
      <trkpt lat="48.14492" lon="0.82189">
        <ele>213.55</ele>
        <time>2021-03-02T09:00:11Z</time>
      </trkpt>
      <trkpt lat="48.1449" lon="0.82214">
        <ele>213.55</ele>
        <time>2021-03-02T09:00:28Z</time>
      </trkpt>
      <trkpt lat="48.14487" lon="0.82239">
        <ele>212.11</ele>
        <time>2021-03-02T09:00:46Z</time>
      </trkpt>
      <trkpt lat="48.14484" lon="0.82256">
        <ele>211.63</ele>
        <time>2021-03-02T09:00:58Z</time>
      </trkpt>
      <trkpt lat="48.14482" lon="0.82281">
        <ele>210.67</ele>
        <time>2021-03-02T09:01:15Z</time>
      </trkpt>
      <trkpt lat="48.14485" lon="0.82318">
        <ele>210.19</ele>
        <time>2021-03-02T09:01:38Z</time>
      </trkpt>
      <trkpt lat="48.14488" lon="0.82346">
        <ele>210.19</ele>
        <time>2021-03-02T09:01:52Z</time>
      </trkpt>
      <trkpt lat="48.14494" lon="0.8237">
        <ele>209.7</ele>
        <time>2021-03-02T09:02:03Z</time>
      </trkpt>
      <trkpt lat="48.14498" lon="0.82389">
        <ele>209.22</ele>
        <time>2021-03-02T09:02:14Z</time>
      </trkpt>
      <trkpt lat="48.14502" lon="0.82407">
        <ele>208.26</ele>
        <time>2021-03-02T09:02:24Z</time>
      </trkpt>
      <trkpt lat="48.14509" lon="0.82436">
        <ele>207.78</ele>
        <time>2021-03-02T09:02:45Z</time>
      </trkpt>
      <trkpt lat="48.14521" lon="0.82461">
        <ele>207.3</ele>
        <time>2021-03-02T09:03:04Z</time>
      </trkpt>
      <trkpt lat="48.14529" lon="0.8248">
        <ele>206.82</ele>
        <time>2021-03-02T09:03:16Z</time>
      </trkpt>
      <trkpt lat="48.14536" lon="0.82494">
        <ele>206.82</ele>
        <time>2021-03-02T09:03:25Z</time>
      </trkpt>
      <trkpt lat="48.14543" lon="0.82507">
        <ele>206.34</ele>
        <time>2021-03-02T09:03:34Z</time>
      </trkpt>
      <trkpt lat="48.1455" lon="0.8252">
        <ele>206.34</ele>
        <time>2021-03-02T09:03:44Z</time>
      </trkpt>
      <trkpt lat="48.14557" lon="0.82534">
        <ele>206.82</ele>
        <time>2021-03-02T09:03:54Z</time>
      </trkpt>
      <trkpt lat="48.14564" lon="0.82545">
        <ele>206.82</ele>
        <time>2021-03-02T09:04:04Z</time>
      </trkpt>
      <trkpt lat="48.14572" lon="0.82559">
        <ele>206.82</ele>
        <time>2021-03-02T09:04:14Z</time>
      </trkpt>
      <trkpt lat="48.14579" lon="0.82573">
        <ele>206.82</ele>
        <time>2021-03-02T09:04:23Z</time>
      </trkpt>
      <trkpt lat="48.14587" lon="0.82585">
        <ele>206.82</ele>
        <time>2021-03-02T09:04:33Z</time>
      </trkpt>
      <trkpt lat="48.146" lon="0.826">
        <ele>208.26</ele>
        <time>2021-03-02T09:04:58Z</time>
      </trkpt>
      <trkpt lat="48.1463" lon="0.82675">
        <ele>213.55</ele>
        <time>2021-03-02T09:06:00Z</time>
      </trkpt>
      <trkpt lat="48.14639" lon="0.82704">
        <ele>214.99</ele>
        <time>2021-03-02T09:06:19Z</time>
      </trkpt>
      <trkpt lat="48.14648" lon="0.82722">
        <ele>214.99</ele>
        <time>2021-03-02T09:06:33Z</time>
      </trkpt>
      <trkpt lat="48.14673" lon="0.82754">
        <ele>214.99</ele>
        <time>2021-03-02T09:07:03Z</time>
      </trkpt>
      <trkpt lat="48.14688" lon="0.8278">
        <ele>214.99</ele>
        <time>2021-03-02T09:07:24Z</time>
      </trkpt>
      <trkpt lat="48.14695" lon="0.82795">
        <ele>214.99</ele>
        <time>2021-03-02T09:07:38Z</time>
      </trkpt>
      <trkpt lat="48.14702" lon="0.82805">
        <ele>214.99</ele>
        <time>2021-03-02T09:07:51Z</time>
      </trkpt>
      <trkpt lat="48.14709" lon="0.82821">
        <ele>214.99</ele>
        <time>2021-03-02T09:08:04Z</time>
      </trkpt>
      <trkpt lat="48.14716" lon="0.82835">
        <ele>214.99</ele>
        <time>2021-03-02T09:08:16Z</time>
      </trkpt>
      <trkpt lat="48.14726" lon="0.82854">
        <ele>214.99</ele>
        <time>2021-03-02T09:08:31Z</time>
      </trkpt>
      <trkpt lat="48.14735" lon="0.82868">
        <ele>214.99</ele>
        <time>2021-03-02T09:08:44Z</time>
      </trkpt>
      <trkpt lat="48.14744" lon="0.82881">
        <ele>215.95</ele>
        <time>2021-03-02T09:08:58Z</time>
      </trkpt>
      <trkpt lat="48.14753" lon="0.82893">
        <ele>216.43</ele>
        <time>2021-03-02T09:09:10Z</time>
      </trkpt>
      <trkpt lat="48.14778" lon="0.82921">
        <ele>218.36</ele>
        <time>2021-03-02T09:09:42Z</time>
      </trkpt>
      <trkpt lat="48.14792" lon="0.82942">
        <ele>218.36</ele>
        <time>2021-03-02T09:09:59Z</time>
      </trkpt>
      <trkpt lat="48.14804" lon="0.82961">
        <ele>218.84</ele>
        <time>2021-03-02T09:10:14Z</time>
      </trkpt>
      <trkpt lat="48.14812" lon="0.82973">
        <ele>218.84</ele>
        <time>2021-03-02T09:10:25Z</time>
      </trkpt>
      <trkpt lat="48.14822" lon="0.82987">
        <ele>219.32</ele>
        <time>2021-03-02T09:10:38Z</time>
      </trkpt>
      <trkpt lat="48.14839" lon="0.83013">
        <ele>216.91</ele>
        <time>2021-03-02T09:11:00Z</time>
      </trkpt>
      <trkpt lat="48.14849" lon="0.83045">
        <ele>214.03</ele>
        <time>2021-03-02T09:11:22Z</time>
      </trkpt>
      <trkpt lat="48.14849" lon="0.83099">
        <ele>211.15</ele>
        <time>2021-03-02T09:11:57Z</time>
      </trkpt>
      <trkpt lat="48.14907" lon="0.8318">
        <ele>208.74</ele>
        <time>2021-03-02T09:13:10Z</time>
      </trkpt>
      <trkpt lat="48.14982" lon="0.8322">
        <ele>206.34</ele>
        <time>2021-03-02T09:14:26Z</time>
      </trkpt>
      <trkpt lat="48.15059" lon="0.83247">
        <ele>210.19</ele>
        <time>2021-03-02T09:26:56Z</time>
      </trkpt>
      <trkpt lat="48.15149" lon="0.83317">
        <ele>211.63</ele>
        <time>2021-03-02T09:28:41Z</time>
      </trkpt>
      <trkpt lat="48.15188" lon="0.83341">
        <ele>211.63</ele>
        <time>2021-03-02T09:29:24Z</time>
      </trkpt>
      <trkpt lat="48.15215" lon="0.83353">
        <ele>212.11</ele>
        <time>2021-03-02T09:29:49Z</time>
      </trkpt>
      <trkpt lat="48.15285" lon="0.83369">
        <ele>213.07</ele>
        <time>2021-03-02T09:30:59Z</time>
      </trkpt>
      <trkpt lat="48.1536" lon="0.83393">
        <ele>214.99</ele>
        <time>2021-03-02T09:32:09Z</time>
      </trkpt>
      <trkpt lat="48.15374" lon="0.83402">
        <ele>214.99</ele>
        <time>2021-03-02T09:32:26Z</time>
      </trkpt>
      <trkpt lat="48.15384" lon="0.83413">
        <ele>214.99</ele>
        <time>2021-03-02T09:32:38Z</time>
      </trkpt>
      <trkpt lat="48.15381" lon="0.83428">
        <ele>214.99</ele>
        <time>2021-03-02T09:33:09Z</time>
      </trkpt>
      <trkpt lat="48.15376" lon="0.83441">
        <ele>214.99</ele>
        <time>2021-03-02T09:33:19Z</time>
      </trkpt>
      <trkpt lat="48.15373" lon="0.83456">
        <ele>213.55</ele>
        <time>2021-03-02T09:33:29Z</time>
      </trkpt>
      <trkpt lat="48.1537" lon="0.83469">
        <ele>213.07</ele>
        <time>2021-03-02T09:33:38Z</time>
      </trkpt>
      <trkpt lat="48.15366" lon="0.83484">
        <ele>212.11</ele>
        <time>2021-03-02T09:33:47Z</time>
      </trkpt>
      <trkpt lat="48.15364" lon="0.83498">
        <ele>211.63</ele>
        <time>2021-03-02T09:33:56Z</time>
      </trkpt>
      <trkpt lat="48.15363" lon="0.83513">
        <ele>211.15</ele>
        <time>2021-03-02T09:34:05Z</time>
      </trkpt>
      <trkpt lat="48.15362" lon="0.83529">
        <ele>210.67</ele>
        <time>2021-03-02T09:34:14Z</time>
      </trkpt>
      <trkpt lat="48.15361" lon="0.83544">
        <ele>210.19</ele>
        <time>2021-03-02T09:34:22Z</time>
      </trkpt>
      <trkpt lat="48.15361" lon="0.83558">
        <ele>209.22</ele>
        <time>2021-03-02T09:34:31Z</time>
      </trkpt>
      <trkpt lat="48.1536" lon="0.83573">
        <ele>208.74</ele>
        <time>2021-03-02T09:34:40Z</time>
      </trkpt>
      <trkpt lat="48.15359" lon="0.83589">
        <ele>207.78</ele>
        <time>2021-03-02T09:34:49Z</time>
      </trkpt>
      <trkpt lat="48.15356" lon="0.83603">
        <ele>206.82</ele>
        <time>2021-03-02T09:34:58Z</time>
      </trkpt>
      <trkpt lat="48.15355" lon="0.83618">
        <ele>205.86</ele>
        <time>2021-03-02T09:35:07Z</time>
      </trkpt>
      <trkpt lat="48.15353" lon="0.83633">
        <ele>204.9</ele>
        <time>2021-03-02T09:35:17Z</time>
      </trkpt>
      <trkpt lat="48.15351" lon="0.83648">
        <ele>204.42</ele>
        <time>2021-03-02T09:35:26Z</time>
      </trkpt>
      <trkpt lat="48.15346" lon="0.83666">
        <ele>203.46</ele>
        <time>2021-03-02T09:36:17Z</time>
      </trkpt>
      <trkpt lat="48.15341" lon="0.83678">
        <ele>202.49</ele>
        <time>2021-03-02T09:36:28Z</time>
      </trkpt>
      <trkpt lat="48.15335" lon="0.83691">
        <ele>201.53</ele>
        <time>2021-03-02T09:36:39Z</time>
      </trkpt>
      <trkpt lat="48.15329" lon="0.83703">
        <ele>200.09</ele>
        <time>2021-03-02T09:36:51Z</time>
      </trkpt>
      <trkpt lat="48.15322" lon="0.83714">
        <ele>199.61</ele>
        <time>2021-03-02T09:37:02Z</time>
      </trkpt>
      <trkpt lat="48.15316" lon="0.83726">
        <ele>199.13</ele>
        <time>2021-03-02T09:37:12Z</time>
      </trkpt>
      <trkpt lat="48.15309" lon="0.83741">
        <ele>198.17</ele>
        <time>2021-03-02T09:37:45Z</time>
      </trkpt>
      <trkpt lat="48.15303" lon="0.83754">
        <ele>197.69</ele>
        <time>2021-03-02T09:37:57Z</time>
      </trkpt>
      <trkpt lat="48.15297" lon="0.83768">
        <ele>197.69</ele>
        <time>2021-03-02T09:38:07Z</time>
      </trkpt>
      <trkpt lat="48.1529" lon="0.83781">
        <ele>197.21</ele>
        <time>2021-03-02T09:38:17Z</time>
      </trkpt>
      <trkpt lat="48.15283" lon="0.83793">
        <ele>196.73</ele>
        <time>2021-03-02T09:38:26Z</time>
      </trkpt>
      <trkpt lat="48.15277" lon="0.83806">
        <ele>196.25</ele>
        <time>2021-03-02T09:38:36Z</time>
      </trkpt>
      <trkpt lat="48.15271" lon="0.83818">
        <ele>195.77</ele>
        <time>2021-03-02T09:38:45Z</time>
      </trkpt>
      <trkpt lat="48.15265" lon="0.8383">
        <ele>195.77</ele>
        <time>2021-03-02T09:38:54Z</time>
      </trkpt>
      <trkpt lat="48.15259" lon="0.83842">
        <ele>195.28</ele>
        <time>2021-03-02T09:39:03Z</time>
      </trkpt>
      <trkpt lat="48.15253" lon="0.83854">
        <ele>194.8</ele>
        <time>2021-03-02T09:39:12Z</time>
      </trkpt>
      <trkpt lat="48.15247" lon="0.83867">
        <ele>194.8</ele>
        <time>2021-03-02T09:39:21Z</time>
      </trkpt>
      <trkpt lat="48.15243" lon="0.8388">
        <ele>194.32</ele>
        <time>2021-03-02T09:39:30Z</time>
      </trkpt>
      <trkpt lat="48.1524" lon="0.83894">
        <ele>194.32</ele>
        <time>2021-03-02T09:39:39Z</time>
      </trkpt>
      <trkpt lat="48.15237" lon="0.83909">
        <ele>193.84</ele>
        <time>2021-03-02T09:39:48Z</time>
      </trkpt>
      <trkpt lat="48.15235" lon="0.83924">
        <ele>193.36</ele>
        <time>2021-03-02T09:39:57Z</time>
      </trkpt>
      <trkpt lat="48.15235" lon="0.83939">
        <ele>192.88</ele>
        <time>2021-03-02T09:40:06Z</time>
      </trkpt>
      <trkpt lat="48.15235" lon="0.83953">
        <ele>192.88</ele>
        <time>2021-03-02T09:40:15Z</time>
      </trkpt>
      <trkpt lat="48.15232" lon="0.83967">
        <ele>191.92</ele>
        <time>2021-03-02T09:40:24Z</time>
      </trkpt>
      <trkpt lat="48.15227" lon="0.8398">
        <ele>190.96</ele>
        <time>2021-03-02T09:40:32Z</time>
      </trkpt>
      <trkpt lat="48.15222" lon="0.83993">
        <ele>190.48</ele>
        <time>2021-03-02T09:40:42Z</time>
      </trkpt>
      <trkpt lat="48.15216" lon="0.84005">
        <ele>189.52</ele>
        <time>2021-03-02T09:41:06Z</time>
      </trkpt>
      <trkpt lat="48.15211" lon="0.84017">
        <ele>189.04</ele>
        <time>2021-03-02T09:41:16Z</time>
      </trkpt>
      <trkpt lat="48.15203" lon="0.84029">
        <ele>188.08</ele>
        <time>2021-03-02T09:41:39Z</time>
      </trkpt>
      <trkpt lat="48.15198" lon="0.84042">
        <ele>187.11</ele>
        <time>2021-03-02T09:41:50Z</time>
      </trkpt>
      <trkpt lat="48.1519" lon="0.84057">
        <ele>186.63</ele>
        <time>2021-03-02T09:42:10Z</time>
      </trkpt>
      <trkpt lat="48.15186" lon="0.84072">
        <ele>185.67</ele>
        <time>2021-03-02T09:42:21Z</time>
      </trkpt>
      <trkpt lat="48.15183" lon="0.8409">
        <ele>184.71</ele>
        <time>2021-03-02T09:42:31Z</time>
      </trkpt>
      <trkpt lat="48.15182" lon="0.84104">
        <ele>184.23</ele>
        <time>2021-03-02T09:42:42Z</time>
      </trkpt>
      <trkpt lat="48.15185" lon="0.84122">
        <ele>184.23</ele>
        <time>2021-03-02T09:42:51Z</time>
      </trkpt>
      <trkpt lat="48.15189" lon="0.84139">
        <ele>184.23</ele>
        <time>2021-03-02T09:43:00Z</time>
      </trkpt>
      <trkpt lat="48.15193" lon="0.84152">
        <ele>183.75</ele>
        <time>2021-03-02T09:43:07Z</time>
      </trkpt>
      <trkpt lat="48.15196" lon="0.84165">
        <ele>183.75</ele>
        <time>2021-03-02T09:43:15Z</time>
      </trkpt>
      <trkpt lat="48.15198" lon="0.84179">
        <ele>183.75</ele>
        <time>2021-03-02T09:43:23Z</time>
      </trkpt>
      <trkpt lat="48.152" lon="0.84192">
        <ele>183.75</ele>
        <time>2021-03-02T09:43:31Z</time>
      </trkpt>
      <trkpt lat="48.15201" lon="0.84206">
        <ele>183.75</ele>
        <time>2021-03-02T09:43:40Z</time>
      </trkpt>
      <trkpt lat="48.15201" lon="0.84219">
        <ele>183.75</ele>
        <time>2021-03-02T09:43:48Z</time>
      </trkpt>
      <trkpt lat="48.15201" lon="0.84233">
        <ele>183.75</ele>
        <time>2021-03-02T09:43:56Z</time>
      </trkpt>
      <trkpt lat="48.15201" lon="0.84248">
        <ele>183.75</ele>
        <time>2021-03-02T09:44:05Z</time>
      </trkpt>
      <trkpt lat="48.15202" lon="0.84262">
        <ele>184.71</ele>
        <time>2021-03-02T09:44:13Z</time>
      </trkpt>
      <trkpt lat="48.15205" lon="0.84277">
        <ele>185.19</ele>
        <time>2021-03-02T09:44:22Z</time>
      </trkpt>
      <trkpt lat="48.1521" lon="0.84289">
        <ele>185.67</ele>
        <time>2021-03-02T09:44:30Z</time>
      </trkpt>
      <trkpt lat="48.15216" lon="0.843">
        <ele>185.67</ele>
        <time>2021-03-02T09:44:38Z</time>
      </trkpt>
      <trkpt lat="48.15224" lon="0.8431">
        <ele>186.15</ele>
        <time>2021-03-02T09:44:47Z</time>
      </trkpt>
      <trkpt lat="48.15231" lon="0.8432">
        <ele>186.63</ele>
        <time>2021-03-02T09:44:56Z</time>
      </trkpt>
      <trkpt lat="48.15237" lon="0.84331">
        <ele>186.63</ele>
        <time>2021-03-02T09:45:04Z</time>
      </trkpt>
      <trkpt lat="48.15243" lon="0.84343">
        <ele>187.11</ele>
        <time>2021-03-02T09:45:14Z</time>
      </trkpt>
      <trkpt lat="48.15248" lon="0.84356">
        <ele>187.59</ele>
        <time>2021-03-02T09:45:22Z</time>
      </trkpt>
      <trkpt lat="48.15253" lon="0.84369">
        <ele>187.59</ele>
        <time>2021-03-02T09:45:30Z</time>
      </trkpt>
      <trkpt lat="48.15256" lon="0.84382">
        <ele>187.59</ele>
        <time>2021-03-02T09:45:38Z</time>
      </trkpt>
      <trkpt lat="48.1526" lon="0.84394">
        <ele>188.08</ele>
        <time>2021-03-02T09:45:46Z</time>
      </trkpt>
      <trkpt lat="48.15262" lon="0.84406">
        <ele>188.08</ele>
        <time>2021-03-02T09:45:54Z</time>
      </trkpt>
      <trkpt lat="48.15264" lon="0.8442">
        <ele>188.08</ele>
        <time>2021-03-02T09:46:03Z</time>
      </trkpt>
      <trkpt lat="48.15266" lon="0.84436">
        <ele>188.08</ele>
        <time>2021-03-02T09:46:12Z</time>
      </trkpt>
      <trkpt lat="48.15268" lon="0.8445">
        <ele>188.56</ele>
        <time>2021-03-02T09:46:20Z</time>
      </trkpt>
      <trkpt lat="48.1527" lon="0.84463">
        <ele>188.56</ele>
        <time>2021-03-02T09:46:28Z</time>
      </trkpt>
      <trkpt lat="48.15271" lon="0.84478">
        <ele>189.04</ele>
        <time>2021-03-02T09:46:37Z</time>
      </trkpt>
      <trkpt lat="48.1527" lon="0.84494">
        <ele>189.04</ele>
        <time>2021-03-02T09:46:46Z</time>
      </trkpt>
      <trkpt lat="48.1527" lon="0.84508">
        <ele>189.52</ele>
        <time>2021-03-02T09:46:55Z</time>
      </trkpt>
      <trkpt lat="48.15268" lon="0.84524">
        <ele>189.52</ele>
        <time>2021-03-02T09:47:04Z</time>
      </trkpt>
      <trkpt lat="48.15264" lon="0.84537">
        <ele>189.52</ele>
        <time>2021-03-02T09:47:14Z</time>
      </trkpt>
      <trkpt lat="48.1526" lon="0.84554">
        <ele>189.52</ele>
        <time>2021-03-02T09:47:45Z</time>
      </trkpt>
      <trkpt lat="48.15254" lon="0.84573">
        <ele>187.59</ele>
        <time>2021-03-02T09:48:00Z</time>
      </trkpt>
      <trkpt lat="48.15247" lon="0.84588">
        <ele>186.63</ele>
        <time>2021-03-02T09:48:13Z</time>
      </trkpt>
      <trkpt lat="48.15243" lon="0.84603">
        <ele>184.71</ele>
        <time>2021-03-02T09:48:26Z</time>
      </trkpt>
      <trkpt lat="48.15244" lon="0.84637">
        <ele>183.27</ele>
        <time>2021-03-02T09:49:49Z</time>
      </trkpt>
      <trkpt lat="48.15249" lon="0.84665">
        <ele>183.27</ele>
        <time>2021-03-02T09:50:10Z</time>
      </trkpt>
      <trkpt lat="48.15254" lon="0.84684">
        <ele>183.27</ele>
        <time>2021-03-02T09:50:20Z</time>
      </trkpt>
      <trkpt lat="48.15258" lon="0.84704">
        <ele>184.23</ele>
        <time>2021-03-02T09:50:40Z</time>
      </trkpt>
      <trkpt lat="48.15273" lon="0.84798">
        <ele>189.04</ele>
        <time>2021-03-02T09:51:39Z</time>
      </trkpt>
      <trkpt lat="48.1528" lon="0.84812">
        <ele>190</ele>
        <time>2021-03-02T09:51:52Z</time>
      </trkpt>
      <trkpt lat="48.15288" lon="0.84825">
        <ele>190.96</ele>
        <time>2021-03-02T09:52:03Z</time>
      </trkpt>
      <trkpt lat="48.15297" lon="0.8484">
        <ele>192.4</ele>
        <time>2021-03-02T09:52:17Z</time>
      </trkpt>
      <trkpt lat="48.15307" lon="0.8486">
        <ele>193.84</ele>
        <time>2021-03-02T09:52:40Z</time>
      </trkpt>
      <trkpt lat="48.15314" lon="0.84875">
        <ele>194.32</ele>
        <time>2021-03-02T09:52:53Z</time>
      </trkpt>
      <trkpt lat="48.15326" lon="0.84895">
        <ele>194.32</ele>
        <time>2021-03-02T09:53:18Z</time>
      </trkpt>
      <trkpt lat="48.15333" lon="0.84909">
        <ele>194.8</ele>
        <time>2021-03-02T09:53:29Z</time>
      </trkpt>
      <trkpt lat="48.1534" lon="0.84921">
        <ele>195.28</ele>
        <time>2021-03-02T09:53:39Z</time>
      </trkpt>
      <trkpt lat="48.1535" lon="0.84956">
        <ele>195.77</ele>
        <time>2021-03-02T09:54:16Z</time>
      </trkpt>
      <trkpt lat="48.15351" lon="0.84973">
        <ele>196.73</ele>
        <time>2021-03-02T09:54:31Z</time>
      </trkpt>
      <trkpt lat="48.15348" lon="0.84989">
        <ele>196.25</ele>
        <time>2021-03-02T09:54:42Z</time>
      </trkpt>
      <trkpt lat="48.15344" lon="0.85003">
        <ele>196.25</ele>
        <time>2021-03-02T09:54:53Z</time>
      </trkpt>
      <trkpt lat="48.15339" lon="0.85013">
        <ele>196.25</ele>
        <time>2021-03-02T09:55:04Z</time>
      </trkpt>
      <trkpt lat="48.15331" lon="0.85025">
        <ele>196.25</ele>
        <time>2021-03-02T09:55:19Z</time>
      </trkpt>
      <trkpt lat="48.15324" lon="0.85035">
        <ele>196.73</ele>
        <time>2021-03-02T09:55:30Z</time>
      </trkpt>
      <trkpt lat="48.15316" lon="0.85048">
        <ele>197.21</ele>
        <time>2021-03-02T09:55:43Z</time>
      </trkpt>
      <trkpt lat="48.15307" lon="0.8506">
        <ele>197.69</ele>
        <time>2021-03-02T09:55:54Z</time>
      </trkpt>
      <trkpt lat="48.153" lon="0.85072">
        <ele>197.69</ele>
        <time>2021-03-02T09:56:05Z</time>
      </trkpt>
      <trkpt lat="48.15292" lon="0.85083">
        <ele>197.69</ele>
        <time>2021-03-02T09:56:15Z</time>
      </trkpt>
      <trkpt lat="48.15285" lon="0.85092">
        <ele>197.69</ele>
        <time>2021-03-02T09:56:25Z</time>
      </trkpt>
      <trkpt lat="48.15276" lon="0.85102">
        <ele>198.17</ele>
        <time>2021-03-02T09:56:43Z</time>
      </trkpt>
      <trkpt lat="48.15268" lon="0.85111">
        <ele>198.17</ele>
        <time>2021-03-02T09:56:54Z</time>
      </trkpt>
      <trkpt lat="48.15257" lon="0.85123">
        <ele>198.65</ele>
        <time>2021-03-02T09:57:12Z</time>
      </trkpt>
      <trkpt lat="48.15245" lon="0.85134">
        <ele>199.13</ele>
        <time>2021-03-02T09:57:29Z</time>
      </trkpt>
      <trkpt lat="48.15231" lon="0.85147">
        <ele>199.61</ele>
        <time>2021-03-02T09:57:42Z</time>
      </trkpt>
      <trkpt lat="48.15221" lon="0.85156">
        <ele>200.09</ele>
        <time>2021-03-02T09:57:55Z</time>
      </trkpt>
      <trkpt lat="48.15211" lon="0.85165">
        <ele>200.57</ele>
        <time>2021-03-02T09:58:06Z</time>
      </trkpt>
      <trkpt lat="48.15202" lon="0.85174">
        <ele>201.05</ele>
        <time>2021-03-02T09:58:17Z</time>
      </trkpt>
      <trkpt lat="48.15195" lon="0.85189">
        <ele>201.53</ele>
        <time>2021-03-02T09:58:31Z</time>
      </trkpt>
      <trkpt lat="48.15189" lon="0.85207">
        <ele>202.01</ele>
        <time>2021-03-02T09:58:46Z</time>
      </trkpt>
      <trkpt lat="48.15182" lon="0.85224">
        <ele>202.49</ele>
        <time>2021-03-02T09:59:00Z</time>
      </trkpt>
      <trkpt lat="48.15175" lon="0.85236">
        <ele>202.49</ele>
        <time>2021-03-02T09:59:10Z</time>
      </trkpt>
      <trkpt lat="48.15167" lon="0.85251">
        <ele>202.98</ele>
        <time>2021-03-02T09:59:21Z</time>
      </trkpt>
      <trkpt lat="48.15161" lon="0.85266">
        <ele>202.98</ele>
        <time>2021-03-02T09:59:33Z</time>
      </trkpt>
      <trkpt lat="48.15154" lon="0.8528">
        <ele>203.94</ele>
        <time>2021-03-02T09:59:47Z</time>
      </trkpt>
      <trkpt lat="48.15147" lon="0.85294">
        <ele>204.42</ele>
        <time>2021-03-02T09:59:58Z</time>
      </trkpt>
      <trkpt lat="48.15142" lon="0.8531">
        <ele>204.42</ele>
        <time>2021-03-02T10:00:08Z</time>
      </trkpt>
      <trkpt lat="48.15136" lon="0.85321">
        <ele>204.9</ele>
        <time>2021-03-02T10:00:18Z</time>
      </trkpt>
      <trkpt lat="48.1513" lon="0.85333">
        <ele>204.9</ele>
        <time>2021-03-02T10:00:28Z</time>
      </trkpt>
      <trkpt lat="48.15123" lon="0.85346">
        <ele>205.38</ele>
        <time>2021-03-02T10:00:38Z</time>
      </trkpt>
      <trkpt lat="48.15117" lon="0.85358">
        <ele>205.86</ele>
        <time>2021-03-02T10:00:48Z</time>
      </trkpt>
      <trkpt lat="48.15109" lon="0.85368">
        <ele>206.34</ele>
        <time>2021-03-02T10:00:59Z</time>
      </trkpt>
      <trkpt lat="48.15103" lon="0.85379">
        <ele>207.3</ele>
        <time>2021-03-02T10:01:09Z</time>
      </trkpt>
      <trkpt lat="48.15095" lon="0.85392">
        <ele>208.26</ele>
        <time>2021-03-02T10:01:20Z</time>
      </trkpt>
      <trkpt lat="48.1509" lon="0.85408">
        <ele>208.74</ele>
        <time>2021-03-02T10:01:32Z</time>
      </trkpt>
      <trkpt lat="48.15084" lon="0.85421">
        <ele>209.7</ele>
        <time>2021-03-02T10:01:54Z</time>
      </trkpt>
      <trkpt lat="48.15077" lon="0.8543">
        <ele>210.67</ele>
        <time>2021-03-02T10:02:05Z</time>
      </trkpt>
      <trkpt lat="48.15068" lon="0.85437">
        <ele>211.15</ele>
        <time>2021-03-02T10:02:16Z</time>
      </trkpt>
      <trkpt lat="48.15059" lon="0.85442">
        <ele>211.63</ele>
        <time>2021-03-02T10:02:27Z</time>
      </trkpt>
      <trkpt lat="48.15046" lon="0.85454">
        <ele>213.07</ele>
        <time>2021-03-02T10:03:17Z</time>
      </trkpt>
      <trkpt lat="48.1504" lon="0.85464">
        <ele>214.03</ele>
        <time>2021-03-02T10:03:28Z</time>
      </trkpt>
      <trkpt lat="48.15034" lon="0.85475">
        <ele>214.99</ele>
        <time>2021-03-02T10:03:38Z</time>
      </trkpt>
      <trkpt lat="48.15028" lon="0.8549">
        <ele>216.43</ele>
        <time>2021-03-02T10:03:50Z</time>
      </trkpt>
      <trkpt lat="48.15023" lon="0.85504">
        <ele>217.4</ele>
        <time>2021-03-02T10:04:00Z</time>
      </trkpt>
      <trkpt lat="48.15017" lon="0.85518">
        <ele>218.84</ele>
        <time>2021-03-02T10:04:12Z</time>
      </trkpt>
      <trkpt lat="48.15011" lon="0.8553">
        <ele>219.32</ele>
        <time>2021-03-02T10:04:22Z</time>
      </trkpt>
      <trkpt lat="48.15002" lon="0.85543">
        <ele>220.76</ele>
        <time>2021-03-02T10:04:35Z</time>
      </trkpt>
      <trkpt lat="48.14995" lon="0.85554">
        <ele>222.68</ele>
        <time>2021-03-02T10:04:46Z</time>
      </trkpt>
      <trkpt lat="48.14987" lon="0.85565">
        <ele>223.64</ele>
        <time>2021-03-02T10:04:58Z</time>
      </trkpt>
      <trkpt lat="48.14982" lon="0.85578">
        <ele>225.09</ele>
        <time>2021-03-02T10:05:23Z</time>
      </trkpt>
      <trkpt lat="48.14973" lon="0.85588">
        <ele>226.53</ele>
        <time>2021-03-02T10:05:34Z</time>
      </trkpt>
      <trkpt lat="48.14966" lon="0.85599">
        <ele>227.49</ele>
        <time>2021-03-02T10:05:46Z</time>
      </trkpt>
      <trkpt lat="48.14958" lon="0.85611">
        <ele>228.93</ele>
        <time>2021-03-02T10:05:57Z</time>
      </trkpt>
      <trkpt lat="48.14949" lon="0.85621">
        <ele>229.89</ele>
        <time>2021-03-02T10:06:08Z</time>
      </trkpt>
      <trkpt lat="48.14941" lon="0.85631">
        <ele>230.85</ele>
        <time>2021-03-02T10:06:18Z</time>
      </trkpt>
      <trkpt lat="48.14934" lon="0.85641">
        <ele>231.81</ele>
        <time>2021-03-02T10:06:27Z</time>
      </trkpt>
      <trkpt lat="48.14927" lon="0.85653">
        <ele>233.26</ele>
        <time>2021-03-02T10:06:37Z</time>
      </trkpt>
      <trkpt lat="48.14921" lon="0.85663">
        <ele>233.74</ele>
        <time>2021-03-02T10:06:46Z</time>
      </trkpt>
      <trkpt lat="48.14914" lon="0.85675">
        <ele>235.18</ele>
        <time>2021-03-02T10:06:56Z</time>
      </trkpt>
      <trkpt lat="48.14908" lon="0.85687">
        <ele>236.14</ele>
        <time>2021-03-02T10:07:05Z</time>
      </trkpt>
      <trkpt lat="48.14901" lon="0.85698">
        <ele>237.1</ele>
        <time>2021-03-02T10:07:19Z</time>
      </trkpt>
      <trkpt lat="48.14894" lon="0.8571">
        <ele>237.58</ele>
        <time>2021-03-02T10:07:33Z</time>
      </trkpt>
      <trkpt lat="48.14887" lon="0.8572">
        <ele>238.54</ele>
        <time>2021-03-02T10:07:42Z</time>
      </trkpt>
      <trkpt lat="48.14879" lon="0.85731">
        <ele>239.99</ele>
        <time>2021-03-02T10:07:53Z</time>
      </trkpt>
      <trkpt lat="48.14872" lon="0.85742">
        <ele>240.47</ele>
        <time>2021-03-02T10:08:03Z</time>
      </trkpt>
      <trkpt lat="48.14865" lon="0.85752">
        <ele>241.91</ele>
        <time>2021-03-02T10:08:12Z</time>
      </trkpt>
      <trkpt lat="48.14858" lon="0.85763">
        <ele>242.87</ele>
        <time>2021-03-02T10:08:23Z</time>
      </trkpt>
      <trkpt lat="48.14846" lon="0.85773">
        <ele>244.31</ele>
        <time>2021-03-02T10:08:35Z</time>
      </trkpt>
      <trkpt lat="48.14833" lon="0.8578">
        <ele>244.31</ele>
        <time>2021-03-02T10:08:49Z</time>
      </trkpt>
      <trkpt lat="48.14824" lon="0.85785">
        <ele>245.27</ele>
        <time>2021-03-02T10:09:00Z</time>
      </trkpt>
      <trkpt lat="48.14814" lon="0.85791">
        <ele>245.75</ele>
        <time>2021-03-02T10:09:11Z</time>
      </trkpt>
      <trkpt lat="48.14804" lon="0.85798">
        <ele>247.2</ele>
        <time>2021-03-02T10:09:22Z</time>
      </trkpt>
      <trkpt lat="48.14793" lon="0.85806">
        <ele>247.68</ele>
        <time>2021-03-02T10:09:33Z</time>
      </trkpt>
      <trkpt lat="48.14783" lon="0.85813">
        <ele>248.16</ele>
        <time>2021-03-02T10:09:44Z</time>
      </trkpt>
      <trkpt lat="48.14773" lon="0.85819">
        <ele>249.12</ele>
        <time>2021-03-02T10:09:55Z</time>
      </trkpt>
      <trkpt lat="48.14763" lon="0.85826">
        <ele>249.6</ele>
        <time>2021-03-02T10:10:07Z</time>
      </trkpt>
      <trkpt lat="48.14752" lon="0.85832">
        <ele>250.56</ele>
        <time>2021-03-02T10:10:18Z</time>
      </trkpt>
      <trkpt lat="48.14741" lon="0.85837">
        <ele>251.04</ele>
        <time>2021-03-02T10:10:29Z</time>
      </trkpt>
      <trkpt lat="48.14731" lon="0.85848">
        <ele>251.52</ele>
        <time>2021-03-02T10:10:41Z</time>
      </trkpt>
      <trkpt lat="48.14718" lon="0.8586">
        <ele>252</ele>
        <time>2021-03-02T10:10:56Z</time>
      </trkpt>
      <trkpt lat="48.14706" lon="0.85874">
        <ele>252.96</ele>
        <time>2021-03-02T10:11:23Z</time>
      </trkpt>
      <trkpt lat="48.14709" lon="0.85883">
        <ele>253.44</ele>
        <time>2021-03-02T10:14:07Z</time>
      </trkpt>
      <trkpt lat="48.14717" lon="0.85893">
        <ele>253.44</ele>
        <time>2021-03-02T10:14:17Z</time>
      </trkpt>
      <trkpt lat="48.14725" lon="0.85904">
        <ele>253.44</ele>
        <time>2021-03-02T10:14:27Z</time>
      </trkpt>
      <trkpt lat="48.14733" lon="0.85914">
        <ele>253.44</ele>
        <time>2021-03-02T10:14:36Z</time>
      </trkpt>
      <trkpt lat="48.14741" lon="0.85925">
        <ele>253.44</ele>
        <time>2021-03-02T10:14:45Z</time>
      </trkpt>
      <trkpt lat="48.14747" lon="0.85934">
        <ele>253.44</ele>
        <time>2021-03-02T10:14:53Z</time>
      </trkpt>
      <trkpt lat="48.14755" lon="0.85942">
        <ele>253.44</ele>
        <time>2021-03-02T10:15:02Z</time>
      </trkpt>
      <trkpt lat="48.14761" lon="0.85954">
        <ele>253.44</ele>
        <time>2021-03-02T10:15:10Z</time>
      </trkpt>
      <trkpt lat="48.14767" lon="0.85964">
        <ele>253.44</ele>
        <time>2021-03-02T10:15:18Z</time>
      </trkpt>
      <trkpt lat="48.14773" lon="0.85973">
        <ele>253.44</ele>
        <time>2021-03-02T10:15:26Z</time>
      </trkpt>
      <trkpt lat="48.14779" lon="0.85983">
        <ele>253.44</ele>
        <time>2021-03-02T10:15:34Z</time>
      </trkpt>
      <trkpt lat="48.14786" lon="0.85994">
        <ele>253.44</ele>
        <time>2021-03-02T10:15:41Z</time>
      </trkpt>
      <trkpt lat="48.14792" lon="0.86003">
        <ele>253.44</ele>
        <time>2021-03-02T10:15:49Z</time>
      </trkpt>
      <trkpt lat="48.14799" lon="0.86013">
        <ele>253.44</ele>
        <time>2021-03-02T10:15:58Z</time>
      </trkpt>
      <trkpt lat="48.14806" lon="0.86024">
        <ele>253.44</ele>
        <time>2021-03-02T10:16:06Z</time>
      </trkpt>
      <trkpt lat="48.14812" lon="0.86035">
        <ele>253.44</ele>
        <time>2021-03-02T10:16:15Z</time>
      </trkpt>
      <trkpt lat="48.14818" lon="0.86045">
        <ele>253.44</ele>
        <time>2021-03-02T10:16:23Z</time>
      </trkpt>
      <trkpt lat="48.14825" lon="0.86055">
        <ele>253.44</ele>
        <time>2021-03-02T10:16:31Z</time>
      </trkpt>
      <trkpt lat="48.14831" lon="0.86065">
        <ele>253.44</ele>
        <time>2021-03-02T10:16:39Z</time>
      </trkpt>
      <trkpt lat="48.14838" lon="0.86076">
        <ele>253.44</ele>
        <time>2021-03-02T10:16:47Z</time>
      </trkpt>
      <trkpt lat="48.14842" lon="0.86088">
        <ele>253.44</ele>
        <time>2021-03-02T10:16:56Z</time>
      </trkpt>
      <trkpt lat="48.1485" lon="0.86096">
        <ele>253.44</ele>
        <time>2021-03-02T10:17:06Z</time>
      </trkpt>
      <trkpt lat="48.14857" lon="0.86107">
        <ele>253.44</ele>
        <time>2021-03-02T10:17:17Z</time>
      </trkpt>
      <trkpt lat="48.14864" lon="0.86117">
        <ele>253.44</ele>
        <time>2021-03-02T10:17:26Z</time>
      </trkpt>
      <trkpt lat="48.1487" lon="0.86127">
        <ele>253.44</ele>
        <time>2021-03-02T10:17:35Z</time>
      </trkpt>
      <trkpt lat="48.14876" lon="0.86137">
        <ele>252.96</ele>
        <time>2021-03-02T10:17:43Z</time>
      </trkpt>
      <trkpt lat="48.14883" lon="0.86147">
        <ele>252.96</ele>
        <time>2021-03-02T10:17:51Z</time>
      </trkpt>
      <trkpt lat="48.1489" lon="0.86158">
        <ele>252.96</ele>
        <time>2021-03-02T10:18:00Z</time>
      </trkpt>
      <trkpt lat="48.14896" lon="0.8617">
        <ele>252.96</ele>
        <time>2021-03-02T10:18:09Z</time>
      </trkpt>
      <trkpt lat="48.14903" lon="0.8618">
        <ele>252.96</ele>
        <time>2021-03-02T10:18:17Z</time>
      </trkpt>
      <trkpt lat="48.14908" lon="0.86192">
        <ele>252.96</ele>
        <time>2021-03-02T10:18:26Z</time>
      </trkpt>
      <trkpt lat="48.14916" lon="0.86202">
        <ele>252.96</ele>
        <time>2021-03-02T10:18:35Z</time>
      </trkpt>
      <trkpt lat="48.14923" lon="0.86211">
        <ele>252.96</ele>
        <time>2021-03-02T10:18:43Z</time>
      </trkpt>
      <trkpt lat="48.1493" lon="0.8622">
        <ele>252.96</ele>
        <time>2021-03-02T10:18:50Z</time>
      </trkpt>
      <trkpt lat="48.14938" lon="0.8623">
        <ele>252.96</ele>
        <time>2021-03-02T10:18:59Z</time>
      </trkpt>
      <trkpt lat="48.14945" lon="0.86239">
        <ele>252.96</ele>
        <time>2021-03-02T10:19:08Z</time>
      </trkpt>
      <trkpt lat="48.14953" lon="0.86249">
        <ele>252.96</ele>
        <time>2021-03-02T10:19:17Z</time>
      </trkpt>
      <trkpt lat="48.14961" lon="0.86258">
        <ele>253.44</ele>
        <time>2021-03-02T10:19:25Z</time>
      </trkpt>
      <trkpt lat="48.14969" lon="0.86267">
        <ele>253.44</ele>
        <time>2021-03-02T10:19:32Z</time>
      </trkpt>
      <trkpt lat="48.14976" lon="0.86275">
        <ele>253.44</ele>
        <time>2021-03-02T10:19:40Z</time>
      </trkpt>
      <trkpt lat="48.14983" lon="0.86283">
        <ele>253.44</ele>
        <time>2021-03-02T10:19:48Z</time>
      </trkpt>
      <trkpt lat="48.1499" lon="0.86292">
        <ele>253.44</ele>
        <time>2021-03-02T10:19:57Z</time>
      </trkpt>
      <trkpt lat="48.14998" lon="0.86301">
        <ele>253.44</ele>
        <time>2021-03-02T10:20:05Z</time>
      </trkpt>
      <trkpt lat="48.15005" lon="0.86309">
        <ele>253.44</ele>
        <time>2021-03-02T10:20:13Z</time>
      </trkpt>
      <trkpt lat="48.15003" lon="0.86323">
        <ele>253.44</ele>
        <time>2021-03-02T10:20:22Z</time>
      </trkpt>
      <trkpt lat="48.15" lon="0.86336">
        <ele>253.44</ele>
        <time>2021-03-02T10:20:32Z</time>
      </trkpt>
      <trkpt lat="48.14995" lon="0.86349">
        <ele>253.44</ele>
        <time>2021-03-02T10:20:42Z</time>
      </trkpt>
      <trkpt lat="48.1499" lon="0.86362">
        <ele>253.44</ele>
        <time>2021-03-02T10:20:51Z</time>
      </trkpt>
      <trkpt lat="48.14985" lon="0.86376">
        <ele>253.44</ele>
        <time>2021-03-02T10:21:00Z</time>
      </trkpt>
      <trkpt lat="48.1498" lon="0.86387">
        <ele>253.44</ele>
        <time>2021-03-02T10:21:09Z</time>
      </trkpt>
      <trkpt lat="48.14974" lon="0.86399">
        <ele>253.44</ele>
        <time>2021-03-02T10:21:17Z</time>
      </trkpt>
      <trkpt lat="48.1497" lon="0.86412">
        <ele>253.44</ele>
        <time>2021-03-02T10:21:26Z</time>
      </trkpt>
      <trkpt lat="48.14966" lon="0.86426">
        <ele>253.44</ele>
        <time>2021-03-02T10:21:35Z</time>
      </trkpt>
      <trkpt lat="48.14965" lon="0.8644">
        <ele>253.44</ele>
        <time>2021-03-02T10:21:44Z</time>
      </trkpt>
      <trkpt lat="48.14965" lon="0.86455">
        <ele>253.44</ele>
        <time>2021-03-02T10:21:53Z</time>
      </trkpt>
      <trkpt lat="48.14966" lon="0.86469">
        <ele>253.44</ele>
        <time>2021-03-02T10:22:01Z</time>
      </trkpt>
      <trkpt lat="48.14966" lon="0.86483">
        <ele>253.44</ele>
        <time>2021-03-02T10:22:09Z</time>
      </trkpt>
      <trkpt lat="48.14968" lon="0.86498">
        <ele>252</ele>
        <time>2021-03-02T10:22:18Z</time>
      </trkpt>
      <trkpt lat="48.14969" lon="0.86513">
        <ele>252</ele>
        <time>2021-03-02T10:22:27Z</time>
      </trkpt>
      <trkpt lat="48.14972" lon="0.86529">
        <ele>252</ele>
        <time>2021-03-02T10:22:36Z</time>
      </trkpt>
      <trkpt lat="48.14975" lon="0.86544">
        <ele>251.52</ele>
        <time>2021-03-02T10:22:45Z</time>
      </trkpt>
      <trkpt lat="48.14975" lon="0.86558">
        <ele>251.52</ele>
        <time>2021-03-02T10:22:54Z</time>
      </trkpt>
      <trkpt lat="48.14976" lon="0.86573">
        <ele>251.04</ele>
        <time>2021-03-02T10:23:03Z</time>
      </trkpt>
      <trkpt lat="48.14978" lon="0.86586">
        <ele>251.04</ele>
        <time>2021-03-02T10:23:11Z</time>
      </trkpt>
      <trkpt lat="48.1498" lon="0.86601">
        <ele>250.56</ele>
        <time>2021-03-02T10:23:20Z</time>
      </trkpt>
      <trkpt lat="48.14982" lon="0.86615">
        <ele>250.56</ele>
        <time>2021-03-02T10:23:29Z</time>
      </trkpt>
      <trkpt lat="48.14983" lon="0.86629">
        <ele>250.56</ele>
        <time>2021-03-02T10:23:38Z</time>
      </trkpt>
      <trkpt lat="48.14984" lon="0.86642">
        <ele>250.56</ele>
        <time>2021-03-02T10:23:46Z</time>
      </trkpt>
      <trkpt lat="48.14985" lon="0.86658">
        <ele>250.56</ele>
        <time>2021-03-02T10:23:55Z</time>
      </trkpt>
      <trkpt lat="48.14985" lon="0.86674">
        <ele>250.56</ele>
        <time>2021-03-02T10:24:04Z</time>
      </trkpt>
      <trkpt lat="48.14985" lon="0.86688">
        <ele>250.08</ele>
        <time>2021-03-02T10:24:12Z</time>
      </trkpt>
      <trkpt lat="48.14985" lon="0.86702">
        <ele>250.08</ele>
        <time>2021-03-02T10:24:21Z</time>
      </trkpt>
      <trkpt lat="48.14985" lon="0.86717">
        <ele>249.6</ele>
        <time>2021-03-02T10:24:30Z</time>
      </trkpt>
      <trkpt lat="48.14987" lon="0.86732">
        <ele>249.12</ele>
        <time>2021-03-02T10:24:39Z</time>
      </trkpt>
      <trkpt lat="48.1499" lon="0.86748">
        <ele>249.12</ele>
        <time>2021-03-02T10:24:48Z</time>
      </trkpt>
      <trkpt lat="48.14995" lon="0.86761">
        <ele>248.64</ele>
        <time>2021-03-02T10:24:57Z</time>
      </trkpt>
      <trkpt lat="48.14999" lon="0.86774">
        <ele>248.64</ele>
        <time>2021-03-02T10:25:06Z</time>
      </trkpt>
      <trkpt lat="48.15002" lon="0.86789">
        <ele>248.64</ele>
        <time>2021-03-02T10:25:15Z</time>
      </trkpt>
      <trkpt lat="48.15003" lon="0.86803">
        <ele>248.64</ele>
        <time>2021-03-02T10:25:24Z</time>
      </trkpt>
      <trkpt lat="48.15002" lon="0.86819">
        <ele>248.16</ele>
        <time>2021-03-02T10:25:33Z</time>
      </trkpt>
      <trkpt lat="48.15002" lon="0.86833">
        <ele>248.16</ele>
        <time>2021-03-02T10:25:41Z</time>
      </trkpt>
      <trkpt lat="48.15002" lon="0.86848">
        <ele>247.68</ele>
        <time>2021-03-02T10:25:50Z</time>
      </trkpt>
      <trkpt lat="48.15002" lon="0.86861">
        <ele>247.68</ele>
        <time>2021-03-02T10:25:58Z</time>
      </trkpt>
      <trkpt lat="48.15001" lon="0.86875">
        <ele>247.68</ele>
        <time>2021-03-02T10:26:06Z</time>
      </trkpt>
      <trkpt lat="48.15002" lon="0.8689">
        <ele>247.2</ele>
        <time>2021-03-02T10:26:15Z</time>
      </trkpt>
      <trkpt lat="48.15003" lon="0.86905">
        <ele>247.2</ele>
        <time>2021-03-02T10:26:24Z</time>
      </trkpt>
      <trkpt lat="48.15004" lon="0.86923">
        <ele>247.2</ele>
        <time>2021-03-02T10:26:33Z</time>
      </trkpt>
      <trkpt lat="48.15007" lon="0.86939">
        <ele>247.2</ele>
        <time>2021-03-02T10:26:42Z</time>
      </trkpt>
      <trkpt lat="48.15009" lon="0.86954">
        <ele>246.72</ele>
        <time>2021-03-02T10:26:51Z</time>
      </trkpt>
      <trkpt lat="48.15011" lon="0.86968">
        <ele>246.72</ele>
        <time>2021-03-02T10:27:00Z</time>
      </trkpt>
      <trkpt lat="48.15012" lon="0.86982">
        <ele>246.23</ele>
        <time>2021-03-02T10:27:08Z</time>
      </trkpt>
      <trkpt lat="48.15013" lon="0.86998">
        <ele>246.23</ele>
        <time>2021-03-02T10:27:17Z</time>
      </trkpt>
      <trkpt lat="48.15013" lon="0.87014">
        <ele>246.23</ele>
        <time>2021-03-02T10:27:26Z</time>
      </trkpt>
      <trkpt lat="48.15014" lon="0.87028">
        <ele>245.75</ele>
        <time>2021-03-02T10:27:34Z</time>
      </trkpt>
      <trkpt lat="48.15013" lon="0.87041">
        <ele>245.75</ele>
        <time>2021-03-02T10:27:41Z</time>
      </trkpt>
      <trkpt lat="48.1501" lon="0.87056">
        <ele>245.27</ele>
        <time>2021-03-02T10:27:50Z</time>
      </trkpt>
      <trkpt lat="48.15008" lon="0.87069">
        <ele>245.27</ele>
        <time>2021-03-02T10:27:58Z</time>
      </trkpt>
      <trkpt lat="48.15004" lon="0.87083">
        <ele>244.79</ele>
        <time>2021-03-02T10:28:06Z</time>
      </trkpt>
      <trkpt lat="48.15002" lon="0.87097">
        <ele>244.79</ele>
        <time>2021-03-02T10:28:15Z</time>
      </trkpt>
      <trkpt lat="48.14998" lon="0.87109">
        <ele>244.31</ele>
        <time>2021-03-02T10:28:23Z</time>
      </trkpt>
      <trkpt lat="48.14997" lon="0.87125">
        <ele>244.31</ele>
        <time>2021-03-02T10:28:32Z</time>
      </trkpt>
      <trkpt lat="48.14995" lon="0.87137">
        <ele>243.83</ele>
        <time>2021-03-02T10:28:39Z</time>
      </trkpt>
      <trkpt lat="48.14992" lon="0.87151">
        <ele>243.35</ele>
        <time>2021-03-02T10:28:46Z</time>
      </trkpt>
      <trkpt lat="48.14991" lon="0.87164">
        <ele>242.87</ele>
        <time>2021-03-02T10:28:54Z</time>
      </trkpt>
      <trkpt lat="48.14989" lon="0.87177">
        <ele>242.87</ele>
        <time>2021-03-02T10:29:01Z</time>
      </trkpt>
      <trkpt lat="48.14988" lon="0.8719">
        <ele>241.91</ele>
        <time>2021-03-02T10:29:09Z</time>
      </trkpt>
      <trkpt lat="48.14986" lon="0.87204">
        <ele>241.43</ele>
        <time>2021-03-02T10:29:17Z</time>
      </trkpt>
      <trkpt lat="48.14984" lon="0.87217">
        <ele>240.95</ele>
        <time>2021-03-02T10:29:25Z</time>
      </trkpt>
      <trkpt lat="48.14982" lon="0.87231">
        <ele>240.95</ele>
        <time>2021-03-02T10:29:33Z</time>
      </trkpt>
      <trkpt lat="48.14981" lon="0.87245">
        <ele>240.47</ele>
        <time>2021-03-02T10:29:41Z</time>
      </trkpt>
      <trkpt lat="48.14978" lon="0.87259">
        <ele>239.99</ele>
        <time>2021-03-02T10:29:50Z</time>
      </trkpt>
      <trkpt lat="48.14977" lon="0.87273">
        <ele>239.02</ele>
        <time>2021-03-02T10:29:58Z</time>
      </trkpt>
      <trkpt lat="48.14975" lon="0.87287">
        <ele>237.58</ele>
        <time>2021-03-02T10:30:07Z</time>
      </trkpt>
      <trkpt lat="48.14973" lon="0.87299">
        <ele>236.62</ele>
        <time>2021-03-02T10:30:15Z</time>
      </trkpt>
      <trkpt lat="48.14971" lon="0.87313">
        <ele>236.14</ele>
        <time>2021-03-02T10:30:23Z</time>
      </trkpt>
      <trkpt lat="48.14968" lon="0.87326">
        <ele>235.66</ele>
        <time>2021-03-02T10:30:32Z</time>
      </trkpt>
      <trkpt lat="48.14965" lon="0.8734">
        <ele>235.18</ele>
        <time>2021-03-02T10:30:41Z</time>
      </trkpt>
      <trkpt lat="48.14964" lon="0.87354">
        <ele>235.18</ele>
        <time>2021-03-02T10:30:49Z</time>
      </trkpt>
      <trkpt lat="48.14962" lon="0.87367">
        <ele>234.7</ele>
        <time>2021-03-02T10:30:58Z</time>
      </trkpt>
      <trkpt lat="48.14958" lon="0.87381">
        <ele>234.7</ele>
        <time>2021-03-02T10:31:06Z</time>
      </trkpt>
      <trkpt lat="48.14955" lon="0.87396">
        <ele>234.22</ele>
        <time>2021-03-02T10:31:15Z</time>
      </trkpt>
      <trkpt lat="48.14952" lon="0.87409">
        <ele>234.22</ele>
        <time>2021-03-02T10:31:23Z</time>
      </trkpt>
      <trkpt lat="48.14949" lon="0.87424">
        <ele>233.74</ele>
        <time>2021-03-02T10:31:32Z</time>
      </trkpt>
      <trkpt lat="48.14946" lon="0.87439">
        <ele>233.26</ele>
        <time>2021-03-02T10:31:41Z</time>
      </trkpt>
      <trkpt lat="48.14943" lon="0.87453">
        <ele>232.78</ele>
        <time>2021-03-02T10:31:50Z</time>
      </trkpt>
      <trkpt lat="48.14941" lon="0.87468">
        <ele>232.78</ele>
        <time>2021-03-02T10:32:00Z</time>
      </trkpt>
      <trkpt lat="48.14939" lon="0.87484">
        <ele>232.3</ele>
        <time>2021-03-02T10:32:09Z</time>
      </trkpt>
      <trkpt lat="48.14937" lon="0.87498">
        <ele>232.3</ele>
        <time>2021-03-02T10:32:18Z</time>
      </trkpt>
      <trkpt lat="48.14934" lon="0.87513">
        <ele>231.81</ele>
        <time>2021-03-02T10:32:27Z</time>
      </trkpt>
      <trkpt lat="48.14931" lon="0.87527">
        <ele>231.81</ele>
        <time>2021-03-02T10:32:36Z</time>
      </trkpt>
      <trkpt lat="48.14929" lon="0.87543">
        <ele>231.81</ele>
        <time>2021-03-02T10:32:45Z</time>
      </trkpt>
      <trkpt lat="48.14927" lon="0.87556">
        <ele>231.33</ele>
        <time>2021-03-02T10:32:53Z</time>
      </trkpt>
      <trkpt lat="48.14926" lon="0.87572">
        <ele>231.33</ele>
        <time>2021-03-02T10:33:02Z</time>
      </trkpt>
      <trkpt lat="48.14924" lon="0.87586">
        <ele>230.85</ele>
        <time>2021-03-02T10:33:11Z</time>
      </trkpt>
      <trkpt lat="48.14922" lon="0.87602">
        <ele>230.37</ele>
        <time>2021-03-02T10:33:21Z</time>
      </trkpt>
      <trkpt lat="48.1492" lon="0.87618">
        <ele>230.37</ele>
        <time>2021-03-02T10:33:30Z</time>
      </trkpt>
      <trkpt lat="48.14918" lon="0.87634">
        <ele>230.37</ele>
        <time>2021-03-02T10:33:39Z</time>
      </trkpt>
      <trkpt lat="48.14914" lon="0.87648">
        <ele>229.89</ele>
        <time>2021-03-02T10:33:48Z</time>
      </trkpt>
      <trkpt lat="48.14911" lon="0.87663">
        <ele>229.89</ele>
        <time>2021-03-02T10:33:59Z</time>
      </trkpt>
      <trkpt lat="48.14908" lon="0.87675">
        <ele>229.41</ele>
        <time>2021-03-02T10:34:08Z</time>
      </trkpt>
      <trkpt lat="48.14903" lon="0.87689">
        <ele>229.89</ele>
        <time>2021-03-02T10:34:18Z</time>
      </trkpt>
      <trkpt lat="48.14897" lon="0.87704">
        <ele>229.41</ele>
        <time>2021-03-02T10:34:28Z</time>
      </trkpt>
      <trkpt lat="48.14893" lon="0.87718">
        <ele>229.41</ele>
        <time>2021-03-02T10:34:38Z</time>
      </trkpt>
      <trkpt lat="48.14888" lon="0.87731">
        <ele>228.93</ele>
        <time>2021-03-02T10:34:47Z</time>
      </trkpt>
      <trkpt lat="48.14883" lon="0.87745">
        <ele>228.45</ele>
        <time>2021-03-02T10:34:56Z</time>
      </trkpt>
      <trkpt lat="48.14876" lon="0.87758">
        <ele>228.45</ele>
        <time>2021-03-02T10:35:06Z</time>
      </trkpt>
      <trkpt lat="48.14869" lon="0.8777">
        <ele>227.97</ele>
        <time>2021-03-02T10:35:15Z</time>
      </trkpt>
      <trkpt lat="48.14864" lon="0.87784">
        <ele>227.97</ele>
        <time>2021-03-02T10:35:24Z</time>
      </trkpt>
      <trkpt lat="48.14858" lon="0.87795">
        <ele>227.49</ele>
        <time>2021-03-02T10:35:33Z</time>
      </trkpt>
      <trkpt lat="48.14851" lon="0.87808">
        <ele>227.01</ele>
        <time>2021-03-02T10:35:43Z</time>
      </trkpt>
      <trkpt lat="48.14845" lon="0.87819">
        <ele>227.49</ele>
        <time>2021-03-02T10:35:52Z</time>
      </trkpt>
      <trkpt lat="48.14838" lon="0.87831">
        <ele>227.01</ele>
        <time>2021-03-02T10:36:03Z</time>
      </trkpt>
      <trkpt lat="48.14832" lon="0.87843">
        <ele>227.01</ele>
        <time>2021-03-02T10:36:13Z</time>
      </trkpt>
      <trkpt lat="48.14825" lon="0.87855">
        <ele>226.53</ele>
        <time>2021-03-02T10:36:22Z</time>
      </trkpt>
      <trkpt lat="48.1482" lon="0.87867">
        <ele>226.53</ele>
        <time>2021-03-02T10:36:31Z</time>
      </trkpt>
      <trkpt lat="48.14813" lon="0.87879">
        <ele>226.53</ele>
        <time>2021-03-02T10:36:41Z</time>
      </trkpt>
      <trkpt lat="48.14807" lon="0.87892">
        <ele>226.05</ele>
        <time>2021-03-02T10:36:51Z</time>
      </trkpt>
      <trkpt lat="48.14802" lon="0.87905">
        <ele>226.05</ele>
        <time>2021-03-02T10:37:03Z</time>
      </trkpt>
      <trkpt lat="48.14809" lon="0.87918">
        <ele>226.05</ele>
        <time>2021-03-02T10:37:19Z</time>
      </trkpt>
      <trkpt lat="48.14817" lon="0.87926">
        <ele>227.01</ele>
        <time>2021-03-02T10:37:33Z</time>
      </trkpt>
      <trkpt lat="48.14831" lon="0.87934">
        <ele>228.93</ele>
        <time>2021-03-02T10:37:54Z</time>
      </trkpt>
      <trkpt lat="48.14845" lon="0.87937">
        <ele>230.85</ele>
        <time>2021-03-02T10:38:13Z</time>
      </trkpt>
      <trkpt lat="48.14865" lon="0.87946">
        <ele>232.78</ele>
        <time>2021-03-02T10:38:42Z</time>
      </trkpt>
      <trkpt lat="48.14888" lon="0.87952">
        <ele>236.62</ele>
        <time>2021-03-02T10:39:05Z</time>
      </trkpt>
      <trkpt lat="48.14902" lon="0.87951">
        <ele>238.54</ele>
        <time>2021-03-02T10:39:19Z</time>
      </trkpt>
      <trkpt lat="48.14914" lon="0.87952">
        <ele>239.02</ele>
        <time>2021-03-02T10:39:31Z</time>
      </trkpt>
      <trkpt lat="48.14925" lon="0.87951">
        <ele>239.99</ele>
        <time>2021-03-02T10:39:41Z</time>
      </trkpt>
      <trkpt lat="48.14935" lon="0.87949">
        <ele>240.47</ele>
        <time>2021-03-02T10:39:51Z</time>
      </trkpt>
      <trkpt lat="48.14945" lon="0.87945">
        <ele>240.47</ele>
        <time>2021-03-02T10:40:01Z</time>
      </trkpt>
      <trkpt lat="48.14955" lon="0.87941">
        <ele>240.95</ele>
        <time>2021-03-02T10:40:12Z</time>
      </trkpt>
      <trkpt lat="48.14965" lon="0.87936">
        <ele>241.43</ele>
        <time>2021-03-02T10:40:23Z</time>
      </trkpt>
      <trkpt lat="48.14968" lon="0.87935">
        <ele>241.91</ele>
        <time>2021-03-02T10:41:27Z</time>
      </trkpt>
      <trkpt lat="48.1497" lon="0.87935">
        <ele>241.43</ele>
        <time>2021-03-02T10:43:48Z</time>
      </trkpt>
      <trkpt lat="48.14983" lon="0.87932">
        <ele>240.95</ele>
        <time>2021-03-02T10:44:38Z</time>
      </trkpt>
      <trkpt lat="48.14993" lon="0.8793">
        <ele>241.43</ele>
        <time>2021-03-02T10:44:49Z</time>
      </trkpt>
      <trkpt lat="48.15006" lon="0.87921">
        <ele>242.39</ele>
        <time>2021-03-02T10:45:47Z</time>
      </trkpt>
      <trkpt lat="48.1501" lon="0.87905">
        <ele>242.39</ele>
        <time>2021-03-02T10:46:03Z</time>
      </trkpt>
      <trkpt lat="48.15016" lon="0.87893">
        <ele>242.39</ele>
        <time>2021-03-02T10:46:15Z</time>
      </trkpt>
      <trkpt lat="48.15022" lon="0.87881">
        <ele>242.39</ele>
        <time>2021-03-02T10:46:25Z</time>
      </trkpt>
      <trkpt lat="48.15026" lon="0.8787">
        <ele>242.87</ele>
        <time>2021-03-02T10:46:35Z</time>
      </trkpt>
      <trkpt lat="48.15032" lon="0.87858">
        <ele>242.39</ele>
        <time>2021-03-02T10:46:44Z</time>
      </trkpt>
      <trkpt lat="48.15038" lon="0.87846">
        <ele>242.39</ele>
        <time>2021-03-02T10:46:53Z</time>
      </trkpt>
      <trkpt lat="48.15044" lon="0.87833">
        <ele>243.35</ele>
        <time>2021-03-02T10:47:02Z</time>
      </trkpt>
      <trkpt lat="48.1505" lon="0.87822">
        <ele>243.35</ele>
        <time>2021-03-02T10:47:10Z</time>
      </trkpt>
      <trkpt lat="48.15056" lon="0.8781">
        <ele>243.35</ele>
        <time>2021-03-02T10:47:19Z</time>
      </trkpt>
      <trkpt lat="48.15063" lon="0.87799">
        <ele>243.83</ele>
        <time>2021-03-02T10:47:27Z</time>
      </trkpt>
      <trkpt lat="48.15067" lon="0.87789">
        <ele>243.83</ele>
        <time>2021-03-02T10:47:35Z</time>
      </trkpt>
      <trkpt lat="48.15073" lon="0.87776">
        <ele>243.83</ele>
        <time>2021-03-02T10:47:44Z</time>
      </trkpt>
      <trkpt lat="48.15078" lon="0.87765">
        <ele>243.83</ele>
        <time>2021-03-02T10:47:52Z</time>
      </trkpt>
      <trkpt lat="48.15085" lon="0.87753">
        <ele>243.83</ele>
        <time>2021-03-02T10:48:01Z</time>
      </trkpt>
      <trkpt lat="48.15091" lon="0.87742">
        <ele>243.83</ele>
        <time>2021-03-02T10:48:09Z</time>
      </trkpt>
      <trkpt lat="48.15097" lon="0.87729">
        <ele>243.83</ele>
        <time>2021-03-02T10:48:18Z</time>
      </trkpt>
      <trkpt lat="48.15103" lon="0.87718">
        <ele>244.31</ele>
        <time>2021-03-02T10:48:26Z</time>
      </trkpt>
      <trkpt lat="48.15107" lon="0.87705">
        <ele>244.79</ele>
        <time>2021-03-02T10:48:35Z</time>
      </trkpt>
      <trkpt lat="48.15113" lon="0.87694">
        <ele>244.79</ele>
        <time>2021-03-02T10:48:44Z</time>
      </trkpt>
      <trkpt lat="48.15119" lon="0.87682">
        <ele>244.79</ele>
        <time>2021-03-02T10:48:53Z</time>
      </trkpt>
      <trkpt lat="48.15125" lon="0.8767">
        <ele>244.79</ele>
        <time>2021-03-02T10:49:02Z</time>
      </trkpt>
      <trkpt lat="48.15131" lon="0.87658">
        <ele>244.79</ele>
        <time>2021-03-02T10:49:11Z</time>
      </trkpt>
      <trkpt lat="48.15138" lon="0.87646">
        <ele>245.27</ele>
        <time>2021-03-02T10:49:20Z</time>
      </trkpt>
      <trkpt lat="48.15143" lon="0.87634">
        <ele>245.27</ele>
        <time>2021-03-02T10:49:29Z</time>
      </trkpt>
      <trkpt lat="48.15149" lon="0.87622">
        <ele>245.27</ele>
        <time>2021-03-02T10:49:37Z</time>
      </trkpt>
      <trkpt lat="48.15154" lon="0.8761">
        <ele>245.27</ele>
        <time>2021-03-02T10:49:45Z</time>
      </trkpt>
      <trkpt lat="48.1516" lon="0.87598">
        <ele>245.75</ele>
        <time>2021-03-02T10:49:53Z</time>
      </trkpt>
      <trkpt lat="48.15166" lon="0.87586">
        <ele>246.23</ele>
        <time>2021-03-02T10:50:02Z</time>
      </trkpt>
      <trkpt lat="48.15171" lon="0.87573">
        <ele>246.23</ele>
        <time>2021-03-02T10:50:11Z</time>
      </trkpt>
      <trkpt lat="48.15177" lon="0.8756">
        <ele>246.23</ele>
        <time>2021-03-02T10:50:20Z</time>
      </trkpt>
      <trkpt lat="48.15184" lon="0.87547">
        <ele>246.23</ele>
        <time>2021-03-02T10:50:29Z</time>
      </trkpt>
      <trkpt lat="48.1519" lon="0.87535">
        <ele>246.23</ele>
        <time>2021-03-02T10:50:38Z</time>
      </trkpt>
      <trkpt lat="48.15196" lon="0.87522">
        <ele>246.23</ele>
        <time>2021-03-02T10:50:47Z</time>
      </trkpt>
      <trkpt lat="48.15202" lon="0.87511">
        <ele>246.23</ele>
        <time>2021-03-02T10:50:55Z</time>
      </trkpt>
      <trkpt lat="48.15207" lon="0.875">
        <ele>246.23</ele>
        <time>2021-03-02T10:51:03Z</time>
      </trkpt>
      <trkpt lat="48.15213" lon="0.87489">
        <ele>246.23</ele>
        <time>2021-03-02T10:51:11Z</time>
      </trkpt>
      <trkpt lat="48.1522" lon="0.87478">
        <ele>246.23</ele>
        <time>2021-03-02T10:51:20Z</time>
      </trkpt>
      <trkpt lat="48.15226" lon="0.87466">
        <ele>246.23</ele>
        <time>2021-03-02T10:51:28Z</time>
      </trkpt>
      <trkpt lat="48.15232" lon="0.87454">
        <ele>246.23</ele>
        <time>2021-03-02T10:51:36Z</time>
      </trkpt>
      <trkpt lat="48.15238" lon="0.87443">
        <ele>246.72</ele>
        <time>2021-03-02T10:51:45Z</time>
      </trkpt>
      <trkpt lat="48.15242" lon="0.87431">
        <ele>246.72</ele>
        <time>2021-03-02T10:51:53Z</time>
      </trkpt>
      <trkpt lat="48.15249" lon="0.87418">
        <ele>246.72</ele>
        <time>2021-03-02T10:52:02Z</time>
      </trkpt>
      <trkpt lat="48.15254" lon="0.87406">
        <ele>246.23</ele>
        <time>2021-03-02T10:52:10Z</time>
      </trkpt>
      <trkpt lat="48.1526" lon="0.87394">
        <ele>246.23</ele>
        <time>2021-03-02T10:52:19Z</time>
      </trkpt>
      <trkpt lat="48.15266" lon="0.87381">
        <ele>246.23</ele>
        <time>2021-03-02T10:52:28Z</time>
      </trkpt>
      <trkpt lat="48.15272" lon="0.8737">
        <ele>246.23</ele>
        <time>2021-03-02T10:52:36Z</time>
      </trkpt>
      <trkpt lat="48.15277" lon="0.87358">
        <ele>246.23</ele>
        <time>2021-03-02T10:52:45Z</time>
      </trkpt>
      <trkpt lat="48.15282" lon="0.87346">
        <ele>246.23</ele>
        <time>2021-03-02T10:52:54Z</time>
      </trkpt>
      <trkpt lat="48.15287" lon="0.87335">
        <ele>246.23</ele>
        <time>2021-03-02T10:53:02Z</time>
      </trkpt>
      <trkpt lat="48.15293" lon="0.87324">
        <ele>246.23</ele>
        <time>2021-03-02T10:53:10Z</time>
      </trkpt>
      <trkpt lat="48.15299" lon="0.87312">
        <ele>246.23</ele>
        <time>2021-03-02T10:53:18Z</time>
      </trkpt>
      <trkpt lat="48.15304" lon="0.87301">
        <ele>246.23</ele>
        <time>2021-03-02T10:53:26Z</time>
      </trkpt>
      <trkpt lat="48.15311" lon="0.8729">
        <ele>246.23</ele>
        <time>2021-03-02T10:53:34Z</time>
      </trkpt>
      <trkpt lat="48.15319" lon="0.87283">
        <ele>246.23</ele>
        <time>2021-03-02T10:53:42Z</time>
      </trkpt>
      <trkpt lat="48.15328" lon="0.87278">
        <ele>246.23</ele>
        <time>2021-03-02T10:53:51Z</time>
      </trkpt>
      <trkpt lat="48.15338" lon="0.87277">
        <ele>246.23</ele>
        <time>2021-03-02T10:53:59Z</time>
      </trkpt>
      <trkpt lat="48.15349" lon="0.87278">
        <ele>246.23</ele>
        <time>2021-03-02T10:54:08Z</time>
      </trkpt>
      <trkpt lat="48.15358" lon="0.87278">
        <ele>246.72</ele>
        <time>2021-03-02T10:54:17Z</time>
      </trkpt>
      <trkpt lat="48.15368" lon="0.87278">
        <ele>246.72</ele>
        <time>2021-03-02T10:54:25Z</time>
      </trkpt>
      <trkpt lat="48.15378" lon="0.8728">
        <ele>247.2</ele>
        <time>2021-03-02T10:54:34Z</time>
      </trkpt>
      <trkpt lat="48.15388" lon="0.87281">
        <ele>247.68</ele>
        <time>2021-03-02T10:54:43Z</time>
      </trkpt>
      <trkpt lat="48.15397" lon="0.87282">
        <ele>247.68</ele>
        <time>2021-03-02T10:54:51Z</time>
      </trkpt>
      <trkpt lat="48.15407" lon="0.87283">
        <ele>248.16</ele>
        <time>2021-03-02T10:54:59Z</time>
      </trkpt>
      <trkpt lat="48.15417" lon="0.87282">
        <ele>248.64</ele>
        <time>2021-03-02T10:55:08Z</time>
      </trkpt>
      <trkpt lat="48.15427" lon="0.87282">
        <ele>248.64</ele>
        <time>2021-03-02T10:55:17Z</time>
      </trkpt>
      <trkpt lat="48.15437" lon="0.87284">
        <ele>249.12</ele>
        <time>2021-03-02T10:55:26Z</time>
      </trkpt>
      <trkpt lat="48.15447" lon="0.87286">
        <ele>249.12</ele>
        <time>2021-03-02T10:55:35Z</time>
      </trkpt>
      <trkpt lat="48.15456" lon="0.87286">
        <ele>249.12</ele>
        <time>2021-03-02T10:55:44Z</time>
      </trkpt>
      <trkpt lat="48.15467" lon="0.87285">
        <ele>249.6</ele>
        <time>2021-03-02T10:55:53Z</time>
      </trkpt>
      <trkpt lat="48.15477" lon="0.87287">
        <ele>249.6</ele>
        <time>2021-03-02T10:56:02Z</time>
      </trkpt>
      <trkpt lat="48.15486" lon="0.87289">
        <ele>249.12</ele>
        <time>2021-03-02T10:56:11Z</time>
      </trkpt>
      <trkpt lat="48.15496" lon="0.8729">
        <ele>249.6</ele>
        <time>2021-03-02T10:56:20Z</time>
      </trkpt>
      <trkpt lat="48.15506" lon="0.87291">
        <ele>249.6</ele>
        <time>2021-03-02T10:56:28Z</time>
      </trkpt>
      <trkpt lat="48.15514" lon="0.87292">
        <ele>249.6</ele>
        <time>2021-03-02T10:56:36Z</time>
      </trkpt>
      <trkpt lat="48.15524" lon="0.87293">
        <ele>250.08</ele>
        <time>2021-03-02T10:56:45Z</time>
      </trkpt>
      <trkpt lat="48.15533" lon="0.87295">
        <ele>250.08</ele>
        <time>2021-03-02T10:56:53Z</time>
      </trkpt>
      <trkpt lat="48.15543" lon="0.87295">
        <ele>250.08</ele>
        <time>2021-03-02T10:57:02Z</time>
      </trkpt>
      <trkpt lat="48.15552" lon="0.87296">
        <ele>250.56</ele>
        <time>2021-03-02T10:57:10Z</time>
      </trkpt>
      <trkpt lat="48.15561" lon="0.87298">
        <ele>250.56</ele>
        <time>2021-03-02T10:57:18Z</time>
      </trkpt>
      <trkpt lat="48.1557" lon="0.87299">
        <ele>250.56</ele>
        <time>2021-03-02T10:57:26Z</time>
      </trkpt>
      <trkpt lat="48.1558" lon="0.87301">
        <ele>251.04</ele>
        <time>2021-03-02T10:57:34Z</time>
      </trkpt>
      <trkpt lat="48.15591" lon="0.87301">
        <ele>250.56</ele>
        <time>2021-03-02T10:57:43Z</time>
      </trkpt>
      <trkpt lat="48.156" lon="0.87304">
        <ele>250.56</ele>
        <time>2021-03-02T10:57:52Z</time>
      </trkpt>
      <trkpt lat="48.1561" lon="0.87306">
        <ele>250.56</ele>
        <time>2021-03-02T10:58:01Z</time>
      </trkpt>
      <trkpt lat="48.1562" lon="0.87308">
        <ele>250.56</ele>
        <time>2021-03-02T10:58:09Z</time>
      </trkpt>
      <trkpt lat="48.15629" lon="0.87309">
        <ele>250.56</ele>
        <time>2021-03-02T10:58:17Z</time>
      </trkpt>
      <trkpt lat="48.1564" lon="0.87309">
        <ele>250.56</ele>
        <time>2021-03-02T10:58:26Z</time>
      </trkpt>
      <trkpt lat="48.1565" lon="0.8731">
        <ele>250.56</ele>
        <time>2021-03-02T10:58:35Z</time>
      </trkpt>
      <trkpt lat="48.15659" lon="0.87311">
        <ele>251.04</ele>
        <time>2021-03-02T10:58:43Z</time>
      </trkpt>
      <trkpt lat="48.15669" lon="0.87312">
        <ele>251.04</ele>
        <time>2021-03-02T10:58:52Z</time>
      </trkpt>
      <trkpt lat="48.1568" lon="0.87312">
        <ele>251.04</ele>
        <time>2021-03-02T10:59:01Z</time>
      </trkpt>
      <trkpt lat="48.15689" lon="0.87313">
        <ele>251.04</ele>
        <time>2021-03-02T10:59:09Z</time>
      </trkpt>
      <trkpt lat="48.15699" lon="0.87315">
        <ele>251.04</ele>
        <time>2021-03-02T10:59:18Z</time>
      </trkpt>
      <trkpt lat="48.15709" lon="0.87313">
        <ele>251.04</ele>
        <time>2021-03-02T10:59:27Z</time>
      </trkpt>
      <trkpt lat="48.15718" lon="0.87309">
        <ele>251.04</ele>
        <time>2021-03-02T10:59:35Z</time>
      </trkpt>
      <trkpt lat="48.15727" lon="0.87302">
        <ele>251.04</ele>
        <time>2021-03-02T10:59:43Z</time>
      </trkpt>
      <trkpt lat="48.15735" lon="0.87295">
        <ele>251.52</ele>
        <time>2021-03-02T10:59:51Z</time>
      </trkpt>
      <trkpt lat="48.15743" lon="0.87287">
        <ele>252</ele>
        <time>2021-03-02T10:59:59Z</time>
      </trkpt>
      <trkpt lat="48.15751" lon="0.87275">
        <ele>252</ele>
        <time>2021-03-02T11:00:12Z</time>
      </trkpt>
      <trkpt lat="48.15759" lon="0.87266">
        <ele>252.48</ele>
        <time>2021-03-02T11:00:20Z</time>
      </trkpt>
      <trkpt lat="48.15766" lon="0.87258">
        <ele>252.48</ele>
        <time>2021-03-02T11:00:27Z</time>
      </trkpt>
      <trkpt lat="48.15773" lon="0.87251">
        <ele>252.48</ele>
        <time>2021-03-02T11:00:35Z</time>
      </trkpt>
      <trkpt lat="48.15781" lon="0.8724">
        <ele>252.48</ele>
        <time>2021-03-02T11:00:44Z</time>
      </trkpt>
      <trkpt lat="48.15788" lon="0.87231">
        <ele>252.48</ele>
        <time>2021-03-02T11:00:51Z</time>
      </trkpt>
      <trkpt lat="48.15797" lon="0.87221">
        <ele>252</ele>
        <time>2021-03-02T11:01:00Z</time>
      </trkpt>
      <trkpt lat="48.15805" lon="0.8721">
        <ele>252</ele>
        <time>2021-03-02T11:01:09Z</time>
      </trkpt>
      <trkpt lat="48.15814" lon="0.87202">
        <ele>252</ele>
        <time>2021-03-02T11:01:16Z</time>
      </trkpt>
      <trkpt lat="48.15823" lon="0.87191">
        <ele>251.04</ele>
        <time>2021-03-02T11:01:25Z</time>
      </trkpt>
      <trkpt lat="48.15831" lon="0.87181">
        <ele>250.56</ele>
        <time>2021-03-02T11:01:34Z</time>
      </trkpt>
      <trkpt lat="48.15839" lon="0.87172">
        <ele>250.08</ele>
        <time>2021-03-02T11:01:42Z</time>
      </trkpt>
      <trkpt lat="48.15848" lon="0.87162">
        <ele>249.6</ele>
        <time>2021-03-02T11:01:51Z</time>
      </trkpt>
      <trkpt lat="48.15855" lon="0.87154">
        <ele>248.64</ele>
        <time>2021-03-02T11:02:00Z</time>
      </trkpt>
      <trkpt lat="48.15865" lon="0.87152">
        <ele>248.16</ele>
        <time>2021-03-02T11:02:09Z</time>
      </trkpt>
      <trkpt lat="48.15873" lon="0.87161">
        <ele>248.16</ele>
        <time>2021-03-02T11:02:20Z</time>
      </trkpt>
      <trkpt lat="48.15881" lon="0.87174">
        <ele>248.16</ele>
        <time>2021-03-02T11:02:53Z</time>
      </trkpt>
      <trkpt lat="48.15886" lon="0.87188">
        <ele>248.16</ele>
        <time>2021-03-02T11:03:03Z</time>
      </trkpt>
      <trkpt lat="48.15894" lon="0.87199">
        <ele>248.16</ele>
        <time>2021-03-02T11:03:12Z</time>
      </trkpt>
      <trkpt lat="48.15901" lon="0.87209">
        <ele>248.16</ele>
        <time>2021-03-02T11:03:21Z</time>
      </trkpt>
      <trkpt lat="48.15908" lon="0.87222">
        <ele>248.16</ele>
        <time>2021-03-02T11:03:31Z</time>
      </trkpt>
      <trkpt lat="48.15916" lon="0.87232">
        <ele>248.16</ele>
        <time>2021-03-02T11:03:40Z</time>
      </trkpt>
      <trkpt lat="48.15922" lon="0.87244">
        <ele>248.16</ele>
        <time>2021-03-02T11:03:49Z</time>
      </trkpt>
      <trkpt lat="48.15931" lon="0.87257">
        <ele>248.16</ele>
        <time>2021-03-02T11:03:59Z</time>
      </trkpt>
      <trkpt lat="48.15938" lon="0.87268">
        <ele>247.68</ele>
        <time>2021-03-02T11:04:08Z</time>
      </trkpt>
      <trkpt lat="48.15946" lon="0.8728">
        <ele>247.68</ele>
        <time>2021-03-02T11:04:18Z</time>
      </trkpt>
      <trkpt lat="48.15954" lon="0.87294">
        <ele>247.68</ele>
        <time>2021-03-02T11:04:28Z</time>
      </trkpt>
      <trkpt lat="48.15961" lon="0.87306">
        <ele>247.68</ele>
        <time>2021-03-02T11:04:36Z</time>
      </trkpt>
      <trkpt lat="48.15968" lon="0.87318">
        <ele>247.68</ele>
        <time>2021-03-02T11:04:46Z</time>
      </trkpt>
      <trkpt lat="48.15974" lon="0.87334">
        <ele>247.68</ele>
        <time>2021-03-02T11:04:56Z</time>
      </trkpt>
      <trkpt lat="48.1598" lon="0.87347">
        <ele>247.68</ele>
        <time>2021-03-02T11:05:06Z</time>
      </trkpt>
      <trkpt lat="48.15987" lon="0.87349">
        <ele>247.2</ele>
        <time>2021-03-02T11:05:35Z</time>
      </trkpt>
      <trkpt lat="48.15989" lon="0.87352">
        <ele>259.21</ele>
        <time>2021-03-02T12:11:48Z</time>
      </trkpt>
      <trkpt lat="48.15986" lon="0.87371">
        <ele>257.77</ele>
        <time>2021-03-02T12:13:15Z</time>
      </trkpt>
      <trkpt lat="48.15991" lon="0.87384">
        <ele>257.77</ele>
        <time>2021-03-02T12:13:26Z</time>
      </trkpt>
      <trkpt lat="48.16001" lon="0.87402">
        <ele>258.73</ele>
        <time>2021-03-02T12:14:22Z</time>
      </trkpt>
      <trkpt lat="48.16012" lon="0.87433">
        <ele>258.73</ele>
        <time>2021-03-02T12:14:47Z</time>
      </trkpt>
      <trkpt lat="48.16022" lon="0.87465">
        <ele>259.21</ele>
        <time>2021-03-02T12:15:34Z</time>
      </trkpt>
      <trkpt lat="48.16027" lon="0.87482">
        <ele>259.69</ele>
        <time>2021-03-02T12:15:50Z</time>
      </trkpt>
      <trkpt lat="48.16038" lon="0.875">
        <ele>259.69</ele>
        <time>2021-03-02T12:16:09Z</time>
      </trkpt>
      <trkpt lat="48.16044" lon="0.87514">
        <ele>260.17</ele>
        <time>2021-03-02T12:16:20Z</time>
      </trkpt>
      <trkpt lat="48.1605" lon="0.87527">
        <ele>261.14</ele>
        <time>2021-03-02T12:16:29Z</time>
      </trkpt>
      <trkpt lat="48.16056" lon="0.87539">
        <ele>261.14</ele>
        <time>2021-03-02T12:16:37Z</time>
      </trkpt>
      <trkpt lat="48.16062" lon="0.87551">
        <ele>261.14</ele>
        <time>2021-03-02T12:16:46Z</time>
      </trkpt>
      <trkpt lat="48.16069" lon="0.87561">
        <ele>261.14</ele>
        <time>2021-03-02T12:16:53Z</time>
      </trkpt>
      <trkpt lat="48.16075" lon="0.87572">
        <ele>261.62</ele>
        <time>2021-03-02T12:17:02Z</time>
      </trkpt>
      <trkpt lat="48.16082" lon="0.87584">
        <ele>261.62</ele>
        <time>2021-03-02T12:17:11Z</time>
      </trkpt>
      <trkpt lat="48.1609" lon="0.87593">
        <ele>261.62</ele>
        <time>2021-03-02T12:17:19Z</time>
      </trkpt>
      <trkpt lat="48.16097" lon="0.87604">
        <ele>261.62</ele>
        <time>2021-03-02T12:17:28Z</time>
      </trkpt>
      <trkpt lat="48.16104" lon="0.87618">
        <ele>261.62</ele>
        <time>2021-03-02T12:17:37Z</time>
      </trkpt>
      <trkpt lat="48.16112" lon="0.87627">
        <ele>261.62</ele>
        <time>2021-03-02T12:17:43Z</time>
      </trkpt>
      <trkpt lat="48.16118" lon="0.87637">
        <ele>260.17</ele>
        <time>2021-03-02T12:17:51Z</time>
      </trkpt>
      <trkpt lat="48.16123" lon="0.87648">
        <ele>260.17</ele>
        <time>2021-03-02T12:17:57Z</time>
      </trkpt>
      <trkpt lat="48.16129" lon="0.87658">
        <ele>260.17</ele>
        <time>2021-03-02T12:18:05Z</time>
      </trkpt>
      <trkpt lat="48.16135" lon="0.87669">
        <ele>259.69</ele>
        <time>2021-03-02T12:18:12Z</time>
      </trkpt>
      <trkpt lat="48.16142" lon="0.8768">
        <ele>259.21</ele>
        <time>2021-03-02T12:18:20Z</time>
      </trkpt>
      <trkpt lat="48.16148" lon="0.87692">
        <ele>258.73</ele>
        <time>2021-03-02T12:18:28Z</time>
      </trkpt>
      <trkpt lat="48.16155" lon="0.87703">
        <ele>258.25</ele>
        <time>2021-03-02T12:18:36Z</time>
      </trkpt>
      <trkpt lat="48.16161" lon="0.87714">
        <ele>258.25</ele>
        <time>2021-03-02T12:18:43Z</time>
      </trkpt>
      <trkpt lat="48.16167" lon="0.87723">
        <ele>257.77</ele>
        <time>2021-03-02T12:18:50Z</time>
      </trkpt>
      <trkpt lat="48.16173" lon="0.87732">
        <ele>257.29</ele>
        <time>2021-03-02T12:18:57Z</time>
      </trkpt>
      <trkpt lat="48.1618" lon="0.87744">
        <ele>257.29</ele>
        <time>2021-03-02T12:19:05Z</time>
      </trkpt>
      <trkpt lat="48.16186" lon="0.87753">
        <ele>256.81</ele>
        <time>2021-03-02T12:19:12Z</time>
      </trkpt>
      <trkpt lat="48.16192" lon="0.87765">
        <ele>256.33</ele>
        <time>2021-03-02T12:19:20Z</time>
      </trkpt>
      <trkpt lat="48.16198" lon="0.87776">
        <ele>256.33</ele>
        <time>2021-03-02T12:19:28Z</time>
      </trkpt>
      <trkpt lat="48.16204" lon="0.87789">
        <ele>256.33</ele>
        <time>2021-03-02T12:19:36Z</time>
      </trkpt>
      <trkpt lat="48.16209" lon="0.878">
        <ele>256.33</ele>
        <time>2021-03-02T12:19:44Z</time>
      </trkpt>
      <trkpt lat="48.16214" lon="0.87813">
        <ele>256.33</ele>
        <time>2021-03-02T12:19:51Z</time>
      </trkpt>
      <trkpt lat="48.16218" lon="0.87826">
        <ele>256.33</ele>
        <time>2021-03-02T12:19:59Z</time>
      </trkpt>
      <trkpt lat="48.16227" lon="0.87839">
        <ele>256.33</ele>
        <time>2021-03-02T12:20:15Z</time>
      </trkpt>
      <trkpt lat="48.16234" lon="0.87826">
        <ele>255.85</ele>
        <time>2021-03-02T12:20:24Z</time>
      </trkpt>
      <trkpt lat="48.1624" lon="0.8781">
        <ele>254.89</ele>
        <time>2021-03-02T12:20:33Z</time>
      </trkpt>
      <trkpt lat="48.16245" lon="0.87795">
        <ele>255.85</ele>
        <time>2021-03-02T12:20:42Z</time>
      </trkpt>
      <trkpt lat="48.16248" lon="0.87782">
        <ele>255.85</ele>
        <time>2021-03-02T12:20:50Z</time>
      </trkpt>
      <trkpt lat="48.1625" lon="0.87766">
        <ele>255.85</ele>
        <time>2021-03-02T12:20:59Z</time>
      </trkpt>
      <trkpt lat="48.16252" lon="0.87753">
        <ele>255.85</ele>
        <time>2021-03-02T12:21:06Z</time>
      </trkpt>
      <trkpt lat="48.16253" lon="0.8774">
        <ele>255.85</ele>
        <time>2021-03-02T12:21:14Z</time>
      </trkpt>
      <trkpt lat="48.16256" lon="0.87725">
        <ele>255.85</ele>
        <time>2021-03-02T12:21:23Z</time>
      </trkpt>
      <trkpt lat="48.1626" lon="0.87711">
        <ele>254.41</ele>
        <time>2021-03-02T12:21:31Z</time>
      </trkpt>
      <trkpt lat="48.16265" lon="0.87698">
        <ele>254.41</ele>
        <time>2021-03-02T12:21:40Z</time>
      </trkpt>
      <trkpt lat="48.1627" lon="0.87684">
        <ele>254.41</ele>
        <time>2021-03-02T12:21:48Z</time>
      </trkpt>
      <trkpt lat="48.16274" lon="0.87668">
        <ele>254.41</ele>
        <time>2021-03-02T12:21:57Z</time>
      </trkpt>
      <trkpt lat="48.16276" lon="0.87654">
        <ele>254.41</ele>
        <time>2021-03-02T12:22:06Z</time>
      </trkpt>
      <trkpt lat="48.1628" lon="0.87641">
        <ele>254.41</ele>
        <time>2021-03-02T12:22:15Z</time>
      </trkpt>
      <trkpt lat="48.16283" lon="0.87628">
        <ele>253.93</ele>
        <time>2021-03-02T12:22:24Z</time>
      </trkpt>
      <trkpt lat="48.16288" lon="0.87612">
        <ele>253.93</ele>
        <time>2021-03-02T12:22:34Z</time>
      </trkpt>
      <trkpt lat="48.16292" lon="0.87597">
        <ele>253.93</ele>
        <time>2021-03-02T12:22:43Z</time>
      </trkpt>
      <trkpt lat="48.16297" lon="0.87585">
        <ele>253.93</ele>
        <time>2021-03-02T12:22:51Z</time>
      </trkpt>
      <trkpt lat="48.16303" lon="0.87571">
        <ele>253.93</ele>
        <time>2021-03-02T12:23:00Z</time>
      </trkpt>
      <trkpt lat="48.16308" lon="0.87558">
        <ele>253.93</ele>
        <time>2021-03-02T12:23:09Z</time>
      </trkpt>
      <trkpt lat="48.16313" lon="0.87544">
        <ele>254.89</ele>
        <time>2021-03-02T12:24:19Z</time>
      </trkpt>
      <trkpt lat="48.16317" lon="0.8753">
        <ele>254.89</ele>
        <time>2021-03-02T12:24:28Z</time>
      </trkpt>
      <trkpt lat="48.16319" lon="0.87519">
        <ele>254.89</ele>
        <time>2021-03-02T12:25:15Z</time>
      </trkpt>
      <trkpt lat="48.1633" lon="0.87516">
        <ele>253.93</ele>
        <time>2021-03-02T12:25:23Z</time>
      </trkpt>
      <trkpt lat="48.16341" lon="0.87516">
        <ele>253.93</ele>
        <time>2021-03-02T12:25:32Z</time>
      </trkpt>
      <trkpt lat="48.1635" lon="0.87517">
        <ele>253.44</ele>
        <time>2021-03-02T12:25:41Z</time>
      </trkpt>
      <trkpt lat="48.16358" lon="0.87519">
        <ele>253.44</ele>
        <time>2021-03-02T12:25:51Z</time>
      </trkpt>
      <trkpt lat="48.16368" lon="0.87521">
        <ele>252.96</ele>
        <time>2021-03-02T12:26:01Z</time>
      </trkpt>
      <trkpt lat="48.16378" lon="0.87527">
        <ele>253.44</ele>
        <time>2021-03-02T12:27:26Z</time>
      </trkpt>
      <trkpt lat="48.16387" lon="0.87532">
        <ele>253.44</ele>
        <time>2021-03-02T12:27:35Z</time>
      </trkpt>
      <trkpt lat="48.16395" lon="0.87538">
        <ele>252.48</ele>
        <time>2021-03-02T12:27:43Z</time>
      </trkpt>
      <trkpt lat="48.16404" lon="0.87543">
        <ele>252</ele>
        <time>2021-03-02T12:27:51Z</time>
      </trkpt>
      <trkpt lat="48.16414" lon="0.87547">
        <ele>251.52</ele>
        <time>2021-03-02T12:27:59Z</time>
      </trkpt>
      <trkpt lat="48.16425" lon="0.87547">
        <ele>251.52</ele>
        <time>2021-03-02T12:28:07Z</time>
      </trkpt>
      <trkpt lat="48.16434" lon="0.87546">
        <ele>251.04</ele>
        <time>2021-03-02T12:28:14Z</time>
      </trkpt>
      <trkpt lat="48.16443" lon="0.87543">
        <ele>251.04</ele>
        <time>2021-03-02T12:28:20Z</time>
      </trkpt>
      <trkpt lat="48.16452" lon="0.87539">
        <ele>250.56</ele>
        <time>2021-03-02T12:28:29Z</time>
      </trkpt>
      <trkpt lat="48.16462" lon="0.87535">
        <ele>250.08</ele>
        <time>2021-03-02T12:28:38Z</time>
      </trkpt>
      <trkpt lat="48.1647" lon="0.87528">
        <ele>249.12</ele>
        <time>2021-03-02T12:28:46Z</time>
      </trkpt>
      <trkpt lat="48.16479" lon="0.87517">
        <ele>248.16</ele>
        <time>2021-03-02T12:28:56Z</time>
      </trkpt>
      <trkpt lat="48.16492" lon="0.87504">
        <ele>246.23</ele>
        <time>2021-03-02T12:29:12Z</time>
      </trkpt>
      <trkpt lat="48.16562" lon="0.87468">
        <ele>234.22</ele>
        <time>2021-03-02T12:30:16Z</time>
      </trkpt>
      <trkpt lat="48.16596" lon="0.87475">
        <ele>231.81</ele>
        <time>2021-03-02T12:30:34Z</time>
      </trkpt>
      <trkpt lat="48.16596" lon="0.87459">
        <ele>231.81</ele>
        <time>2021-03-02T12:30:43Z</time>
      </trkpt>
      <trkpt lat="48.16593" lon="0.87443">
        <ele>231.81</ele>
        <time>2021-03-02T12:30:52Z</time>
      </trkpt>
      <trkpt lat="48.16592" lon="0.87428">
        <ele>231.81</ele>
        <time>2021-03-02T12:30:59Z</time>
      </trkpt>
      <trkpt lat="48.16589" lon="0.87415">
        <ele>231.81</ele>
        <time>2021-03-02T12:31:06Z</time>
      </trkpt>
      <trkpt lat="48.16587" lon="0.87401">
        <ele>231.33</ele>
        <time>2021-03-02T12:31:14Z</time>
      </trkpt>
      <trkpt lat="48.16585" lon="0.87388">
        <ele>230.37</ele>
        <time>2021-03-02T12:31:20Z</time>
      </trkpt>
      <trkpt lat="48.16582" lon="0.87374">
        <ele>229.89</ele>
        <time>2021-03-02T12:31:28Z</time>
      </trkpt>
      <trkpt lat="48.1658" lon="0.87356">
        <ele>228.45</ele>
        <time>2021-03-02T12:31:38Z</time>
      </trkpt>
      <trkpt lat="48.16577" lon="0.87342">
        <ele>227.97</ele>
        <time>2021-03-02T12:31:44Z</time>
      </trkpt>
      <trkpt lat="48.16574" lon="0.87328">
        <ele>227.97</ele>
        <time>2021-03-02T12:31:50Z</time>
      </trkpt>
      <trkpt lat="48.16573" lon="0.87314">
        <ele>227.97</ele>
        <time>2021-03-02T12:31:59Z</time>
      </trkpt>
      <trkpt lat="48.16572" lon="0.87298">
        <ele>227.01</ele>
        <time>2021-03-02T12:32:07Z</time>
      </trkpt>
      <trkpt lat="48.1657" lon="0.87283">
        <ele>226.05</ele>
        <time>2021-03-02T12:32:13Z</time>
      </trkpt>
      <trkpt lat="48.16567" lon="0.8727">
        <ele>226.05</ele>
        <time>2021-03-02T12:32:19Z</time>
      </trkpt>
      <trkpt lat="48.16565" lon="0.87256">
        <ele>225.57</ele>
        <time>2021-03-02T12:32:27Z</time>
      </trkpt>
      <trkpt lat="48.16564" lon="0.87241">
        <ele>225.57</ele>
        <time>2021-03-02T12:32:35Z</time>
      </trkpt>
      <trkpt lat="48.16562" lon="0.87225">
        <ele>225.09</ele>
        <time>2021-03-02T12:32:44Z</time>
      </trkpt>
      <trkpt lat="48.1656" lon="0.87209">
        <ele>224.61</ele>
        <time>2021-03-02T12:33:05Z</time>
      </trkpt>
      <trkpt lat="48.16559" lon="0.87193">
        <ele>224.61</ele>
        <time>2021-03-02T12:33:14Z</time>
      </trkpt>
      <trkpt lat="48.16559" lon="0.87177">
        <ele>224.12</ele>
        <time>2021-03-02T12:33:23Z</time>
      </trkpt>
      <trkpt lat="48.16558" lon="0.87161">
        <ele>224.12</ele>
        <time>2021-03-02T12:33:32Z</time>
      </trkpt>
      <trkpt lat="48.16557" lon="0.87143">
        <ele>225.09</ele>
        <time>2021-03-02T12:33:56Z</time>
      </trkpt>
      <trkpt lat="48.16554" lon="0.87128">
        <ele>225.09</ele>
        <time>2021-03-02T12:34:05Z</time>
      </trkpt>
      <trkpt lat="48.16551" lon="0.87115">
        <ele>225.09</ele>
        <time>2021-03-02T12:34:12Z</time>
      </trkpt>
      <trkpt lat="48.16549" lon="0.87101">
        <ele>225.57</ele>
        <time>2021-03-02T12:34:20Z</time>
      </trkpt>
      <trkpt lat="48.16546" lon="0.87088">
        <ele>225.57</ele>
        <time>2021-03-02T12:34:27Z</time>
      </trkpt>
      <trkpt lat="48.16542" lon="0.87075">
        <ele>225.57</ele>
        <time>2021-03-02T12:34:35Z</time>
      </trkpt>
      <trkpt lat="48.16541" lon="0.8706">
        <ele>225.09</ele>
        <time>2021-03-02T12:34:43Z</time>
      </trkpt>
      <trkpt lat="48.16538" lon="0.87046">
        <ele>224.12</ele>
        <time>2021-03-02T12:34:50Z</time>
      </trkpt>
      <trkpt lat="48.16536" lon="0.87032">
        <ele>223.16</ele>
        <time>2021-03-02T12:34:58Z</time>
      </trkpt>
      <trkpt lat="48.16534" lon="0.87016">
        <ele>222.2</ele>
        <time>2021-03-02T12:35:06Z</time>
      </trkpt>
      <trkpt lat="48.16535" lon="0.87">
        <ele>221.24</ele>
        <time>2021-03-02T12:35:13Z</time>
      </trkpt>
      <trkpt lat="48.16539" lon="0.86985">
        <ele>220.76</ele>
        <time>2021-03-02T12:35:21Z</time>
      </trkpt>
      <trkpt lat="48.16545" lon="0.86971">
        <ele>220.76</ele>
        <time>2021-03-02T12:35:28Z</time>
      </trkpt>
      <trkpt lat="48.1655" lon="0.8696">
        <ele>220.28</ele>
        <time>2021-03-02T12:35:34Z</time>
      </trkpt>
      <trkpt lat="48.16554" lon="0.86946">
        <ele>219.8</ele>
        <time>2021-03-02T12:35:43Z</time>
      </trkpt>
      <trkpt lat="48.16557" lon="0.86933">
        <ele>219.32</ele>
        <time>2021-03-02T12:35:49Z</time>
      </trkpt>
      <trkpt lat="48.16561" lon="0.86919">
        <ele>218.84</ele>
        <time>2021-03-02T12:35:57Z</time>
      </trkpt>
      <trkpt lat="48.16564" lon="0.86902">
        <ele>218.36</ele>
        <time>2021-03-02T12:36:17Z</time>
      </trkpt>
      <trkpt lat="48.16565" lon="0.86886">
        <ele>217.88</ele>
        <time>2021-03-02T12:36:45Z</time>
      </trkpt>
      <trkpt lat="48.16568" lon="0.86872">
        <ele>217.4</ele>
        <time>2021-03-02T12:36:52Z</time>
      </trkpt>
      <trkpt lat="48.16571" lon="0.86858">
        <ele>216.91</ele>
        <time>2021-03-02T12:37:00Z</time>
      </trkpt>
      <trkpt lat="48.16575" lon="0.86844">
        <ele>216.43</ele>
        <time>2021-03-02T12:37:09Z</time>
      </trkpt>
      <trkpt lat="48.16579" lon="0.86831">
        <ele>215.47</ele>
        <time>2021-03-02T12:37:19Z</time>
      </trkpt>
      <trkpt lat="48.16582" lon="0.86811">
        <ele>214.51</ele>
        <time>2021-03-02T12:39:25Z</time>
      </trkpt>
      <trkpt lat="48.16584" lon="0.86797">
        <ele>213.07</ele>
        <time>2021-03-02T12:39:35Z</time>
      </trkpt>
      <trkpt lat="48.16587" lon="0.86784">
        <ele>212.11</ele>
        <time>2021-03-02T12:39:44Z</time>
      </trkpt>
      <trkpt lat="48.1659" lon="0.8677">
        <ele>211.15</ele>
        <time>2021-03-02T12:39:52Z</time>
      </trkpt>
      <trkpt lat="48.16595" lon="0.86757">
        <ele>210.19</ele>
        <time>2021-03-02T12:40:01Z</time>
      </trkpt>
      <trkpt lat="48.16599" lon="0.86745">
        <ele>208.26</ele>
        <time>2021-03-02T12:40:09Z</time>
      </trkpt>
      <trkpt lat="48.16603" lon="0.86733">
        <ele>207.78</ele>
        <time>2021-03-02T12:40:18Z</time>
      </trkpt>
      <trkpt lat="48.16609" lon="0.86719">
        <ele>206.82</ele>
        <time>2021-03-02T12:40:27Z</time>
      </trkpt>
      <trkpt lat="48.16612" lon="0.86706">
        <ele>206.34</ele>
        <time>2021-03-02T12:40:35Z</time>
      </trkpt>
      <trkpt lat="48.16614" lon="0.86691">
        <ele>205.86</ele>
        <time>2021-03-02T12:40:44Z</time>
      </trkpt>
      <trkpt lat="48.16614" lon="0.86677">
        <ele>204.9</ele>
        <time>2021-03-02T12:40:53Z</time>
      </trkpt>
      <trkpt lat="48.16612" lon="0.86664">
        <ele>204.9</ele>
        <time>2021-03-02T12:41:01Z</time>
      </trkpt>
      <trkpt lat="48.1661" lon="0.86648">
        <ele>204.42</ele>
        <time>2021-03-02T12:41:09Z</time>
      </trkpt>
      <trkpt lat="48.16608" lon="0.86634">
        <ele>203.94</ele>
        <time>2021-03-02T12:41:18Z</time>
      </trkpt>
      <trkpt lat="48.16606" lon="0.86618">
        <ele>202.98</ele>
        <time>2021-03-02T12:41:27Z</time>
      </trkpt>
      <trkpt lat="48.16605" lon="0.86605">
        <ele>202.49</ele>
        <time>2021-03-02T12:41:34Z</time>
      </trkpt>
      <trkpt lat="48.16604" lon="0.86591">
        <ele>202.01</ele>
        <time>2021-03-02T12:41:41Z</time>
      </trkpt>
      <trkpt lat="48.16601" lon="0.8658">
        <ele>201.53</ele>
        <time>2021-03-02T12:41:49Z</time>
      </trkpt>
      <trkpt lat="48.166" lon="0.86565">
        <ele>201.53</ele>
        <time>2021-03-02T12:41:57Z</time>
      </trkpt>
      <trkpt lat="48.16599" lon="0.86551">
        <ele>201.05</ele>
        <time>2021-03-02T12:42:06Z</time>
      </trkpt>
      <trkpt lat="48.16598" lon="0.86537">
        <ele>200.57</ele>
        <time>2021-03-02T12:42:14Z</time>
      </trkpt>
      <trkpt lat="48.16596" lon="0.86524">
        <ele>200.57</ele>
        <time>2021-03-02T12:42:21Z</time>
      </trkpt>
      <trkpt lat="48.16595" lon="0.86508">
        <ele>199.61</ele>
        <time>2021-03-02T12:42:30Z</time>
      </trkpt>
      <trkpt lat="48.16594" lon="0.86495">
        <ele>199.61</ele>
        <time>2021-03-02T12:42:38Z</time>
      </trkpt>
      <trkpt lat="48.16594" lon="0.8648">
        <ele>199.61</ele>
        <time>2021-03-02T12:42:45Z</time>
      </trkpt>
      <trkpt lat="48.16595" lon="0.86466">
        <ele>199.13</ele>
        <time>2021-03-02T12:42:53Z</time>
      </trkpt>
      <trkpt lat="48.16596" lon="0.86453">
        <ele>199.13</ele>
        <time>2021-03-02T12:43:01Z</time>
      </trkpt>
      <trkpt lat="48.16598" lon="0.8644">
        <ele>199.13</ele>
        <time>2021-03-02T12:43:08Z</time>
      </trkpt>
      <trkpt lat="48.166" lon="0.86427">
        <ele>199.13</ele>
        <time>2021-03-02T12:43:16Z</time>
      </trkpt>
      <trkpt lat="48.16603" lon="0.86411">
        <ele>198.17</ele>
        <time>2021-03-02T12:43:25Z</time>
      </trkpt>
      <trkpt lat="48.16605" lon="0.86398">
        <ele>198.17</ele>
        <time>2021-03-02T12:43:33Z</time>
      </trkpt>
      <trkpt lat="48.16608" lon="0.86385">
        <ele>198.17</ele>
        <time>2021-03-02T12:43:40Z</time>
      </trkpt>
      <trkpt lat="48.16613" lon="0.86371">
        <ele>198.17</ele>
        <time>2021-03-02T12:43:49Z</time>
      </trkpt>
      <trkpt lat="48.16618" lon="0.86357">
        <ele>197.69</ele>
        <time>2021-03-02T12:43:58Z</time>
      </trkpt>
      <trkpt lat="48.16624" lon="0.86345">
        <ele>197.69</ele>
        <time>2021-03-02T12:44:07Z</time>
      </trkpt>
      <trkpt lat="48.1663" lon="0.86333">
        <ele>197.21</ele>
        <time>2021-03-02T12:44:16Z</time>
      </trkpt>
      <trkpt lat="48.16636" lon="0.86321">
        <ele>197.21</ele>
        <time>2021-03-02T12:44:25Z</time>
      </trkpt>
      <trkpt lat="48.16642" lon="0.86308">
        <ele>196.25</ele>
        <time>2021-03-02T12:44:34Z</time>
      </trkpt>
      <trkpt lat="48.16648" lon="0.86298">
        <ele>195.77</ele>
        <time>2021-03-02T12:44:43Z</time>
      </trkpt>
      <trkpt lat="48.16654" lon="0.86288">
        <ele>195.77</ele>
        <time>2021-03-02T12:44:50Z</time>
      </trkpt>
      <trkpt lat="48.1666" lon="0.86278">
        <ele>195.28</ele>
        <time>2021-03-02T12:44:58Z</time>
      </trkpt>
      <trkpt lat="48.16666" lon="0.86267">
        <ele>195.28</ele>
        <time>2021-03-02T12:45:07Z</time>
      </trkpt>
      <trkpt lat="48.16671" lon="0.86255">
        <ele>194.32</ele>
        <time>2021-03-02T12:45:16Z</time>
      </trkpt>
      <trkpt lat="48.16676" lon="0.86243">
        <ele>193.36</ele>
        <time>2021-03-02T12:45:25Z</time>
      </trkpt>
      <trkpt lat="48.16682" lon="0.86232">
        <ele>193.36</ele>
        <time>2021-03-02T12:45:33Z</time>
      </trkpt>
      <trkpt lat="48.16687" lon="0.86218">
        <ele>192.88</ele>
        <time>2021-03-02T12:45:42Z</time>
      </trkpt>
      <trkpt lat="48.16692" lon="0.86207">
        <ele>192.4</ele>
        <time>2021-03-02T12:45:51Z</time>
      </trkpt>
      <trkpt lat="48.16697" lon="0.86195">
        <ele>191.44</ele>
        <time>2021-03-02T12:46:00Z</time>
      </trkpt>
      <trkpt lat="48.16702" lon="0.86184">
        <ele>191.44</ele>
        <time>2021-03-02T12:46:09Z</time>
      </trkpt>
      <trkpt lat="48.16707" lon="0.86172">
        <ele>190</ele>
        <time>2021-03-02T12:46:18Z</time>
      </trkpt>
      <trkpt lat="48.16712" lon="0.86159">
        <ele>189.52</ele>
        <time>2021-03-02T12:46:26Z</time>
      </trkpt>
      <trkpt lat="48.16716" lon="0.86146">
        <ele>189.04</ele>
        <time>2021-03-02T12:46:36Z</time>
      </trkpt>
      <trkpt lat="48.16721" lon="0.86132">
        <ele>188.56</ele>
        <time>2021-03-02T12:46:45Z</time>
      </trkpt>
      <trkpt lat="48.16725" lon="0.8612">
        <ele>187.59</ele>
        <time>2021-03-02T12:46:54Z</time>
      </trkpt>
      <trkpt lat="48.1673" lon="0.86106">
        <ele>186.63</ele>
        <time>2021-03-02T12:47:03Z</time>
      </trkpt>
      <trkpt lat="48.16734" lon="0.86094">
        <ele>185.19</ele>
        <time>2021-03-02T12:47:11Z</time>
      </trkpt>
      <trkpt lat="48.1674" lon="0.8608">
        <ele>184.71</ele>
        <time>2021-03-02T12:47:20Z</time>
      </trkpt>
      <trkpt lat="48.16746" lon="0.86068">
        <ele>183.75</ele>
        <time>2021-03-02T12:47:29Z</time>
      </trkpt>
      <trkpt lat="48.16752" lon="0.86057">
        <ele>183.27</ele>
        <time>2021-03-02T12:47:36Z</time>
      </trkpt>
      <trkpt lat="48.16757" lon="0.86046">
        <ele>182.79</ele>
        <time>2021-03-02T12:47:44Z</time>
      </trkpt>
      <trkpt lat="48.16761" lon="0.86033">
        <ele>181.83</ele>
        <time>2021-03-02T12:47:53Z</time>
      </trkpt>
      <trkpt lat="48.16766" lon="0.86021">
        <ele>181.35</ele>
        <time>2021-03-02T12:48:00Z</time>
      </trkpt>
      <trkpt lat="48.1677" lon="0.86005">
        <ele>180.38</ele>
        <time>2021-03-02T12:48:09Z</time>
      </trkpt>
      <trkpt lat="48.16773" lon="0.85992">
        <ele>180.38</ele>
        <time>2021-03-02T12:48:16Z</time>
      </trkpt>
      <trkpt lat="48.16777" lon="0.85978">
        <ele>180.38</ele>
        <time>2021-03-02T12:48:24Z</time>
      </trkpt>
      <trkpt lat="48.16777" lon="0.85965">
        <ele>180.38</ele>
        <time>2021-03-02T12:48:33Z</time>
      </trkpt>
      <trkpt lat="48.16779" lon="0.85948">
        <ele>180.38</ele>
        <time>2021-03-02T12:49:03Z</time>
      </trkpt>
      <trkpt lat="48.1678" lon="0.85934">
        <ele>180.38</ele>
        <time>2021-03-02T12:49:12Z</time>
      </trkpt>
      <trkpt lat="48.16787" lon="0.85916">
        <ele>181.83</ele>
        <time>2021-03-02T12:49:28Z</time>
      </trkpt>
      <trkpt lat="48.1679" lon="0.859">
        <ele>182.79</ele>
        <time>2021-03-02T12:49:50Z</time>
      </trkpt>
      <trkpt lat="48.16796" lon="0.8589">
        <ele>183.75</ele>
        <time>2021-03-02T12:50:00Z</time>
      </trkpt>
      <trkpt lat="48.16803" lon="0.8588">
        <ele>184.71</ele>
        <time>2021-03-02T12:50:09Z</time>
      </trkpt>
      <trkpt lat="48.16811" lon="0.85868">
        <ele>186.15</ele>
        <time>2021-03-02T12:50:18Z</time>
      </trkpt>
      <trkpt lat="48.16818" lon="0.85858">
        <ele>187.59</ele>
        <time>2021-03-02T12:50:27Z</time>
      </trkpt>
      <trkpt lat="48.16826" lon="0.85849">
        <ele>188.56</ele>
        <time>2021-03-02T12:50:36Z</time>
      </trkpt>
      <trkpt lat="48.16833" lon="0.8584">
        <ele>189.52</ele>
        <time>2021-03-02T12:50:45Z</time>
      </trkpt>
      <trkpt lat="48.1684" lon="0.85831">
        <ele>190</ele>
        <time>2021-03-02T12:50:54Z</time>
      </trkpt>
      <trkpt lat="48.16847" lon="0.85822">
        <ele>190.96</ele>
        <time>2021-03-02T12:51:03Z</time>
      </trkpt>
      <trkpt lat="48.16854" lon="0.85812">
        <ele>191.44</ele>
        <time>2021-03-02T12:51:12Z</time>
      </trkpt>
      <trkpt lat="48.16861" lon="0.85801">
        <ele>192.4</ele>
        <time>2021-03-02T12:51:20Z</time>
      </trkpt>
      <trkpt lat="48.16867" lon="0.85789">
        <ele>192.4</ele>
        <time>2021-03-02T12:51:29Z</time>
      </trkpt>
      <trkpt lat="48.16872" lon="0.85777">
        <ele>192.88</ele>
        <time>2021-03-02T12:51:39Z</time>
      </trkpt>
      <trkpt lat="48.16876" lon="0.85764">
        <ele>192.88</ele>
        <time>2021-03-02T12:51:48Z</time>
      </trkpt>
      <trkpt lat="48.1688" lon="0.85752">
        <ele>192.88</ele>
        <time>2021-03-02T12:51:54Z</time>
      </trkpt>
      <trkpt lat="48.16882" lon="0.85738">
        <ele>192.4</ele>
        <time>2021-03-02T12:52:03Z</time>
      </trkpt>
      <trkpt lat="48.16886" lon="0.85725">
        <ele>192.4</ele>
        <time>2021-03-02T12:52:11Z</time>
      </trkpt>
      <trkpt lat="48.16888" lon="0.85712">
        <ele>192.4</ele>
        <time>2021-03-02T12:52:19Z</time>
      </trkpt>
      <trkpt lat="48.16891" lon="0.85699">
        <ele>192.88</ele>
        <time>2021-03-02T12:52:27Z</time>
      </trkpt>
      <trkpt lat="48.16894" lon="0.85685">
        <ele>193.36</ele>
        <time>2021-03-02T12:52:35Z</time>
      </trkpt>
      <trkpt lat="48.16897" lon="0.85672">
        <ele>193.84</ele>
        <time>2021-03-02T12:52:44Z</time>
      </trkpt>
      <trkpt lat="48.169" lon="0.85658">
        <ele>194.8</ele>
        <time>2021-03-02T12:52:53Z</time>
      </trkpt>
      <trkpt lat="48.16903" lon="0.85643">
        <ele>195.77</ele>
        <time>2021-03-02T12:53:02Z</time>
      </trkpt>
      <trkpt lat="48.16906" lon="0.8563">
        <ele>196.73</ele>
        <time>2021-03-02T12:53:11Z</time>
      </trkpt>
      <trkpt lat="48.16911" lon="0.85616">
        <ele>197.69</ele>
        <time>2021-03-02T12:53:21Z</time>
      </trkpt>
      <trkpt lat="48.16914" lon="0.85604">
        <ele>198.65</ele>
        <time>2021-03-02T12:53:29Z</time>
      </trkpt>
      <trkpt lat="48.16918" lon="0.8559">
        <ele>199.13</ele>
        <time>2021-03-02T12:53:38Z</time>
      </trkpt>
      <trkpt lat="48.16922" lon="0.85576">
        <ele>200.09</ele>
        <time>2021-03-02T12:53:47Z</time>
      </trkpt>
      <trkpt lat="48.16926" lon="0.85562">
        <ele>201.05</ele>
        <time>2021-03-02T12:53:57Z</time>
      </trkpt>
      <trkpt lat="48.16928" lon="0.85546">
        <ele>201.53</ele>
        <time>2021-03-02T12:54:07Z</time>
      </trkpt>
      <trkpt lat="48.16934" lon="0.8553">
        <ele>203.46</ele>
        <time>2021-03-02T12:54:31Z</time>
      </trkpt>
      <trkpt lat="48.16943" lon="0.85538">
        <ele>204.9</ele>
        <time>2021-03-02T12:54:48Z</time>
      </trkpt>
      <trkpt lat="48.16952" lon="0.85539">
        <ele>205.38</ele>
        <time>2021-03-02T12:54:59Z</time>
      </trkpt>
      <trkpt lat="48.1696" lon="0.85528">
        <ele>206.34</ele>
        <time>2021-03-02T12:55:11Z</time>
      </trkpt>
      <trkpt lat="48.16981" lon="0.85486">
        <ele>208.74</ele>
        <time>2021-03-02T12:57:32Z</time>
      </trkpt>
      <trkpt lat="48.16998" lon="0.85461">
        <ele>211.63</ele>
        <time>2021-03-02T12:57:57Z</time>
      </trkpt>
      <trkpt lat="48.17023" lon="0.85458">
        <ele>214.03</ele>
        <time>2021-03-02T12:58:27Z</time>
      </trkpt>
      <trkpt lat="48.17037" lon="0.85462">
        <ele>214.03</ele>
        <time>2021-03-02T12:58:40Z</time>
      </trkpt>
      <trkpt lat="48.1705" lon="0.85467">
        <ele>214.51</ele>
        <time>2021-03-02T12:58:53Z</time>
      </trkpt>
      <trkpt lat="48.17062" lon="0.85472">
        <ele>214.51</ele>
        <time>2021-03-02T12:59:03Z</time>
      </trkpt>
      <trkpt lat="48.1708" lon="0.85479">
        <ele>214.51</ele>
        <time>2021-03-02T12:59:20Z</time>
      </trkpt>
      <trkpt lat="48.17102" lon="0.85485">
        <ele>214.99</ele>
        <time>2021-03-02T12:59:40Z</time>
      </trkpt>
      <trkpt lat="48.17122" lon="0.85489">
        <ele>215.95</ele>
        <time>2021-03-02T12:59:54Z</time>
      </trkpt>
      <trkpt lat="48.17138" lon="0.8549">
        <ele>216.91</ele>
        <time>2021-03-02T13:00:05Z</time>
      </trkpt>
      <trkpt lat="48.1715" lon="0.85492">
        <ele>217.88</ele>
        <time>2021-03-02T13:00:15Z</time>
      </trkpt>
      <trkpt lat="48.17161" lon="0.85488">
        <ele>218.36</ele>
        <time>2021-03-02T13:00:24Z</time>
      </trkpt>
      <trkpt lat="48.17171" lon="0.85486">
        <ele>219.32</ele>
        <time>2021-03-02T13:00:32Z</time>
      </trkpt>
      <trkpt lat="48.17182" lon="0.85481">
        <ele>219.32</ele>
        <time>2021-03-02T13:00:43Z</time>
      </trkpt>
      <trkpt lat="48.17191" lon="0.85476">
        <ele>219.8</ele>
        <time>2021-03-02T13:00:51Z</time>
      </trkpt>
      <trkpt lat="48.17202" lon="0.85474">
        <ele>220.28</ele>
        <time>2021-03-02T13:01:00Z</time>
      </trkpt>
      <trkpt lat="48.17213" lon="0.85471">
        <ele>219.8</ele>
        <time>2021-03-02T13:01:10Z</time>
      </trkpt>
      <trkpt lat="48.17226" lon="0.85471">
        <ele>219.8</ele>
        <time>2021-03-02T13:01:20Z</time>
      </trkpt>
      <trkpt lat="48.17239" lon="0.85474">
        <ele>218.84</ele>
        <time>2021-03-02T13:01:28Z</time>
      </trkpt>
      <trkpt lat="48.17248" lon="0.85475">
        <ele>218.84</ele>
        <time>2021-03-02T13:01:35Z</time>
      </trkpt>
      <trkpt lat="48.17257" lon="0.85475">
        <ele>218.36</ele>
        <time>2021-03-02T13:01:43Z</time>
      </trkpt>
      <trkpt lat="48.1727" lon="0.85477">
        <ele>217.88</ele>
        <time>2021-03-02T13:01:54Z</time>
      </trkpt>
      <trkpt lat="48.17282" lon="0.85478">
        <ele>217.88</ele>
        <time>2021-03-02T13:02:03Z</time>
      </trkpt>
      <trkpt lat="48.17295" lon="0.8548">
        <ele>217.88</ele>
        <time>2021-03-02T13:02:49Z</time>
      </trkpt>
      <trkpt lat="48.17305" lon="0.8548">
        <ele>217.88</ele>
        <time>2021-03-02T13:03:06Z</time>
      </trkpt>
      <trkpt lat="48.17314" lon="0.85482">
        <ele>217.88</ele>
        <time>2021-03-02T13:03:17Z</time>
      </trkpt>
      <trkpt lat="48.17326" lon="0.85485">
        <ele>217.88</ele>
        <time>2021-03-02T13:03:27Z</time>
      </trkpt>
      <trkpt lat="48.17337" lon="0.85489">
        <ele>217.88</ele>
        <time>2021-03-02T13:03:37Z</time>
      </trkpt>
      <trkpt lat="48.17347" lon="0.85491">
        <ele>217.4</ele>
        <time>2021-03-02T13:03:47Z</time>
      </trkpt>
      <trkpt lat="48.17358" lon="0.85494">
        <ele>217.4</ele>
        <time>2021-03-02T13:03:55Z</time>
      </trkpt>
      <trkpt lat="48.17368" lon="0.85509">
        <ele>217.4</ele>
        <time>2021-03-02T13:05:24Z</time>
      </trkpt>
      <trkpt lat="48.1738" lon="0.85506">
        <ele>216.91</ele>
        <time>2021-03-02T13:05:36Z</time>
      </trkpt>
      <trkpt lat="48.17392" lon="0.85501">
        <ele>216.91</ele>
        <time>2021-03-02T13:05:46Z</time>
      </trkpt>
      <trkpt lat="48.17403" lon="0.85499">
        <ele>216.43</ele>
        <time>2021-03-02T13:06:25Z</time>
      </trkpt>
      <trkpt lat="48.17414" lon="0.85495">
        <ele>216.43</ele>
        <time>2021-03-02T13:06:36Z</time>
      </trkpt>
      <trkpt lat="48.17423" lon="0.8549">
        <ele>216.43</ele>
        <time>2021-03-02T13:06:43Z</time>
      </trkpt>
      <trkpt lat="48.17433" lon="0.85484">
        <ele>216.43</ele>
        <time>2021-03-02T13:06:54Z</time>
      </trkpt>
      <trkpt lat="48.17444" lon="0.8548">
        <ele>217.88</ele>
        <time>2021-03-02T13:07:04Z</time>
      </trkpt>
      <trkpt lat="48.17455" lon="0.85479">
        <ele>218.36</ele>
        <time>2021-03-02T13:07:14Z</time>
      </trkpt>
      <trkpt lat="48.17469" lon="0.85482">
        <ele>218.36</ele>
        <time>2021-03-02T13:07:24Z</time>
      </trkpt>
      <trkpt lat="48.1748" lon="0.85489">
        <ele>218.84</ele>
        <time>2021-03-02T13:07:33Z</time>
      </trkpt>
      <trkpt lat="48.1749" lon="0.85494">
        <ele>218.84</ele>
        <time>2021-03-02T13:07:41Z</time>
      </trkpt>
      <trkpt lat="48.17499" lon="0.855">
        <ele>219.32</ele>
        <time>2021-03-02T13:07:49Z</time>
      </trkpt>
      <trkpt lat="48.17507" lon="0.85504">
        <ele>220.28</ele>
        <time>2021-03-02T13:07:57Z</time>
      </trkpt>
      <trkpt lat="48.17516" lon="0.8551">
        <ele>220.76</ele>
        <time>2021-03-02T13:08:05Z</time>
      </trkpt>
      <trkpt lat="48.17525" lon="0.85516">
        <ele>221.24</ele>
        <time>2021-03-02T13:08:14Z</time>
      </trkpt>
      <trkpt lat="48.17531" lon="0.85529">
        <ele>222.68</ele>
        <time>2021-03-02T13:08:23Z</time>
      </trkpt>
      <trkpt lat="48.17536" lon="0.85543">
        <ele>223.16</ele>
        <time>2021-03-02T13:08:32Z</time>
      </trkpt>
      <trkpt lat="48.17541" lon="0.85557">
        <ele>223.64</ele>
        <time>2021-03-02T13:08:41Z</time>
      </trkpt>
      <trkpt lat="48.17546" lon="0.85572">
        <ele>224.12</ele>
        <time>2021-03-02T13:08:50Z</time>
      </trkpt>
      <trkpt lat="48.17551" lon="0.85587">
        <ele>224.61</ele>
        <time>2021-03-02T13:08:59Z</time>
      </trkpt>
      <trkpt lat="48.1756" lon="0.85603">
        <ele>225.09</ele>
        <time>2021-03-02T13:09:09Z</time>
      </trkpt>
      <trkpt lat="48.17569" lon="0.85619">
        <ele>226.05</ele>
        <time>2021-03-02T13:09:36Z</time>
      </trkpt>
      <trkpt lat="48.17579" lon="0.8563">
        <ele>227.01</ele>
        <time>2021-03-02T13:09:48Z</time>
      </trkpt>
      <trkpt lat="48.17588" lon="0.85639">
        <ele>228.45</ele>
        <time>2021-03-02T13:09:59Z</time>
      </trkpt>
      <trkpt lat="48.17596" lon="0.85647">
        <ele>227.01</ele>
        <time>2021-03-02T13:10:10Z</time>
      </trkpt>
      <trkpt lat="48.17618" lon="0.85659">
        <ele>226.53</ele>
        <time>2021-03-02T13:10:53Z</time>
      </trkpt>
      <trkpt lat="48.17631" lon="0.85658">
        <ele>226.53</ele>
        <time>2021-03-02T13:11:05Z</time>
      </trkpt>
      <trkpt lat="48.17643" lon="0.8566">
        <ele>226.53</ele>
        <time>2021-03-02T13:11:15Z</time>
      </trkpt>
      <trkpt lat="48.17656" lon="0.85658">
        <ele>227.49</ele>
        <time>2021-03-02T13:11:28Z</time>
      </trkpt>
      <trkpt lat="48.17679" lon="0.8566">
        <ele>228.93</ele>
        <time>2021-03-02T13:11:55Z</time>
      </trkpt>
      <trkpt lat="48.1769" lon="0.85668">
        <ele>228.93</ele>
        <time>2021-03-02T13:12:06Z</time>
      </trkpt>
      <trkpt lat="48.17702" lon="0.85679">
        <ele>228.93</ele>
        <time>2021-03-02T13:12:17Z</time>
      </trkpt>
      <trkpt lat="48.17707" lon="0.85655">
        <ele>229.41</ele>
        <time>2021-03-02T13:13:11Z</time>
      </trkpt>
      <trkpt lat="48.17656" lon="0.85598">
        <ele>234.7</ele>
        <time>2021-03-02T13:14:12Z</time>
      </trkpt>
      <trkpt lat="48.17637" lon="0.85562">
        <ele>237.58</ele>
        <time>2021-03-02T13:14:40Z</time>
      </trkpt>
      <trkpt lat="48.1763" lon="0.85527">
        <ele>239.02</ele>
        <time>2021-03-02T13:15:03Z</time>
      </trkpt>
      <trkpt lat="48.17619" lon="0.85501">
        <ele>239.99</ele>
        <time>2021-03-02T13:15:20Z</time>
      </trkpt>
      <trkpt lat="48.17607" lon="0.85482">
        <ele>239.99</ele>
        <time>2021-03-02T13:15:34Z</time>
      </trkpt>
      <trkpt lat="48.17594" lon="0.85468">
        <ele>239.99</ele>
        <time>2021-03-02T13:15:46Z</time>
      </trkpt>
      <trkpt lat="48.17582" lon="0.85447">
        <ele>239.99</ele>
        <time>2021-03-02T13:16:03Z</time>
      </trkpt>
      <trkpt lat="48.17566" lon="0.85424">
        <ele>238.54</ele>
        <time>2021-03-02T13:16:21Z</time>
      </trkpt>
      <trkpt lat="48.17555" lon="0.85405">
        <ele>238.54</ele>
        <time>2021-03-02T13:16:36Z</time>
      </trkpt>
      <trkpt lat="48.17543" lon="0.85389">
        <ele>238.06</ele>
        <time>2021-03-02T13:16:49Z</time>
      </trkpt>
      <trkpt lat="48.17508" lon="0.85362">
        <ele>237.58</ele>
        <time>2021-03-02T13:17:25Z</time>
      </trkpt>
      <trkpt lat="48.17498" lon="0.85342">
        <ele>237.58</ele>
        <time>2021-03-02T13:17:39Z</time>
      </trkpt>
      <trkpt lat="48.17485" lon="0.85333">
        <ele>237.58</ele>
        <time>2021-03-02T13:17:50Z</time>
      </trkpt>
      <trkpt lat="48.17473" lon="0.85322">
        <ele>237.58</ele>
        <time>2021-03-02T13:18:02Z</time>
      </trkpt>
      <trkpt lat="48.17451" lon="0.85298">
        <ele>238.54</ele>
        <time>2021-03-02T13:18:27Z</time>
      </trkpt>
      <trkpt lat="48.17427" lon="0.85282">
        <ele>238.54</ele>
        <time>2021-03-02T13:18:46Z</time>
      </trkpt>
      <trkpt lat="48.17413" lon="0.85262">
        <ele>239.02</ele>
        <time>2021-03-02T13:19:06Z</time>
      </trkpt>
      <trkpt lat="48.17353" lon="0.852">
        <ele>240.95</ele>
        <time>2021-03-02T13:20:17Z</time>
      </trkpt>
      <trkpt lat="48.17254" lon="0.85131">
        <ele>243.35</ele>
        <time>2021-03-02T13:21:47Z</time>
      </trkpt>
      <trkpt lat="48.17231" lon="0.8512">
        <ele>243.83</ele>
        <time>2021-03-02T13:21:59Z</time>
      </trkpt>
      <trkpt lat="48.17215" lon="0.85111">
        <ele>243.83</ele>
        <time>2021-03-02T13:22:10Z</time>
      </trkpt>
      <trkpt lat="48.17196" lon="0.851">
        <ele>243.83</ele>
        <time>2021-03-02T13:22:28Z</time>
      </trkpt>
      <trkpt lat="48.17184" lon="0.85085">
        <ele>244.31</ele>
        <time>2021-03-02T13:22:40Z</time>
      </trkpt>
      <trkpt lat="48.17176" lon="0.85072">
        <ele>244.31</ele>
        <time>2021-03-02T13:22:50Z</time>
      </trkpt>
      <trkpt lat="48.17169" lon="0.85055">
        <ele>244.31</ele>
        <time>2021-03-02T13:23:01Z</time>
      </trkpt>
      <trkpt lat="48.17162" lon="0.8504">
        <ele>243.83</ele>
        <time>2021-03-02T13:23:11Z</time>
      </trkpt>
      <trkpt lat="48.17155" lon="0.85025">
        <ele>243.83</ele>
        <time>2021-03-02T13:23:21Z</time>
      </trkpt>
      <trkpt lat="48.17146" lon="0.85011">
        <ele>243.83</ele>
        <time>2021-03-02T13:23:33Z</time>
      </trkpt>
      <trkpt lat="48.17134" lon="0.84998">
        <ele>242.87</ele>
        <time>2021-03-02T13:23:43Z</time>
      </trkpt>
      <trkpt lat="48.17125" lon="0.84987">
        <ele>242.87</ele>
        <time>2021-03-02T13:23:52Z</time>
      </trkpt>
      <trkpt lat="48.17114" lon="0.84975">
        <ele>242.87</ele>
        <time>2021-03-02T13:24:02Z</time>
      </trkpt>
      <trkpt lat="48.17099" lon="0.84969">
        <ele>242.39</ele>
        <time>2021-03-02T13:24:13Z</time>
      </trkpt>
      <trkpt lat="48.17089" lon="0.8496">
        <ele>242.39</ele>
        <time>2021-03-02T13:24:24Z</time>
      </trkpt>
      <trkpt lat="48.17079" lon="0.84952">
        <ele>241.91</ele>
        <time>2021-03-02T13:24:32Z</time>
      </trkpt>
      <trkpt lat="48.1707" lon="0.84943">
        <ele>241.43</ele>
        <time>2021-03-02T13:24:41Z</time>
      </trkpt>
      <trkpt lat="48.17061" lon="0.84931">
        <ele>240.95</ele>
        <time>2021-03-02T13:24:51Z</time>
      </trkpt>
      <trkpt lat="48.17052" lon="0.84919">
        <ele>240.95</ele>
        <time>2021-03-02T13:25:00Z</time>
      </trkpt>
      <trkpt lat="48.17045" lon="0.84908">
        <ele>240.47</ele>
        <time>2021-03-02T13:25:10Z</time>
      </trkpt>
      <trkpt lat="48.17036" lon="0.84896">
        <ele>240.47</ele>
        <time>2021-03-02T13:25:19Z</time>
      </trkpt>
      <trkpt lat="48.17027" lon="0.84884">
        <ele>239.99</ele>
        <time>2021-03-02T13:25:30Z</time>
      </trkpt>
      <trkpt lat="48.17032" lon="0.84861">
        <ele>239.99</ele>
        <time>2021-03-02T13:25:55Z</time>
      </trkpt>
      <trkpt lat="48.17039" lon="0.84849">
        <ele>239.99</ele>
        <time>2021-03-02T13:26:06Z</time>
      </trkpt>
      <trkpt lat="48.17045" lon="0.84839">
        <ele>239.99</ele>
        <time>2021-03-02T13:26:16Z</time>
      </trkpt>
      <trkpt lat="48.1705" lon="0.84825">
        <ele>239.99</ele>
        <time>2021-03-02T13:26:25Z</time>
      </trkpt>
      <trkpt lat="48.17057" lon="0.84812">
        <ele>239.99</ele>
        <time>2021-03-02T13:26:35Z</time>
      </trkpt>
      <trkpt lat="48.17067" lon="0.84795">
        <ele>239.51</ele>
        <time>2021-03-02T13:26:45Z</time>
      </trkpt>
      <trkpt lat="48.17074" lon="0.84781">
        <ele>239.02</ele>
        <time>2021-03-02T13:26:55Z</time>
      </trkpt>
      <trkpt lat="48.17081" lon="0.84751">
        <ele>237.58</ele>
        <time>2021-03-02T13:27:13Z</time>
      </trkpt>
      <trkpt lat="48.17086" lon="0.84723">
        <ele>236.14</ele>
        <time>2021-03-02T13:27:29Z</time>
      </trkpt>
      <trkpt lat="48.17088" lon="0.84702">
        <ele>234.22</ele>
        <time>2021-03-02T13:27:41Z</time>
      </trkpt>
      <trkpt lat="48.17093" lon="0.84685">
        <ele>232.78</ele>
        <time>2021-03-02T13:27:51Z</time>
      </trkpt>
      <trkpt lat="48.17094" lon="0.84667">
        <ele>230.85</ele>
        <time>2021-03-02T13:28:01Z</time>
      </trkpt>
      <trkpt lat="48.17094" lon="0.84645">
        <ele>228.93</ele>
        <time>2021-03-02T13:28:14Z</time>
      </trkpt>
      <trkpt lat="48.17096" lon="0.84622">
        <ele>227.01</ele>
        <time>2021-03-02T13:28:27Z</time>
      </trkpt>
      <trkpt lat="48.17095" lon="0.84597">
        <ele>224.61</ele>
        <time>2021-03-02T13:28:41Z</time>
      </trkpt>
      <trkpt lat="48.17099" lon="0.84577">
        <ele>222.68</ele>
        <time>2021-03-02T13:28:51Z</time>
      </trkpt>
      <trkpt lat="48.17097" lon="0.8455">
        <ele>220.76</ele>
        <time>2021-03-02T13:29:05Z</time>
      </trkpt>
      <trkpt lat="48.17096" lon="0.8453">
        <ele>219.32</ele>
        <time>2021-03-02T13:29:16Z</time>
      </trkpt>
      <trkpt lat="48.17093" lon="0.84512">
        <ele>218.36</ele>
        <time>2021-03-02T13:29:27Z</time>
      </trkpt>
      <trkpt lat="48.17093" lon="0.84491">
        <ele>217.4</ele>
        <time>2021-03-02T13:29:38Z</time>
      </trkpt>
      <trkpt lat="48.17092" lon="0.84473">
        <ele>216.43</ele>
        <time>2021-03-02T13:29:51Z</time>
      </trkpt>
      <trkpt lat="48.17081" lon="0.84466">
        <ele>216.43</ele>
        <time>2021-03-02T13:30:01Z</time>
      </trkpt>
      <trkpt lat="48.1707" lon="0.8446">
        <ele>216.43</ele>
        <time>2021-03-02T13:30:11Z</time>
      </trkpt>
      <trkpt lat="48.17058" lon="0.84452">
        <ele>215.95</ele>
        <time>2021-03-02T13:30:22Z</time>
      </trkpt>
      <trkpt lat="48.17047" lon="0.84446">
        <ele>215.47</ele>
        <time>2021-03-02T13:30:32Z</time>
      </trkpt>
      <trkpt lat="48.17035" lon="0.84439">
        <ele>214.99</ele>
        <time>2021-03-02T13:30:42Z</time>
      </trkpt>
      <trkpt lat="48.17018" lon="0.84436">
        <ele>214.03</ele>
        <time>2021-03-02T13:30:56Z</time>
      </trkpt>
      <trkpt lat="48.17003" lon="0.84433">
        <ele>213.55</ele>
        <time>2021-03-02T13:31:11Z</time>
      </trkpt>
      <trkpt lat="48.16967" lon="0.84439">
        <ele>213.07</ele>
        <time>2021-03-02T13:31:45Z</time>
      </trkpt>
      <trkpt lat="48.16946" lon="0.84442">
        <ele>212.59</ele>
        <time>2021-03-02T13:32:04Z</time>
      </trkpt>
      <trkpt lat="48.16918" lon="0.84446">
        <ele>212.11</ele>
        <time>2021-03-02T13:32:26Z</time>
      </trkpt>
      <trkpt lat="48.169" lon="0.84449">
        <ele>211.15</ele>
        <time>2021-03-02T13:32:39Z</time>
      </trkpt>
      <trkpt lat="48.16881" lon="0.84452">
        <ele>209.7</ele>
        <time>2021-03-02T13:32:52Z</time>
      </trkpt>
      <trkpt lat="48.16863" lon="0.8445">
        <ele>208.74</ele>
        <time>2021-03-02T13:33:03Z</time>
      </trkpt>
      <trkpt lat="48.16849" lon="0.8445">
        <ele>208.26</ele>
        <time>2021-03-02T13:33:14Z</time>
      </trkpt>
      <trkpt lat="48.16833" lon="0.8444">
        <ele>206.82</ele>
        <time>2021-03-02T13:33:32Z</time>
      </trkpt>
      <trkpt lat="48.16806" lon="0.84428">
        <ele>206.34</ele>
        <time>2021-03-02T13:33:52Z</time>
      </trkpt>
      <trkpt lat="48.16788" lon="0.84419">
        <ele>205.86</ele>
        <time>2021-03-02T13:34:06Z</time>
      </trkpt>
      <trkpt lat="48.16766" lon="0.84404">
        <ele>204.42</ele>
        <time>2021-03-02T13:34:29Z</time>
      </trkpt>
      <trkpt lat="48.16753" lon="0.84395">
        <ele>204.42</ele>
        <time>2021-03-02T13:34:37Z</time>
      </trkpt>
      <trkpt lat="48.16737" lon="0.8439">
        <ele>203.94</ele>
        <time>2021-03-02T13:34:50Z</time>
      </trkpt>
      <trkpt lat="48.1672" lon="0.84383">
        <ele>203.94</ele>
        <time>2021-03-02T13:35:05Z</time>
      </trkpt>
      <trkpt lat="48.16706" lon="0.84388">
        <ele>203.46</ele>
        <time>2021-03-02T13:35:13Z</time>
      </trkpt>
      <trkpt lat="48.16697" lon="0.8439">
        <ele>203.46</ele>
        <time>2021-03-02T13:35:21Z</time>
      </trkpt>
      <trkpt lat="48.16685" lon="0.84389">
        <ele>203.46</ele>
        <time>2021-03-02T13:35:30Z</time>
      </trkpt>
      <trkpt lat="48.16667" lon="0.8439">
        <ele>204.9</ele>
        <time>2021-03-02T13:35:51Z</time>
      </trkpt>
      <trkpt lat="48.16641" lon="0.84386">
        <ele>206.34</ele>
        <time>2021-03-02T13:36:18Z</time>
      </trkpt>
      <trkpt lat="48.16577" lon="0.84389">
        <ele>211.15</ele>
        <time>2021-03-02T13:37:12Z</time>
      </trkpt>
      <trkpt lat="48.16549" lon="0.8439">
        <ele>213.07</ele>
        <time>2021-03-02T13:37:42Z</time>
      </trkpt>
      <trkpt lat="48.16538" lon="0.84386">
        <ele>213.07</ele>
        <time>2021-03-02T13:37:52Z</time>
      </trkpt>
      <trkpt lat="48.16524" lon="0.84384">
        <ele>213.55</ele>
        <time>2021-03-02T13:38:04Z</time>
      </trkpt>
      <trkpt lat="48.1651" lon="0.84386">
        <ele>213.55</ele>
        <time>2021-03-02T13:38:15Z</time>
      </trkpt>
      <trkpt lat="48.16471" lon="0.84366">
        <ele>210.67</ele>
        <time>2021-03-02T13:40:29Z</time>
      </trkpt>
      <trkpt lat="48.16462" lon="0.84359">
        <ele>209.7</ele>
        <time>2021-03-02T13:40:40Z</time>
      </trkpt>
      <trkpt lat="48.16454" lon="0.84347">
        <ele>208.26</ele>
        <time>2021-03-02T13:40:52Z</time>
      </trkpt>
      <trkpt lat="48.16442" lon="0.84336">
        <ele>206.82</ele>
        <time>2021-03-02T13:41:08Z</time>
      </trkpt>
      <trkpt lat="48.16429" lon="0.84325">
        <ele>204.9</ele>
        <time>2021-03-02T13:41:23Z</time>
      </trkpt>
      <trkpt lat="48.16415" lon="0.84312">
        <ele>203.94</ele>
        <time>2021-03-02T13:41:37Z</time>
      </trkpt>
      <trkpt lat="48.16398" lon="0.84298">
        <ele>202.49</ele>
        <time>2021-03-02T13:41:52Z</time>
      </trkpt>
      <trkpt lat="48.16385" lon="0.84288">
        <ele>201.05</ele>
        <time>2021-03-02T13:42:06Z</time>
      </trkpt>
      <trkpt lat="48.16302" lon="0.84229">
        <ele>193.36</ele>
        <time>2021-03-02T13:43:26Z</time>
      </trkpt>
      <trkpt lat="48.16261" lon="0.84202">
        <ele>189.04</ele>
        <time>2021-03-02T13:44:09Z</time>
      </trkpt>
      <trkpt lat="48.16249" lon="0.84194">
        <ele>188.56</ele>
        <time>2021-03-02T13:44:19Z</time>
      </trkpt>
      <trkpt lat="48.16237" lon="0.84189">
        <ele>187.11</ele>
        <time>2021-03-02T13:44:29Z</time>
      </trkpt>
      <trkpt lat="48.16224" lon="0.84185">
        <ele>186.15</ele>
        <time>2021-03-02T13:44:39Z</time>
      </trkpt>
      <trkpt lat="48.16213" lon="0.84181">
        <ele>185.19</ele>
        <time>2021-03-02T13:44:49Z</time>
      </trkpt>
      <trkpt lat="48.16203" lon="0.84176">
        <ele>184.23</ele>
        <time>2021-03-02T13:44:58Z</time>
      </trkpt>
      <trkpt lat="48.16192" lon="0.84173">
        <ele>183.75</ele>
        <time>2021-03-02T13:45:08Z</time>
      </trkpt>
      <trkpt lat="48.16181" lon="0.84173">
        <ele>182.79</ele>
        <time>2021-03-02T13:45:18Z</time>
      </trkpt>
      <trkpt lat="48.1617" lon="0.84173">
        <ele>182.31</ele>
        <time>2021-03-02T13:45:29Z</time>
      </trkpt>
      <trkpt lat="48.16154" lon="0.84175">
        <ele>180.87</ele>
        <time>2021-03-02T13:45:42Z</time>
      </trkpt>
      <trkpt lat="48.16141" lon="0.84174">
        <ele>179.42</ele>
        <time>2021-03-02T13:45:53Z</time>
      </trkpt>
      <trkpt lat="48.1613" lon="0.84171">
        <ele>178.46</ele>
        <time>2021-03-02T13:46:03Z</time>
      </trkpt>
      <trkpt lat="48.16116" lon="0.84157">
        <ele>176.54</ele>
        <time>2021-03-02T13:46:20Z</time>
      </trkpt>
      <trkpt lat="48.16106" lon="0.84146">
        <ele>174.62</ele>
        <time>2021-03-02T13:46:30Z</time>
      </trkpt>
      <trkpt lat="48.16098" lon="0.84129">
        <ele>173.17</ele>
        <time>2021-03-02T13:46:42Z</time>
      </trkpt>
      <trkpt lat="48.16094" lon="0.84115">
        <ele>171.73</ele>
        <time>2021-03-02T13:46:51Z</time>
      </trkpt>
      <trkpt lat="48.1609" lon="0.84098">
        <ele>170.77</ele>
        <time>2021-03-02T13:47:02Z</time>
      </trkpt>
      <trkpt lat="48.16086" lon="0.84081">
        <ele>169.33</ele>
        <time>2021-03-02T13:47:12Z</time>
      </trkpt>
      <trkpt lat="48.1608" lon="0.84065">
        <ele>167.89</ele>
        <time>2021-03-02T13:47:22Z</time>
      </trkpt>
      <trkpt lat="48.16072" lon="0.84049">
        <ele>166.93</ele>
        <time>2021-03-02T13:47:35Z</time>
      </trkpt>
      <trkpt lat="48.16065" lon="0.84032">
        <ele>165.48</ele>
        <time>2021-03-02T13:47:47Z</time>
      </trkpt>
      <trkpt lat="48.16048" lon="0.84009">
        <ele>163.08</ele>
        <time>2021-03-02T13:49:05Z</time>
      </trkpt>
      <trkpt lat="48.16045" lon="0.84002">
        <ele>163.08</ele>
        <time>2021-03-02T13:49:15Z</time>
      </trkpt>
      <trkpt lat="48.16039" lon="0.83991">
        <ele>162.6</ele>
        <time>2021-03-02T13:49:24Z</time>
      </trkpt>
      <trkpt lat="48.16034" lon="0.83978">
        <ele>161.64</ele>
        <time>2021-03-02T13:49:33Z</time>
      </trkpt>
      <trkpt lat="48.16027" lon="0.83964">
        <ele>160.68</ele>
        <time>2021-03-02T13:49:44Z</time>
      </trkpt>
      <trkpt lat="48.16023" lon="0.83947">
        <ele>159.72</ele>
        <time>2021-03-02T13:49:53Z</time>
      </trkpt>
      <trkpt lat="48.16022" lon="0.83932">
        <ele>158.75</ele>
        <time>2021-03-02T13:50:00Z</time>
      </trkpt>
      <trkpt lat="48.16019" lon="0.83916">
        <ele>157.79</ele>
        <time>2021-03-02T13:50:10Z</time>
      </trkpt>
      <trkpt lat="48.16017" lon="0.83898">
        <ele>157.31</ele>
        <time>2021-03-02T13:50:18Z</time>
      </trkpt>
      <trkpt lat="48.16013" lon="0.83883">
        <ele>156.35</ele>
        <time>2021-03-02T13:50:26Z</time>
      </trkpt>
      <trkpt lat="48.16005" lon="0.8387">
        <ele>155.87</ele>
        <time>2021-03-02T13:50:35Z</time>
      </trkpt>
      <trkpt lat="48.15998" lon="0.83859">
        <ele>155.87</ele>
        <time>2021-03-02T13:50:42Z</time>
      </trkpt>
      <trkpt lat="48.15991" lon="0.83849">
        <ele>155.87</ele>
        <time>2021-03-02T13:50:50Z</time>
      </trkpt>
      <trkpt lat="48.15982" lon="0.8384">
        <ele>155.39</ele>
        <time>2021-03-02T13:50:58Z</time>
      </trkpt>
      <trkpt lat="48.15976" lon="0.8383">
        <ele>154.91</ele>
        <time>2021-03-02T13:51:04Z</time>
      </trkpt>
      <trkpt lat="48.15966" lon="0.83829">
        <ele>154.91</ele>
        <time>2021-03-02T13:51:12Z</time>
      </trkpt>
      <trkpt lat="48.15957" lon="0.83835">
        <ele>154.91</ele>
        <time>2021-03-02T13:51:23Z</time>
      </trkpt>
      <trkpt lat="48.15947" lon="0.8383">
        <ele>154.91</ele>
        <time>2021-03-02T13:51:33Z</time>
      </trkpt>
      <trkpt lat="48.15922" lon="0.83819">
        <ele>157.79</ele>
        <time>2021-03-02T13:51:59Z</time>
      </trkpt>
      <trkpt lat="48.1591" lon="0.83813">
        <ele>158.75</ele>
        <time>2021-03-02T13:52:10Z</time>
      </trkpt>
      <trkpt lat="48.15882" lon="0.83785">
        <ele>163.08</ele>
        <time>2021-03-02T13:52:53Z</time>
      </trkpt>
      <trkpt lat="48.15847" lon="0.83717">
        <ele>168.85</ele>
        <time>2021-03-02T13:54:13Z</time>
      </trkpt>
      <trkpt lat="48.15777" lon="0.83672">
        <ele>177.5</ele>
        <time>2021-03-02T13:56:03Z</time>
      </trkpt>
      <trkpt lat="48.15767" lon="0.83667">
        <ele>177.98</ele>
        <time>2021-03-02T13:56:15Z</time>
      </trkpt>
      <trkpt lat="48.15748" lon="0.83661">
        <ele>179.42</ele>
        <time>2021-03-02T13:56:34Z</time>
      </trkpt>
      <trkpt lat="48.15735" lon="0.83653">
        <ele>179.9</ele>
        <time>2021-03-02T13:56:50Z</time>
      </trkpt>
      <trkpt lat="48.15725" lon="0.83649">
        <ele>180.87</ele>
        <time>2021-03-02T13:57:03Z</time>
      </trkpt>
      <trkpt lat="48.15714" lon="0.83644">
        <ele>181.83</ele>
        <time>2021-03-02T13:57:17Z</time>
      </trkpt>
      <trkpt lat="48.15704" lon="0.83639">
        <ele>182.31</ele>
        <time>2021-03-02T13:57:29Z</time>
      </trkpt>
      <trkpt lat="48.15693" lon="0.83636">
        <ele>182.31</ele>
        <time>2021-03-02T13:57:40Z</time>
      </trkpt>
      <trkpt lat="48.15682" lon="0.83632">
        <ele>183.75</ele>
        <time>2021-03-02T13:57:54Z</time>
      </trkpt>
      <trkpt lat="48.1567" lon="0.83623">
        <ele>184.71</ele>
        <time>2021-03-02T13:58:07Z</time>
      </trkpt>
      <trkpt lat="48.15652" lon="0.83606">
        <ele>186.15</ele>
        <time>2021-03-02T13:58:30Z</time>
      </trkpt>
      <trkpt lat="48.15609" lon="0.83556">
        <ele>192.4</ele>
        <time>2021-03-02T13:59:39Z</time>
      </trkpt>
      <trkpt lat="48.15535" lon="0.83488">
        <ele>199.13</ele>
        <time>2021-03-02T14:01:07Z</time>
      </trkpt>
      <trkpt lat="48.15521" lon="0.83479">
        <ele>199.13</ele>
        <time>2021-03-02T14:01:23Z</time>
      </trkpt>
      <trkpt lat="48.15506" lon="0.83467">
        <ele>199.13</ele>
        <time>2021-03-02T14:01:38Z</time>
      </trkpt>
      <trkpt lat="48.15493" lon="0.83455">
        <ele>200.09</ele>
        <time>2021-03-02T14:01:56Z</time>
      </trkpt>
      <trkpt lat="48.1547" lon="0.8344">
        <ele>201.53</ele>
        <time>2021-03-02T14:02:20Z</time>
      </trkpt>
      <trkpt lat="48.15419" lon="0.83413">
        <ele>201.53</ele>
        <time>2021-03-02T14:03:14Z</time>
      </trkpt>
      <trkpt lat="48.15403" lon="0.83397">
        <ele>200.57</ele>
        <time>2021-03-02T14:03:40Z</time>
      </trkpt>
      <trkpt lat="48.15406" lon="0.83382">
        <ele>200.57</ele>
        <time>2021-03-02T14:03:50Z</time>
      </trkpt>
      <trkpt lat="48.15413" lon="0.83373">
        <ele>200.57</ele>
        <time>2021-03-02T14:04:00Z</time>
      </trkpt>
      <trkpt lat="48.15416" lon="0.83366">
        <ele>201.05</ele>
        <time>2021-03-02T14:06:57Z</time>
      </trkpt>
      <trkpt lat="48.15423" lon="0.83354">
        <ele>201.05</ele>
        <time>2021-03-02T14:07:09Z</time>
      </trkpt>
      <trkpt lat="48.15431" lon="0.83342">
        <ele>201.05</ele>
        <time>2021-03-02T14:07:19Z</time>
      </trkpt>
      <trkpt lat="48.15438" lon="0.83331">
        <ele>201.05</ele>
        <time>2021-03-02T14:07:28Z</time>
      </trkpt>
      <trkpt lat="48.15443" lon="0.83321">
        <ele>200.57</ele>
        <time>2021-03-02T14:07:37Z</time>
      </trkpt>
      <trkpt lat="48.15451" lon="0.83311">
        <ele>199.61</ele>
        <time>2021-03-02T14:07:45Z</time>
      </trkpt>
      <trkpt lat="48.15459" lon="0.83301">
        <ele>199.61</ele>
        <time>2021-03-02T14:07:56Z</time>
      </trkpt>
      <trkpt lat="48.15466" lon="0.83293">
        <ele>198.65</ele>
        <time>2021-03-02T14:08:04Z</time>
      </trkpt>
      <trkpt lat="48.15474" lon="0.83286">
        <ele>197.69</ele>
        <time>2021-03-02T14:08:12Z</time>
      </trkpt>
      <trkpt lat="48.15481" lon="0.83279">
        <ele>197.21</ele>
        <time>2021-03-02T14:08:20Z</time>
      </trkpt>
      <trkpt lat="48.15489" lon="0.83271">
        <ele>196.25</ele>
        <time>2021-03-02T14:08:29Z</time>
      </trkpt>
      <trkpt lat="48.15497" lon="0.83264">
        <ele>195.77</ele>
        <time>2021-03-02T14:08:38Z</time>
      </trkpt>
      <trkpt lat="48.15506" lon="0.83257">
        <ele>194.32</ele>
        <time>2021-03-02T14:08:47Z</time>
      </trkpt>
      <trkpt lat="48.15514" lon="0.83248">
        <ele>193.84</ele>
        <time>2021-03-02T14:08:56Z</time>
      </trkpt>
      <trkpt lat="48.15521" lon="0.83239">
        <ele>192.88</ele>
        <time>2021-03-02T14:09:04Z</time>
      </trkpt>
      <trkpt lat="48.15528" lon="0.83229">
        <ele>192.4</ele>
        <time>2021-03-02T14:09:13Z</time>
      </trkpt>
      <trkpt lat="48.15535" lon="0.83219">
        <ele>191.92</ele>
        <time>2021-03-02T14:09:22Z</time>
      </trkpt>
      <trkpt lat="48.1554" lon="0.83206">
        <ele>191.44</ele>
        <time>2021-03-02T14:09:31Z</time>
      </trkpt>
      <trkpt lat="48.15545" lon="0.83194">
        <ele>190.96</ele>
        <time>2021-03-02T14:09:40Z</time>
      </trkpt>
      <trkpt lat="48.1555" lon="0.83181">
        <ele>190.48</ele>
        <time>2021-03-02T14:09:49Z</time>
      </trkpt>
      <trkpt lat="48.15555" lon="0.83167">
        <ele>189.52</ele>
        <time>2021-03-02T14:09:58Z</time>
      </trkpt>
      <trkpt lat="48.1556" lon="0.83156">
        <ele>189.52</ele>
        <time>2021-03-02T14:10:07Z</time>
      </trkpt>
      <trkpt lat="48.15565" lon="0.83144">
        <ele>189.04</ele>
        <time>2021-03-02T14:10:15Z</time>
      </trkpt>
      <trkpt lat="48.15572" lon="0.83133">
        <ele>188.56</ele>
        <time>2021-03-02T14:10:24Z</time>
      </trkpt>
      <trkpt lat="48.15577" lon="0.83119">
        <ele>188.08</ele>
        <time>2021-03-02T14:10:33Z</time>
      </trkpt>
      <trkpt lat="48.15582" lon="0.83106">
        <ele>187.59</ele>
        <time>2021-03-02T14:10:42Z</time>
      </trkpt>
      <trkpt lat="48.15587" lon="0.83095">
        <ele>187.11</ele>
        <time>2021-03-02T14:10:50Z</time>
      </trkpt>
      <trkpt lat="48.15592" lon="0.83083">
        <ele>186.63</ele>
        <time>2021-03-02T14:10:58Z</time>
      </trkpt>
      <trkpt lat="48.15598" lon="0.83067">
        <ele>185.67</ele>
        <time>2021-03-02T14:11:08Z</time>
      </trkpt>
      <trkpt lat="48.15605" lon="0.83053">
        <ele>184.71</ele>
        <time>2021-03-02T14:11:19Z</time>
      </trkpt>
      <trkpt lat="48.15613" lon="0.83037">
        <ele>183.75</ele>
        <time>2021-03-02T14:11:33Z</time>
      </trkpt>
      <trkpt lat="48.15619" lon="0.83025">
        <ele>183.27</ele>
        <time>2021-03-02T14:11:42Z</time>
      </trkpt>
      <trkpt lat="48.15624" lon="0.83013">
        <ele>182.31</ele>
        <time>2021-03-02T14:11:52Z</time>
      </trkpt>
      <trkpt lat="48.15629" lon="0.83001">
        <ele>181.35</ele>
        <time>2021-03-02T14:12:01Z</time>
      </trkpt>
      <trkpt lat="48.15633" lon="0.82989">
        <ele>180.87</ele>
        <time>2021-03-02T14:12:10Z</time>
      </trkpt>
      <trkpt lat="48.15639" lon="0.82979">
        <ele>179.9</ele>
        <time>2021-03-02T14:12:21Z</time>
      </trkpt>
      <trkpt lat="48.15641" lon="0.82964">
        <ele>178.94</ele>
        <time>2021-03-02T14:12:41Z</time>
      </trkpt>
      <trkpt lat="48.15647" lon="0.8295">
        <ele>177.98</ele>
        <time>2021-03-02T14:12:50Z</time>
      </trkpt>
      <trkpt lat="48.15654" lon="0.82934">
        <ele>177.02</ele>
        <time>2021-03-02T14:13:01Z</time>
      </trkpt>
      <trkpt lat="48.15653" lon="0.82921">
        <ele>176.06</ele>
        <time>2021-03-02T14:13:57Z</time>
      </trkpt>
      <trkpt lat="48.15649" lon="0.82909">
        <ele>175.58</ele>
        <time>2021-03-02T14:14:07Z</time>
      </trkpt>
      <trkpt lat="48.15644" lon="0.82897">
        <ele>175.58</ele>
        <time>2021-03-02T14:14:16Z</time>
      </trkpt>
      <trkpt lat="48.1564" lon="0.82883">
        <ele>175.1</ele>
        <time>2021-03-02T14:14:26Z</time>
      </trkpt>
      <trkpt lat="48.15636" lon="0.82869">
        <ele>175.58</ele>
        <time>2021-03-02T14:14:35Z</time>
      </trkpt>
      <trkpt lat="48.15633" lon="0.82854">
        <ele>175.1</ele>
        <time>2021-03-02T14:14:45Z</time>
      </trkpt>
      <trkpt lat="48.1563" lon="0.82841">
        <ele>175.1</ele>
        <time>2021-03-02T14:14:52Z</time>
      </trkpt>
      <trkpt lat="48.15627" lon="0.82824">
        <ele>174.62</ele>
        <time>2021-03-02T14:15:02Z</time>
      </trkpt>
      <trkpt lat="48.15625" lon="0.82808">
        <ele>174.62</ele>
        <time>2021-03-02T14:15:11Z</time>
      </trkpt>
      <trkpt lat="48.15622" lon="0.82793">
        <ele>174.62</ele>
        <time>2021-03-02T14:15:20Z</time>
      </trkpt>
      <trkpt lat="48.15618" lon="0.82778">
        <ele>174.62</ele>
        <time>2021-03-02T14:15:29Z</time>
      </trkpt>
      <trkpt lat="48.15615" lon="0.82763">
        <ele>174.62</ele>
        <time>2021-03-02T14:15:38Z</time>
      </trkpt>
      <trkpt lat="48.15613" lon="0.8275">
        <ele>174.14</ele>
        <time>2021-03-02T14:15:46Z</time>
      </trkpt>
      <trkpt lat="48.15612" lon="0.82735">
        <ele>173.66</ele>
        <time>2021-03-02T14:15:53Z</time>
      </trkpt>
      <trkpt lat="48.15612" lon="0.8272">
        <ele>173.17</ele>
        <time>2021-03-02T14:16:01Z</time>
      </trkpt>
      <trkpt lat="48.15612" lon="0.82707">
        <ele>173.17</ele>
        <time>2021-03-02T14:16:08Z</time>
      </trkpt>
      <trkpt lat="48.15615" lon="0.82693">
        <ele>172.69</ele>
        <time>2021-03-02T14:16:16Z</time>
      </trkpt>
      <trkpt lat="48.1562" lon="0.82681">
        <ele>171.73</ele>
        <time>2021-03-02T14:16:25Z</time>
      </trkpt>
      <trkpt lat="48.15627" lon="0.82672">
        <ele>171.73</ele>
        <time>2021-03-02T14:16:32Z</time>
      </trkpt>
      <trkpt lat="48.15633" lon="0.82662">
        <ele>170.77</ele>
        <time>2021-03-02T14:16:40Z</time>
      </trkpt>
      <trkpt lat="48.15641" lon="0.82654">
        <ele>170.29</ele>
        <time>2021-03-02T14:16:47Z</time>
      </trkpt>
      <trkpt lat="48.15649" lon="0.82646">
        <ele>169.81</ele>
        <time>2021-03-02T14:16:55Z</time>
      </trkpt>
      <trkpt lat="48.15657" lon="0.82639">
        <ele>169.81</ele>
        <time>2021-03-02T14:17:04Z</time>
      </trkpt>
      <trkpt lat="48.15665" lon="0.82633">
        <ele>169.33</ele>
        <time>2021-03-02T14:17:12Z</time>
      </trkpt>
      <trkpt lat="48.15674" lon="0.82629">
        <ele>168.85</ele>
        <time>2021-03-02T14:17:20Z</time>
      </trkpt>
      <trkpt lat="48.15683" lon="0.82623">
        <ele>167.89</ele>
        <time>2021-03-02T14:17:29Z</time>
      </trkpt>
      <trkpt lat="48.15691" lon="0.82614">
        <ele>167.41</ele>
        <time>2021-03-02T14:17:37Z</time>
      </trkpt>
      <trkpt lat="48.15698" lon="0.82606">
        <ele>166.93</ele>
        <time>2021-03-02T14:17:45Z</time>
      </trkpt>
      <trkpt lat="48.15706" lon="0.82598">
        <ele>165.96</ele>
        <time>2021-03-02T14:17:53Z</time>
      </trkpt>
      <trkpt lat="48.15712" lon="0.82588">
        <ele>165.48</ele>
        <time>2021-03-02T14:18:00Z</time>
      </trkpt>
      <trkpt lat="48.15719" lon="0.82576">
        <ele>164.52</ele>
        <time>2021-03-02T14:18:09Z</time>
      </trkpt>
      <trkpt lat="48.15725" lon="0.82566">
        <ele>164.04</ele>
        <time>2021-03-02T14:18:16Z</time>
      </trkpt>
      <trkpt lat="48.15732" lon="0.82556">
        <ele>163.08</ele>
        <time>2021-03-02T14:18:25Z</time>
      </trkpt>
      <trkpt lat="48.1574" lon="0.82548">
        <ele>162.6</ele>
        <time>2021-03-02T14:18:33Z</time>
      </trkpt>
      <trkpt lat="48.15747" lon="0.8254">
        <ele>162.12</ele>
        <time>2021-03-02T14:18:41Z</time>
      </trkpt>
      <trkpt lat="48.15754" lon="0.82532">
        <ele>161.16</ele>
        <time>2021-03-02T14:18:49Z</time>
      </trkpt>
      <trkpt lat="48.15763" lon="0.82526">
        <ele>160.68</ele>
        <time>2021-03-02T14:18:57Z</time>
      </trkpt>
      <trkpt lat="48.15772" lon="0.82518">
        <ele>159.72</ele>
        <time>2021-03-02T14:19:06Z</time>
      </trkpt>
      <trkpt lat="48.1578" lon="0.8251">
        <ele>159.24</ele>
        <time>2021-03-02T14:19:14Z</time>
      </trkpt>
      <trkpt lat="48.15787" lon="0.82502">
        <ele>159.24</ele>
        <time>2021-03-02T14:19:21Z</time>
      </trkpt>
      <trkpt lat="48.15794" lon="0.82491">
        <ele>158.75</ele>
        <time>2021-03-02T14:19:30Z</time>
      </trkpt>
      <trkpt lat="48.15803" lon="0.82482">
        <ele>158.75</ele>
        <time>2021-03-02T14:19:38Z</time>
      </trkpt>
      <trkpt lat="48.15808" lon="0.8247">
        <ele>158.27</ele>
        <time>2021-03-02T14:19:47Z</time>
      </trkpt>
      <trkpt lat="48.15816" lon="0.82464">
        <ele>159.24</ele>
        <time>2021-03-02T14:20:28Z</time>
      </trkpt>
      <trkpt lat="48.15823" lon="0.82455">
        <ele>159.24</ele>
        <time>2021-03-02T14:20:36Z</time>
      </trkpt>
      <trkpt lat="48.15832" lon="0.82449">
        <ele>159.24</ele>
        <time>2021-03-02T14:20:45Z</time>
      </trkpt>
      <trkpt lat="48.15842" lon="0.82448">
        <ele>159.24</ele>
        <time>2021-03-02T14:20:52Z</time>
      </trkpt>
      <trkpt lat="48.15852" lon="0.82449">
        <ele>159.24</ele>
        <time>2021-03-02T14:21:00Z</time>
      </trkpt>
      <trkpt lat="48.15861" lon="0.82449">
        <ele>159.24</ele>
        <time>2021-03-02T14:21:07Z</time>
      </trkpt>
      <trkpt lat="48.1587" lon="0.82449">
        <ele>159.24</ele>
        <time>2021-03-02T14:21:15Z</time>
      </trkpt>
      <trkpt lat="48.1588" lon="0.82446">
        <ele>159.24</ele>
        <time>2021-03-02T14:21:28Z</time>
      </trkpt>
      <trkpt lat="48.1589" lon="0.82443">
        <ele>159.24</ele>
        <time>2021-03-02T14:21:36Z</time>
      </trkpt>
      <trkpt lat="48.15899" lon="0.82438">
        <ele>157.79</ele>
        <time>2021-03-02T14:21:44Z</time>
      </trkpt>
      <trkpt lat="48.15909" lon="0.82433">
        <ele>157.31</ele>
        <time>2021-03-02T14:21:54Z</time>
      </trkpt>
      <trkpt lat="48.15918" lon="0.82429">
        <ele>156.35</ele>
        <time>2021-03-02T14:22:00Z</time>
      </trkpt>
      <trkpt lat="48.15925" lon="0.82417">
        <ele>154.91</ele>
        <time>2021-03-02T14:22:06Z</time>
      </trkpt>
      <trkpt lat="48.15921" lon="0.82405">
        <ele>154.91</ele>
        <time>2021-03-02T14:22:13Z</time>
      </trkpt>
      <trkpt lat="48.15915" lon="0.82393">
        <ele>154.43</ele>
        <time>2021-03-02T14:22:21Z</time>
      </trkpt>
      <trkpt lat="48.15908" lon="0.82378">
        <ele>154.43</ele>
        <time>2021-03-02T14:22:30Z</time>
      </trkpt>
      <trkpt lat="48.15901" lon="0.82364">
        <ele>154.43</ele>
        <time>2021-03-02T14:22:37Z</time>
      </trkpt>
      <trkpt lat="48.15897" lon="0.82348">
        <ele>154.43</ele>
        <time>2021-03-02T14:22:43Z</time>
      </trkpt>
      <trkpt lat="48.15892" lon="0.82335">
        <ele>153.95</ele>
        <time>2021-03-02T14:22:49Z</time>
      </trkpt>
      <trkpt lat="48.15886" lon="0.82323">
        <ele>153.95</ele>
        <time>2021-03-02T14:22:55Z</time>
      </trkpt>
      <trkpt lat="48.1588" lon="0.82311">
        <ele>153.95</ele>
        <time>2021-03-02T14:23:01Z</time>
      </trkpt>
      <trkpt lat="48.15875" lon="0.82301">
        <ele>153.95</ele>
        <time>2021-03-02T14:23:07Z</time>
      </trkpt>
      <trkpt lat="48.15869" lon="0.8229">
        <ele>153.95</ele>
        <time>2021-03-02T14:23:14Z</time>
      </trkpt>
      <trkpt lat="48.15862" lon="0.8228">
        <ele>153.95</ele>
        <time>2021-03-02T14:23:21Z</time>
      </trkpt>
      <trkpt lat="48.15855" lon="0.82268">
        <ele>153.95</ele>
        <time>2021-03-02T14:23:27Z</time>
      </trkpt>
      <trkpt lat="48.15849" lon="0.82256">
        <ele>153.95</ele>
        <time>2021-03-02T14:23:33Z</time>
      </trkpt>
      <trkpt lat="48.15845" lon="0.82242">
        <ele>153.95</ele>
        <time>2021-03-02T14:23:39Z</time>
      </trkpt>
      <trkpt lat="48.1584" lon="0.8223">
        <ele>153.47</ele>
        <time>2021-03-02T14:23:46Z</time>
      </trkpt>
      <trkpt lat="48.15834" lon="0.82218">
        <ele>153.47</ele>
        <time>2021-03-02T14:23:53Z</time>
      </trkpt>
      <trkpt lat="48.15828" lon="0.82206">
        <ele>153.47</ele>
        <time>2021-03-02T14:24:01Z</time>
      </trkpt>
      <trkpt lat="48.15822" lon="0.82193">
        <ele>153.47</ele>
        <time>2021-03-02T14:24:10Z</time>
      </trkpt>
      <trkpt lat="48.15817" lon="0.8218">
        <ele>153.47</ele>
        <time>2021-03-02T14:24:17Z</time>
      </trkpt>
      <trkpt lat="48.15812" lon="0.82164">
        <ele>152.99</ele>
        <time>2021-03-02T14:24:27Z</time>
      </trkpt>
      <trkpt lat="48.15806" lon="0.82152">
        <ele>152.99</ele>
        <time>2021-03-02T14:24:36Z</time>
      </trkpt>
      <trkpt lat="48.158" lon="0.82138">
        <ele>152.51</ele>
        <time>2021-03-02T14:24:44Z</time>
      </trkpt>
      <trkpt lat="48.15795" lon="0.82124">
        <ele>152.51</ele>
        <time>2021-03-02T14:24:52Z</time>
      </trkpt>
      <trkpt lat="48.15791" lon="0.82111">
        <ele>152.03</ele>
        <time>2021-03-02T14:25:00Z</time>
      </trkpt>
      <trkpt lat="48.15787" lon="0.82096">
        <ele>152.03</ele>
        <time>2021-03-02T14:25:08Z</time>
      </trkpt>
      <trkpt lat="48.15784" lon="0.82082">
        <ele>152.03</ele>
        <time>2021-03-02T14:25:16Z</time>
      </trkpt>
      <trkpt lat="48.15781" lon="0.82067">
        <ele>152.03</ele>
        <time>2021-03-02T14:25:24Z</time>
      </trkpt>
      <trkpt lat="48.15777" lon="0.82052">
        <ele>152.03</ele>
        <time>2021-03-02T14:25:32Z</time>
      </trkpt>
      <trkpt lat="48.15774" lon="0.82038">
        <ele>152.03</ele>
        <time>2021-03-02T14:25:40Z</time>
      </trkpt>
      <trkpt lat="48.15771" lon="0.82024">
        <ele>152.03</ele>
        <time>2021-03-02T14:25:48Z</time>
      </trkpt>
      <trkpt lat="48.15766" lon="0.82009">
        <ele>152.03</ele>
        <time>2021-03-02T14:25:58Z</time>
      </trkpt>
      <trkpt lat="48.15761" lon="0.81995">
        <ele>151.54</ele>
        <time>2021-03-02T14:26:07Z</time>
      </trkpt>
      <trkpt lat="48.1576" lon="0.81981">
        <ele>151.06</ele>
        <time>2021-03-02T14:26:16Z</time>
      </trkpt>
      <trkpt lat="48.15754" lon="0.81968">
        <ele>151.06</ele>
        <time>2021-03-02T14:26:24Z</time>
      </trkpt>
      <trkpt lat="48.15748" lon="0.81956">
        <ele>151.06</ele>
        <time>2021-03-02T14:26:33Z</time>
      </trkpt>
      <trkpt lat="48.15744" lon="0.81943">
        <ele>151.06</ele>
        <time>2021-03-02T14:26:42Z</time>
      </trkpt>
      <trkpt lat="48.1574" lon="0.81928">
        <ele>151.06</ele>
        <time>2021-03-02T14:26:51Z</time>
      </trkpt>
      <trkpt lat="48.15736" lon="0.81914">
        <ele>150.58</ele>
        <time>2021-03-02T14:27:01Z</time>
      </trkpt>
      <trkpt lat="48.15737" lon="0.81893">
        <ele>150.58</ele>
        <time>2021-03-02T14:27:31Z</time>
      </trkpt>
      <trkpt lat="48.15742" lon="0.81882">
        <ele>150.58</ele>
        <time>2021-03-02T14:27:40Z</time>
      </trkpt>
      <trkpt lat="48.15749" lon="0.81872">
        <ele>150.58</ele>
        <time>2021-03-02T14:27:49Z</time>
      </trkpt>
      <trkpt lat="48.15757" lon="0.81861">
        <ele>150.58</ele>
        <time>2021-03-02T14:27:58Z</time>
      </trkpt>
      <trkpt lat="48.15764" lon="0.8185">
        <ele>150.1</ele>
        <time>2021-03-02T14:28:07Z</time>
      </trkpt>
      <trkpt lat="48.15771" lon="0.81841">
        <ele>150.58</ele>
        <time>2021-03-02T14:28:16Z</time>
      </trkpt>
      <trkpt lat="48.15779" lon="0.81829">
        <ele>150.58</ele>
        <time>2021-03-02T14:28:29Z</time>
      </trkpt>
      <trkpt lat="48.15786" lon="0.81819">
        <ele>150.58</ele>
        <time>2021-03-02T14:28:37Z</time>
      </trkpt>
      <trkpt lat="48.15792" lon="0.81808">
        <ele>150.58</ele>
        <time>2021-03-02T14:28:46Z</time>
      </trkpt>
      <trkpt lat="48.15801" lon="0.81799">
        <ele>150.58</ele>
        <time>2021-03-02T14:28:54Z</time>
      </trkpt>
      <trkpt lat="48.15809" lon="0.8179">
        <ele>151.06</ele>
        <time>2021-03-02T14:29:03Z</time>
      </trkpt>
      <trkpt lat="48.15816" lon="0.81782">
        <ele>151.06</ele>
        <time>2021-03-02T14:29:12Z</time>
      </trkpt>
      <trkpt lat="48.15824" lon="0.81769">
        <ele>151.06</ele>
        <time>2021-03-02T14:29:25Z</time>
      </trkpt>
      <trkpt lat="48.1583" lon="0.81759">
        <ele>151.06</ele>
        <time>2021-03-02T14:29:32Z</time>
      </trkpt>
      <trkpt lat="48.15838" lon="0.81752">
        <ele>151.06</ele>
        <time>2021-03-02T14:29:41Z</time>
      </trkpt>
      <trkpt lat="48.15846" lon="0.81743">
        <ele>151.06</ele>
        <time>2021-03-02T14:29:49Z</time>
      </trkpt>
      <trkpt lat="48.15853" lon="0.81733">
        <ele>152.03</ele>
        <time>2021-03-02T14:29:59Z</time>
      </trkpt>
      <trkpt lat="48.1586" lon="0.81725">
        <ele>152.03</ele>
        <time>2021-03-02T14:30:08Z</time>
      </trkpt>
      <trkpt lat="48.15867" lon="0.81708">
        <ele>152.99</ele>
        <time>2021-03-02T14:31:21Z</time>
      </trkpt>
      <trkpt lat="48.1588" lon="0.81691">
        <ele>153.95</ele>
        <time>2021-03-02T14:31:39Z</time>
      </trkpt>
      <trkpt lat="48.1589" lon="0.81676">
        <ele>154.91</ele>
        <time>2021-03-02T14:31:53Z</time>
      </trkpt>
      <trkpt lat="48.15901" lon="0.81664">
        <ele>156.83</ele>
        <time>2021-03-02T14:33:06Z</time>
      </trkpt>
      <trkpt lat="48.15906" lon="0.8165">
        <ele>156.83</ele>
        <time>2021-03-02T14:33:17Z</time>
      </trkpt>
      <trkpt lat="48.15911" lon="0.81637">
        <ele>157.31</ele>
        <time>2021-03-02T14:33:27Z</time>
      </trkpt>
      <trkpt lat="48.15916" lon="0.81624">
        <ele>157.31</ele>
        <time>2021-03-02T14:33:36Z</time>
      </trkpt>
      <trkpt lat="48.15923" lon="0.81615">
        <ele>158.75</ele>
        <time>2021-03-02T14:33:45Z</time>
      </trkpt>
      <trkpt lat="48.15932" lon="0.81607">
        <ele>158.75</ele>
        <time>2021-03-02T14:33:54Z</time>
      </trkpt>
      <trkpt lat="48.15932" lon="0.81593">
        <ele>159.24</ele>
        <time>2021-03-02T14:34:04Z</time>
      </trkpt>
    </trkseg>
  </trk>
</gpx>